ftp/pub/palmer/observations_modified/2018/March/AR180304_BASE.txt

Download

Sample DateTime	Unit Id	WS Avg 2min	WD Avg 2min	WGS 10min	WGD 10min	Air Temp	Rel Humidity	Dew Point	Pyranometer	Quantum	Air Pressure	Snow Level	Rainfall	PW Current	Visibility	CBase 1	CBase 2	CBase 3	Vert Vis
2018/03/04 00:00:00	BASE	8.16	119	9.72	124	3.3	89	1.7	0	0	982.2	NA	0.0000		9999	4040	0	0	0
2018/03/04 00:01:00	BASE	8.96	119	9.72	124	3.2	89	1.6	0	0	982.2	NA	0.0000		9999	4100	0	0	0
2018/03/04 00:02:00	BASE	9.31	116	10.39	113	3.2	89	1.6	0	0	982.1	NA	0.0000		9999	4100	0	0	0
2018/03/04 00:03:00	BASE	9.44	115	10.39	113	3.1	90	1.5	0	0	982.1	NA	0.0000		9999	4170	0	0	0
2018/03/04 00:04:00	BASE	8.65	110	10.39	113	3.0	90	1.5	0	0	982.2	NA	0.0000		9999	4130	0	0	0
2018/03/04 00:05:00	BASE	8.25	101	10.39	113	3.0	90	1.5	0	0	982.3	NA	0.0000		9999	4170	0	0	0
2018/03/04 00:06:00	BASE	8.79	101	10.39	113	2.9	90	1.5	0	0	982.2	NA	0.0000		9999	4170	0	0	0
2018/03/04 00:07:00	BASE	8.49	100	10.39	113	2.8	91	1.5	0	0	982.3	NA	0.0000		9999	4170	0	0	0
2018/03/04 00:08:00	BASE	8.65	99	10.39	113	2.8	91	1.5	0	0	982.2	NA	0.0000		9999	4200	0	0	0
2018/03/04 00:09:00	BASE	8.99	105	10.39	113	2.8	91	1.5	0	0	982.2	NA	0.0000		9999	4330	6230	0	0
2018/03/04 00:10:00	BASE	8.61	105	10.39	113	2.8	92	1.6	0	0	982.3	NA	0.0000		9999	4270	0	0	0
2018/03/04 00:11:00	BASE	8.69	102	10.39	113	2.8	92	1.6	0	0	982.3	NA	0.0000		9999	4300	0	0	0
2018/03/04 00:12:00	BASE	7.78	98	10.34	101	2.9	92	1.8	0	0	982.3	NA	0.0000		9999	4270	0	0	0
2018/03/04 00:13:00	BASE	6.73	97	10.34	101	3.1	92	2.0	0	0	982.3	NA	0.0000		9999	4200	0	0	0
2018/03/04 00:14:00	BASE	7.54	96	10.80	91	3.3	92	2.1	0	0	982.2	NA	0.0000		9999	4300	0	0	0
2018/03/04 00:15:00	BASE	7.17	93	10.80	91	3.5	92	2.3	0	0	982.4	NA	0.0000		9999	4330	0	0	0
2018/03/04 00:16:00	BASE	7.19	90	10.80	91	3.7	91	2.4	0	0	982.3	NA	0.0000		9999	4270	0	0	0
2018/03/04 00:17:00	BASE	8.32	97	10.80	91	3.7	90	2.2	0	0	982.2	NA	0.0000		9999	4330	0	0	0
2018/03/04 00:18:00	BASE	7.45	103	10.80	91	3.6	89	2.0	0	0	982.3	NA	0.0000		9999	4950	5510	0	0
2018/03/04 00:19:00	BASE	7.06	103	10.80	91	3.6	88	1.9	0	0	982.3	NA	0.0000		9999	4430	0	0	0
2018/03/04 00:20:00	BASE	6.82	104	10.80	91	3.5	88	1.6	0	0	982.4	NA	0.0000		9999	4530	0	0	0
2018/03/04 00:21:00	BASE	6.71	101	10.80	91	3.3	87	1.4	0	0	982.4	NA	0.0000		9999	4400	0	0	0
2018/03/04 00:22:00	BASE	6.53	97	10.80	91	3.2	87	1.3	0	0	982.5	NA	0.0000		9999	4300	0	0	0
2018/03/04 00:23:00	BASE	6.09	90	10.80	91	3.2	88	1.3	0	0	982.5	NA	0.0000		9999	4300	0	0	0
2018/03/04 00:24:00	BASE	6.55	84	9.98	83	3.1	88	1.2	0	0	982.5	NA	0.0000		9999	4330	0	0	0
2018/03/04 00:25:00	BASE	7.01	86	9.98	83	3.0	88	1.2	0	0	982.5	NA	0.0000		9999	4400	0	0	0
2018/03/04 00:26:00	BASE	6.63	91	8.85	106	3.0	88	1.2	0	0	982.5	NA	0.0000		9999	4300	0	0	0
2018/03/04 00:27:00	BASE	5.48	98	8.75	117	2.9	88	1.2	0	0	982.4	NA	0.0000		9999	4360	0	0	0
2018/03/04 00:28:00	BASE	5.78	104	8.39	100	2.9	88	1.2	0	0	982.4	NA	0.0000		9999	4490	0	0	0
2018/03/04 00:29:00	BASE	7.55	105	8.85	103	2.9	89	1.2	0	0	982.3	NA	0.0000		9999	4400	0	0	0
2018/03/04 00:30:00	BASE	8.09	107	8.85	103	2.9	89	1.2	0	0	982.4	NA	0.0000		9999	4330	0	0	0
2018/03/04 00:31:00	BASE	7.83	111	8.85	103	2.8	89	1.2	0	0	982.3	NA	0.0000		9999	4400	0	0	0
2018/03/04 00:32:00	BASE	8.28	114	9.77	117	2.8	89	1.2	0	0	982.3	NA	0.0000		9999	4400	0	0	0
2018/03/04 00:33:00	BASE	8.13	114	9.77	117	2.8	89	1.3	0	0	982.4	NA	0.0000		9999	4400	0	0	0
2018/03/04 00:34:00	BASE	7.47	112	9.77	117	2.8	89	1.2	0	0	982.4	NA	0.0000		9999	4490	0	0	0
2018/03/04 00:35:00	BASE	7.98	116	10.19	116	2.8	89	1.2	0	0	982.2	NA	0.0000		9999	4460	0	0	0
2018/03/04 00:36:00	BASE	8.59	121	10.19	116	2.8	90	1.2	0	0	982.2	NA	0.0000		9999	4590	0	0	0
2018/03/04 00:37:00	BASE	8.23	119	10.19	116	2.8	90	1.2	0	0	982.4	NA	0.0000		9999	4760	0	0	0
2018/03/04 00:38:00	BASE	6.20	109	10.19	116	2.8	90	1.3	0	0	982.5	NA	0.0000		9999	4690	0	0	0
2018/03/04 00:39:00	BASE	3.90	94	10.19	116	2.9	90	1.3	0	0	982.6	NA	0.0000		9999	4690	0	0	0
2018/03/04 00:40:00	BASE	3.98	85	10.19	116	2.9	90	1.4	0	0	982.6	NA	0.0000		9999	4530	0	0	0
2018/03/04 00:41:00	BASE	4.91	95	10.19	116	3.0	89	1.4	0	0	982.6	NA	0.0000		9999	4270	0	0	0
2018/03/04 00:42:00	BASE	5.17	106	10.19	116	3.0	89	1.4	0	0	982.6	NA	0.0000		9999	4270	0	0	0
2018/03/04 00:43:00	BASE	4.64	110	10.19	116	3.0	89	1.3	0	0	982.6	NA	0.0000		9999	4330	0	0	0
2018/03/04 00:44:00	BASE	4.88	113	10.19	116	2.9	88	1.2	0	0	982.6	NA	0.0000		9999	4560	0	0	0
2018/03/04 00:45:01	BASE	6.20	116	9.77	120	2.9	88	1.2	0	0	982.6	NA	0.0000		9999	4630	0	0	0
2018/03/04 00:46:01	BASE	5.96	119	9.52	118	2.9	88	1.1	0	0	982.7	NA	0.0000		9999	4630	0	0	0
2018/03/04 00:47:01	BASE	4.90	120	7.25	119	2.8	88	1.1	0	0	982.7	NA	0.0000		9999	4760	0	0	0
2018/03/04 00:48:01	BASE	4.46	120	7.25	119	2.8	88	1.1	0	0	982.7	NA	0.0000		9999	4860	0	0	0
2018/03/04 00:49:01	BASE	4.39	120	7.25	119	2.8	89	1.1	0	0	982.7	NA	0.0000		9999	4920	0	0	0
2018/03/04 00:50:01	BASE	4.43	123	7.25	119	2.7	89	1.0	0	0	982.6	NA	0.0000		9999	4820	0	0	0
2018/03/04 00:51:01	BASE	4.62	121	7.25	119	2.7	89	1.0	0	0	982.6	NA	0.0000		9999	4490	0	0	0
2018/03/04 00:52:01	BASE	4.82	112	7.25	119	2.6	89	1.0	0	0	982.6	NA	0.0000		9999	3380	4200	4890	0
2018/03/04 00:53:01	BASE	5.15	105	7.25	119	2.6	89	1.0	0	0	982.7	NA	0.0000		9999	4560	0	0	0
2018/03/04 00:54:01	BASE	5.71	102	7.25	119	2.5	90	1.0	0	0	982.7	NA	0.0000		9999	3410	4560	0	0
2018/03/04 00:55:01	BASE	5.88	99	6.38	101	2.5	90	1.0	0	0	982.7	NA	0.0000		9999	3410	0	0	0
2018/03/04 00:56:01	BASE	5.78	100	6.38	101	2.5	91	1.1	0	0	982.7	NA	0.0000		9999	3940	0	0	0
2018/03/04 00:57:01	BASE	6.02	109	6.94	114	2.5	91	1.2	0	0	982.6	NA	0.0000		9999	4000	0	0	0
2018/03/04 00:58:01	BASE	6.15	125	7.92	122	2.5	92	1.2	0	0	982.5	NA	0.0000		9999	3710	0	0	0
2018/03/04 00:59:01	BASE	6.10	126	8.13	121	2.5	92	1.3	0	0	982.4	NA	0.0000		9999	3450	0	0	0
2018/03/04 01:00:01	BASE	6.65	119	8.13	121	2.5	92	1.3	0	0	982.4	NA	0.0000		9999	3450	4330	0	0
2018/03/04 01:01:01	BASE	7.05	115	8.13	121	2.5	92	1.3	0	0	982.4	NA	0.0000		9999	4330	0	0	0
2018/03/04 01:02:01	BASE	6.70	116	8.13	121	2.6	91	1.3	0	0	982.4	NA	0.0000		9999	3150	0	0	0
2018/03/04 01:03:01	BASE	6.53	118	8.13	121	2.6	91	1.2	0	0	982.3	NA	0.0000		9999	3250	4990	0	0
2018/03/04 01:04:01	BASE	6.53	114	8.13	121	2.5	91	1.2	0	0	982.4	NA	0.0000		9999	3020	0	0	0
2018/03/04 01:05:01	BASE	5.86	104	8.13	121	2.5	91	1.1	0	0	982.5	NA	0.0000		9999	3150	0	0	0
2018/03/04 01:06:01	BASE	5.61	91	8.13	121	2.5	91	1.1	0	0	982.6	NA	0.0000		9999	3150	0	0	0
2018/03/04 01:07:01	BASE	5.33	81	8.13	121	2.5	91	1.2	0	0	982.6	NA	0.0000		9999	3150	0	0	0
2018/03/04 01:08:01	BASE	4.61	76	8.13	121	2.5	92	1.2	0	0	982.7	NA	0.0000		9999	3220	0	0	0
2018/03/04 01:09:01	BASE	4.21	75	7.67	105	2.5	92	1.3	0	0	982.7	NA	0.0000		9999	3280	0	0	0
2018/03/04 01:10:01	BASE	4.61	78	7.67	105	2.5	92	1.3	0	0	982.6	NA	0.0000		9999	3150	0	0	0
2018/03/04 01:11:01	BASE	5.76	80	7.51	112	2.6	92	1.4	0	0	982.5	NA	0.0000		9999	2990	0	0	0
2018/03/04 01:12:01	BASE	6.56	91	7.61	94	2.6	92	1.4	0	0	982.6	NA	0.0000		9999	3310	0	0	0
2018/03/04 01:13:01	BASE	6.68	99	7.61	94	2.7	91	1.4	0	0	982.6	NA	0.0000		9999	3510	4170	0	0
2018/03/04 01:14:01	BASE	5.69	106	7.61	94	2.8	91	1.4	0	0	982.5	NA	0.0000		9999	4720	0	0	0
2018/03/04 01:15:01	BASE	5.12	123	7.61	94	2.9	90	1.4	0	0	982.4	NA	0.0000		9999	3540	4040	4860	0
2018/03/04 01:16:01	BASE	6.71	128	9.36	119	2.9	89	1.3	0	0	982.3	NA	0.0000		9999	3250	0	0	0
2018/03/04 01:17:01	BASE	7.50	121	9.36	119	3.0	88	1.3	0	0	982.3	NA	0.0000		9999	3150	0	0	0
2018/03/04 01:18:01	BASE	6.35	117	9.36	119	3.1	88	1.3	0	0	982.5	NA	0.0000		9999	3020	0	0	0
2018/03/04 01:19:01	BASE	5.07	108	9.36	119	3.2	87	1.2	0	0	982.6	NA	0.0000		9999	3180	0	0	0
2018/03/04 01:20:01	BASE	4.00	93	9.36	119	3.3	86	1.2	0	0	982.7	NA	0.0000		9999	3220	0	0	0
2018/03/04 01:21:01	BASE	3.21	76	9.36	119	3.4	85	1.2	0	0	982.7	NA	0.0000		9999	3180	0	0	0
2018/03/04 01:22:01	BASE	2.86	67	9.36	119	3.5	84	1.0	0	0	982.7	NA	0.0000		9999	3220	0	0	0
2018/03/04 01:23:01	BASE	3.01	73	9.36	119	3.5	83	0.9	0	0	982.7	NA	0.0000		9999	3250	0	0	0
2018/03/04 01:24:01	BASE	3.40	82	9.36	119	3.5	83	0.8	0	0	982.7	NA	0.0000		9999	3220	0	0	0
2018/03/04 01:25:01	BASE	4.04	82	9.36	119	3.4	82	0.7	0	0	982.7	NA	0.0000		9999	2950	0	0	0
2018/03/04 01:26:01	BASE	4.68	82	8.44	112	3.3	83	0.7	0	0	982.7	NA	0.0000		9999	2990	0	0	0
2018/03/04 01:27:01	BASE	5.08	87	6.69	105	3.3	83	0.6	0	0	982.6	NA	0.0000		9999	3050	0	0	0
2018/03/04 01:28:01	BASE	5.56	96	6.58	95	3.3	83	0.6	0	0	982.5	NA	0.0000		9999	4100	0	0	0
2018/03/04 01:29:01	BASE	5.77	105	6.58	95	3.2	83	0.7	0	0	982.5	NA	0.0000		9999	4000	0	0	0
2018/03/04 01:30:01	BASE	5.39	102	6.58	95	3.2	83	0.7	0	0	982.6	NA	0.0000		9999	3870	0	0	0
2018/03/04 01:31:01	BASE	4.91	94	6.58	95	3.2	83	0.6	0	0	982.7	NA	0.0000		9999	3810	0	0	0
2018/03/04 01:32:01	BASE	4.43	89	6.58	95	3.2	83	0.6	0	0	982.7	NA	0.0000		9999	3710	0	0	0
2018/03/04 01:33:01	BASE	4.22	88	6.58	95	3.2	83	0.6	0	0	982.7	NA	0.0000		9999	3610	0	0	0
2018/03/04 01:34:01	BASE	4.44	95	6.58	95	3.2	83	0.6	0	0	982.6	NA	0.0000		9999	3610	0	0	0
2018/03/04 01:35:01	BASE	4.74	102	6.58	95	3.2	83	0.5	0	0	982.6	NA	0.0000		9999	3610	0	0	0
2018/03/04 01:36:01	BASE	4.58	98	6.58	95	3.1	83	0.5	0	0	982.6	NA	0.0000		9999	3940	0	0	0
2018/03/04 01:37:01	BASE	4.35	93	6.33	108	3.0	83	0.5	0	0	982.6	NA	0.0000		9999	3940	0	0	0
2018/03/04 01:38:01	BASE	4.15	99	6.33	108	3.0	84	0.5	0	0	982.5	NA	0.0000		9999	4070	0	0	0
2018/03/04 01:39:01	BASE	3.68	108	5.66	94	2.9	84	0.5	0	0	982.5	NA	0.0000		9999	4300	0	0	0
2018/03/04 01:40:01	BASE	3.37	99	5.40	104	2.9	85	0.6	0	0	982.5	NA	0.0000		9999	4360	0	0	0
2018/03/04 01:41:01	BASE	4.01	96	5.40	104	2.9	85	0.7	0	0	982.5	NA	0.0000		9999	4430	0	0	0
2018/03/04 01:42:01	BASE	4.91	108	5.45	114	2.9	86	0.7	0	0	982.4	NA	0.0000		9999	4560	0	0	0
2018/03/04 01:43:01	BASE	5.02	111	5.45	114	2.9	86	0.8	0	0	982.4	NA	0.0000		9999	4590	0	0	0
2018/03/04 01:44:01	BASE	4.81	111	5.45	114	2.9	86	0.8	0	0	982.4	NA	0.0000		9999	4660	0	0	0
2018/03/04 01:45:01	BASE	4.39	111	5.45	114	2.9	86	0.8	0	0	982.4	NA	0.0000		9999	4660	0	0	0
2018/03/04 01:46:01	BASE	4.46	109	5.45	114	2.9	86	0.8	0	0	982.4	NA	0.0000		9999	4760	0	0	0
2018/03/04 01:47:01	BASE	4.81	106	5.56	103	2.9	86	0.8	0	0	982.4	NA	0.0000		9999	4760	0	0	0
2018/03/04 01:48:01	BASE	4.78	104	5.56	103	2.9	87	0.9	0	0	982.4	NA	0.0000		9999	4790	0	0	0
2018/03/04 01:49:01	BASE	4.80	104	6.28	99	2.9	87	0.9	0	0	982.4	NA	0.0000		9999	4890	0	0	0
2018/03/04 01:50:01	BASE	4.97	104	6.28	99	3.0	87	1.0	0	0	982.4	NA	0.0000		9999	4920	0	0	0
2018/03/04 01:51:01	BASE	4.67	102	6.28	99	3.1	86	1.0	0	0	982.5	NA	0.0000		9999	4950	0	0	0
2018/03/04 01:52:01	BASE	4.43	100	6.28	99	3.1	86	1.0	0	0	982.6	NA	0.0000		9999	5020	0	0	0
2018/03/04 01:53:01	BASE	4.15	98	6.28	99	3.2	85	1.0	0	0	982.6	NA	0.0000		9999	5150	0	0	0
2018/03/04 01:54:01	BASE	3.77	98	6.28	99	3.2	85	0.9	0	0	982.6	NA	0.0000		9999	5020	0	0	0
2018/03/04 01:55:01	BASE	4.04	101	6.28	99	3.2	84	0.8	0	0	982.5	NA	0.0000		9999	5050	0	0	0
2018/03/04 01:56:01	BASE	4.89	105	6.28	99	3.2	84	0.8	0	0	982.4	NA	0.0000		9999	4920	0	0	0
2018/03/04 01:57:01	BASE	5.58	107	6.28	99	3.2	84	0.8	0	0	982.4	NA	0.0000		9999	4760	0	0	0
2018/03/04 01:58:01	BASE	4.86	103	6.28	99	3.2	84	0.8	0	0	982.4	NA	0.0000		9999	4820	0	0	0
2018/03/04 01:59:01	BASE	4.30	96	6.17	113	3.2	84	0.8	0	0	982.4	NA	0.0000		9999	4860	0	0	0
2018/03/04 02:00:01	BASE	4.38	98	6.17	113	3.2	84	0.8	0	0	982.5	NA	0.0000		9999	4990	0	0	0
2018/03/04 02:01:01	BASE	4.06	98	6.17	113	3.3	84	0.9	0	0	982.4	NA	0.0000		9999	5020	0	0	0
2018/03/04 02:02:01	BASE	3.84	91	6.17	113	3.3	84	0.9	0	0	982.4	NA	0.0000		9999	5150	0	0	0
2018/03/04 02:03:01	BASE	3.45	86	6.17	113	3.3	84	0.9	0	0	982.4	NA	0.0000		9999	5280	0	0	0
2018/03/04 02:04:01	BASE	3.40	78	6.17	113	3.4	84	1.0	0	0	982.4	NA	0.0000		9999	5410	0	0	0
2018/03/04 02:05:01	BASE	3.23	74	6.17	113	3.5	84	1.0	0	0	982.5	NA	0.0000		9999	5380	0	0	0
2018/03/04 02:06:01	BASE	3.50	53	6.17	113	3.5	84	1.1	0	0	982.5	NA	0.0000		9999	5250	0	0	0
2018/03/04 02:07:01	BASE	3.95	20	5.92	24	3.7	85	1.4	0	0	982.4	NA	0.0000		9999	5410	0	0	0
2018/03/04 02:08:01	BASE	4.03	12	6.43	332	3.9	86	1.7	0	0	982.4	NA	0.0000		9999	5350	0	0	0
2018/03/04 02:09:01	BASE	5.29	20	7.61	24	4.0	86	1.9	0	0	982.4	NA	0.0000		9999	5580	0	0	0
2018/03/04 02:10:01	BASE	6.22	26	8.03	15	4.2	87	2.2	0	0	982.4	NA	0.0000		9999	5710	0	0	0
2018/03/04 02:11:01	BASE	6.29	22	8.39	20	4.3	87	2.3	0	0	982.4	NA	0.0000		9999	5840	0	0	0
2018/03/04 02:12:01	BASE	6.45	21	8.39	20	4.3	87	2.4	0	0	982.3	NA	0.0000		9999	5710	0	0	0
2018/03/04 02:13:01	BASE	6.51	22	8.39	20	4.3	87	2.4	0	0	982.3	NA	0.0000		9999	5580	0	0	0
2018/03/04 02:14:01	BASE	6.82	24	8.69	23	4.3	88	2.5	0	0	982.3	NA	0.0000		9999	5480	0	0	0
2018/03/04 02:15:01	BASE	7.14	24	8.95	14	4.3	88	2.5	0	0	982.3	NA	0.0000		9999	5640	0	0	0
2018/03/04 02:16:01	BASE	6.92	21	8.95	14	4.3	89	2.6	0	0	982.3	NA	0.0000		9999	5180	5710	0	0
2018/03/04 02:17:01	BASE	6.93	21	8.95	14	4.3	89	2.6	0	0	982.3	NA	0.0000		9999	4920	0	0	0
2018/03/04 02:18:01	BASE	7.28	24	9.72	8	4.3	89	2.7	0	0	982.3	NA	0.0000		9999	4760	0	0	0
2018/03/04 02:19:01	BASE	7.43	24	9.72	8	4.3	90	2.7	0	0	982.3	NA	0.0000		9999	4720	0	0	0
2018/03/04 02:20:01	BASE	7.97	23	10.24	17	4.2	90	2.7	0	0	982.3	NA	0.0000		9999	4560	0	0	0
2018/03/04 02:21:01	BASE	8.09	20	10.24	17	4.2	90	2.8	0	0	982.3	NA	0.0000		9999	4630	0	0	0
2018/03/04 02:22:01	BASE	7.49	17	10.24	17	4.2	91	2.8	0	0	982.3	NA	0.0000		9999	4560	0	0	0
2018/03/04 02:23:01	BASE	7.31	20	10.24	17	4.2	91	2.9	0	0	982.3	NA	0.0000		9999	4630	0	0	0
2018/03/04 02:24:01	BASE	7.66	21	10.24	17	4.3	91	2.9	0	0	982.3	NA	0.0000		9999	4430	0	0	0
2018/03/04 02:25:01	BASE	7.67	19	10.24	17	4.3	91	2.9	0	0	982.3	NA	0.0000		9999	4070	0	0	0
2018/03/04 02:26:01	BASE	7.23	20	10.24	17	4.3	91	2.9	0	0	982.3	NA	0.0000		9999	4430	0	0	0
2018/03/04 02:27:01	BASE	7.47	20	10.24	17	4.3	91	2.9	0	0	982.2	NA	0.0000		9999	4300	0	0	0
2018/03/04 02:28:01	BASE	8.25	19	10.44	22	4.3	91	2.9	0	0	982.2	NA	0.0000	-RA	9999	4130	0	0	0
2018/03/04 02:29:01	BASE	8.39	17	10.44	22	4.3	91	3.0	0	0	982.2	NA	0.0000	-RA	9999	4000	0	0	0
2018/03/04 02:30:01	BASE	8.22	15	10.44	22	4.3	91	3.0	0	0	982.2	NA	0.0000	-RA	9999	4460	0	0	0
2018/03/04 02:31:01	BASE	8.04	13	10.44	22	4.2	92	3.0	0	0	982.2	NA	0.0000	-RA	9999	4790	0	0	0
2018/03/04 02:32:01	BASE	8.11	12	10.44	22	4.2	92	3.0	0	0	982.2	NA	0.0000	-RA	9999	4950	0	0	0
2018/03/04 02:33:01	BASE	8.54	16	10.44	22	4.2	92	3.1	0	0	982.1	NA	0.0000	-RA	9999	3900	0	0	0
2018/03/04 02:34:00	BASE	9.09	16	10.60	16	4.2	92	3.1	0	0	982.1	NA	0.0000	-RA	9999	0	0	0	6040
2018/03/04 02:35:01	BASE	9.66	18	11.06	24	4.2	93	3.1	0	0	982.1	NA	0.0000	-RA	9999	5180	0	0	0
2018/03/04 02:36:00	BASE	9.79	18	12.09	23	4.2	93	3.1	0	0	982.1	NA	0.0000	-RA	9999	5020	0	0	0
2018/03/04 02:37:00	BASE	9.84	20	12.09	23	4.2	93	3.2	0	0	982.0	NA	0.0000	-RA	9999	5450	0	0	0
2018/03/04 02:38:00	BASE	8.66	20	12.09	23	4.2	94	3.2	0	0	982.1	NA	0.0000	-RA	9999	5280	0	0	0
2018/03/04 02:39:00	BASE	7.97	18	12.09	23	4.1	94	3.2	0	0	982.1	NA	0.0000	-RA	9999	5580	0	0	0
2018/03/04 02:40:00	BASE	8.08	18	12.09	23	4.1	94	3.2	0	0	982.0	NA	0.0000	-RA	9999	5450	0	0	0
2018/03/04 02:41:00	BASE	7.94	17	12.09	23	4.1	94	3.2	0	0	982.0	NA	0.0000	-RA	9999	5510	0	0	0
2018/03/04 02:42:00	BASE	8.51	16	12.55	10	4.1	94	3.2	0	0	982.0	NA	0.0000	-RA	9999	5640	0	0	0
2018/03/04 02:43:00	BASE	9.29	16	12.55	10	4.1	94	3.2	0	0	981.9	NA	0.0000	-RA	9999	5810	0	0	0
2018/03/04 02:44:01	BASE	10.04	16	12.55	10	4.1	95	3.3	0	0	982.0	NA	0.0000	-RA	9999	5970	0	0	0
2018/03/04 02:45:00	BASE	10.59	14	12.55	10	4.1	95	3.3	0	0	981.9	NA	0.0000	-RA	9999	5970	6460	0	0
2018/03/04 02:46:01	BASE	10.08	12	12.55	10	4.1	95	3.3	0	0	982.0	NA	0.0000	-RA	9999	6370	0	0	0
2018/03/04 02:47:00	BASE	9.05	13	12.55	10	4.1	94	3.3	0	0	982.0	NA	0.0000	-RA	9999	5940	0	0	0
2018/03/04 02:48:00	BASE	9.30	13	12.55	10	4.1	94	3.3	0	0	982.0	NA	0.0000	-RA	9999	6100	0	0	0
2018/03/04 02:49:00	BASE	9.47	12	12.55	10	4.1	94	3.3	0	0	982.0	NA	0.0000	-RA	9999	6200	6890	0	0
2018/03/04 02:50:00	BASE	9.74	9	12.55	10	4.1	94	3.2	0	0	981.9	NA	0.0000	-RA	9999	6100	6920	0	0
2018/03/04 02:51:00	BASE	11.81	7	14.82	14	4.1	94	3.2	0	0	981.7	NA	0.0000	-RA	9999	6270	6860	0	0
2018/03/04 02:52:00	BASE	13.08	10	14.97	16	4.1	94	3.3	0	0	981.7	NA	0.0000	-RA	9999	6890	0	0	0
2018/03/04 02:53:00	BASE	12.84	10	14.97	16	4.2	94	3.3	0	0	981.7	NA	0.0000	-RA	9999	7020	0	0	0
2018/03/04 02:54:00	BASE	12.59	10	14.97	16	4.2	94	3.3	0	0	981.7	NA	0.0000	-RA	9999	7020	0	0	0
2018/03/04 02:55:00	BASE	12.57	8	14.97	16	4.2	94	3.3	0	0	981.7	NA	0.0000	-RA	9999	6960	0	0	0
2018/03/04 02:56:00	BASE	13.51	10	15.33	5	4.2	94	3.3	0	0	981.6	NA	0.0000	-RA	9999	6920	0	0	0
2018/03/04 02:57:00	BASE	14.02	11	15.33	5	4.2	94	3.3	0	0	981.7	NA	0.0000	-RA	9999	6460	0	0	0
2018/03/04 02:58:00	BASE	12.63	10	15.33	5	4.2	94	3.3	0	0	981.8	NA	0.0000	-RA	9999	6660	0	0	0
2018/03/04 02:59:00	BASE	11.42	10	15.33	5	4.2	94	3.3	0	0	981.8	NA	0.0000	-RA	9999	6660	7510	0	0
2018/03/04 03:00:01	BASE	11.59	16	15.33	5	4.2	94	3.3	0	0	981.8	NA	0.0000	-RA	9999	7710	0	0	0
2018/03/04 03:01:00	BASE	11.70	17	15.33	5	4.2	94	3.3	0	0	981.8	NA	0.0000	-RA	9999	7050	7550	0	0
2018/03/04 03:02:00	BASE	11.55	13	15.33	5	4.2	94	3.3	0	0	981.8	NA	0.0000	-RA	9999	7350	0	0	0
2018/03/04 03:03:00	BASE	11.03	13	15.33	5	4.2	94	3.3	0	0	981.9	NA	0.0000	-RA	9999	7250	0	0	0
2018/03/04 03:04:00	BASE	10.45	17	15.33	5	4.1	94	3.3	0	0	981.9	NA	0.0000	-RA	9999	6760	0	0	0
2018/03/04 03:05:00	BASE	10.45	20	15.33	5	4.1	95	3.3	0	0	981.9	NA	0.0000	-RA	9999	6730	0	0	0
2018/03/04 03:06:00	BASE	9.89	19	15.12	8	4.1	95	3.3	0	0	982.0	NA	0.0000	-RA	9999	6860	8040	0	0
2018/03/04 03:07:00	BASE	9.98	16	13.99	17	4.1	95	3.3	0	0	981.9	NA	0.0000	-RA	9999	7780	0	0	0
2018/03/04 03:08:00	BASE	10.82	16	13.99	17	4.1	95	3.3	0	0	981.9	NA	0.0000	-RA	9999	0	0	0	2760
2018/03/04 03:09:00	BASE	10.61	14	13.99	17	4.1	95	3.3	0	0	981.9	NA	0.0000	-RA	9999	0	0	0	7020
2018/03/04 03:10:00	BASE	9.96	12	13.99	17	4.0	95	3.3	0	0	981.9	NA	0.0000	-RA	9999	0	0	0	5640
2018/03/04 03:11:00	BASE	10.11	12	13.99	17	4.0	95	3.3	0	0	981.9	NA	0.0000	-RA	9999	0	0	0	4950
2018/03/04 03:12:00	BASE	10.80	10	12.91	11	4.0	95	3.4	0	0	981.8	NA	0.0000	-RA	9999	0	0	0	4720
2018/03/04 03:13:00	BASE	11.47	11	14.46	19	4.0	96	3.4	0	0	981.8	NA	0.0000	-RA	9999	0	0	0	3770
2018/03/04 03:14:00	BASE	11.26	12	14.46	19	4.0	96	3.4	0	0	981.8	NA	0.0000	-RA	9999	0	0	0	3480
2018/03/04 03:15:00	BASE	10.39	12	14.46	19	4.1	96	3.5	0	0	981.9	NA	0.0000	-RA	9999	0	0	0	3840
2018/03/04 03:16:00	BASE	10.67	12	14.46	19	4.1	96	3.4	0	0	981.8	NA	0.0000	-RA	9999	0	0	0	4000
2018/03/04 03:17:00	BASE	11.29	12	14.46	19	4.1	95	3.4	0	0	981.8	NA	0.0000	-RA	9999	0	0	0	3540
2018/03/04 03:18:00	BASE	11.37	16	14.46	19	4.1	95	3.4	0	0	981.8	NA	0.0000	-RA	9999	0	0	0	3870
2018/03/04 03:19:00	BASE	11.32	21	14.46	19	4.1	95	3.4	0	0	981.8	NA	0.0000	-RA	9999	0	0	0	4130
2018/03/04 03:20:00	BASE	11.15	16	14.46	19	4.2	95	3.4	0	0	981.7	NA	0.0000	-RA	9999	0	0	0	4070
2018/03/04 03:21:00	BASE	11.59	13	14.46	19	4.2	95	3.4	0	0	981.7	NA	0.0000	-RA	9999	0	0	0	3940
2018/03/04 03:22:00	BASE	12.59	14	14.92	3	4.2	95	3.5	0	0	981.6	NA	0.0000	-RA	9999	0	0	0	3580
2018/03/04 03:23:00	BASE	13.01	14	14.97	11	4.2	95	3.5	0	0	981.6	NA	0.0000	-RA	9999	0	0	0	3740
2018/03/04 03:24:00	BASE	13.31	14	14.97	11	4.2	95	3.5	0	0	981.6	NA	0.0000	-RA	9999	0	0	0	3940
2018/03/04 03:25:00	BASE	13.10	14	14.97	11	4.3	95	3.5	0	0	981.6	NA	0.0000	-RA	9999	0	0	0	4200
2018/03/04 03:26:00	BASE	12.21	13	14.97	11	4.3	95	3.5	0	0	981.6	NA	0.0000	-RA	9999	0	0	0	4330
2018/03/04 03:27:00	BASE	12.20	13	14.97	11	4.3	95	3.5	0	0	981.7	NA	0.0000	-RA	9999	0	0	0	3740
2018/03/04 03:28:00	BASE	12.90	16	14.97	11	4.3	95	3.5	0	0	981.6	NA	0.0000	-RA	9999	0	0	0	3840
2018/03/04 03:29:00	BASE	13.12	14	14.97	11	4.3	95	3.5	0	0	981.6	NA	0.0000	-RA	9999	0	0	0	3870
2018/03/04 03:30:00	BASE	12.80	16	14.97	11	4.3	95	3.5	0	0	981.6	NA	0.0000	-RA	9999	3810	0	0	0
2018/03/04 03:31:00	BASE	12.53	17	14.97	11	4.3	95	3.5	0	0	981.6	NA	0.0000	-RA	9999	4200	0	0	0
2018/03/04 03:32:00	BASE	12.98	15	14.97	11	4.3	95	3.5	0	0	981.6	NA	0.0000	-RA	9999	0	0	0	1120
2018/03/04 03:33:00	BASE	12.70	16	14.92	14	4.3	94	3.5	0	0	981.6	NA	0.0000	-RA	9999	0	0	0	1150
2018/03/04 03:34:00	BASE	11.94	15	14.92	14	4.3	94	3.4	0	0	981.6	NA	0.0000	-RA	9999	0	0	0	1180
2018/03/04 03:35:00	BASE	12.68	15	15.84	9	4.3	94	3.4	0	0	981.5	NA	0.0000	-RA	9999	0	0	0	1380
2018/03/04 03:36:00	BASE	13.13	14	15.84	9	4.3	94	3.4	0	0	981.4	NA	0.0000	-RA	9999	0	0	0	5180
2018/03/04 03:37:00	BASE	12.76	16	15.84	9	4.3	94	3.5	0	0	981.5	NA	0.0000	-RA	9999	0	0	0	5350
2018/03/04 03:38:00	BASE	12.92	15	15.84	9	4.3	94	3.5	0	0	981.4	NA	0.0000	-RA	9999	0	0	0	5280
2018/03/04 03:39:00	BASE	13.34	14	15.84	9	4.4	94	3.5	0	0	981.4	NA	0.0000	-RA	9999	0	0	0	5350
2018/03/04 03:40:00	BASE	13.58	15	15.84	9	4.4	94	3.5	0	0	981.4	NA	0.0000	-RA	9999	0	0	0	5350
2018/03/04 03:41:00	BASE	13.64	14	15.84	9	4.4	94	3.5	0	0	981.4	NA	0.0000	-RA	9999	4000	0	0	0
2018/03/04 03:42:00	BASE	12.85	16	15.84	9	4.4	94	3.5	0	0	981.5	NA	0.0000	-RA	9999	3670	0	0	0
2018/03/04 03:43:00	BASE	12.92	17	15.84	9	4.4	94	3.5	0	0	981.4	NA	0.0000	-RA	9999	3840	0	0	0
2018/03/04 03:44:00	BASE	12.60	17	15.84	9	4.4	93	3.5	0	0	981.5	NA	0.0000	-RA	9999	4100	0	0	0
2018/03/04 03:45:00	BASE	11.36	16	15.54	9	4.4	93	3.4	0	0	981.5	NA	0.0000	-RA	9999	6920	0	0	0
2018/03/04 03:46:00	BASE	11.28	17	15.54	9	4.4	93	3.4	0	0	981.5	NA	0.0000	-RA	9999	6860	0	0	0
2018/03/04 03:47:00	BASE	10.68	20	15.54	9	4.4	93	3.4	0	0	981.6	NA	0.0000	-RA	9999	6730	0	0	0
2018/03/04 03:48:00	BASE	11.10	19	15.54	9	4.4	93	3.4	0	0	981.5	NA	0.0000		9999	6920	0	0	0
2018/03/04 03:49:00	BASE	11.86	17	15.54	9	4.4	93	3.4	0	0	981.5	NA	0.0000		9999	7050	7640	0	0
2018/03/04 03:50:00	BASE	11.74	19	15.18	13	4.4	93	3.4	0	0	981.4	NA	0.0000		9999	7250	0	0	0
2018/03/04 03:51:00	BASE	12.08	19	15.18	13	4.4	93	3.3	0	0	981.4	NA	0.0000		9999	6960	0	0	0
2018/03/04 03:52:00	BASE	12.25	20	15.18	13	4.4	93	3.3	0	0	981.3	NA	0.0000		9999	6990	0	0	0
2018/03/04 03:53:00	BASE	12.71	20	14.82	18	4.4	92	3.3	0	0	981.3	NA	0.0000		9999	7150	0	0	0
2018/03/04 03:54:00	BASE	12.94	19	14.82	18	4.4	92	3.3	0	0	981.3	NA	0.0000		9999	6790	0	0	0
2018/03/04 03:55:00	BASE	12.42	17	14.82	18	4.5	92	3.3	0	0	981.3	NA	0.0000		9999	6990	0	0	0
2018/03/04 03:56:00	BASE	12.20	18	14.82	18	4.5	92	3.3	0	0	981.3	NA	0.0000		9999	7280	0	0	0
2018/03/04 03:57:00	BASE	11.91	18	14.82	18	4.5	92	3.3	0	0	981.3	NA	0.0000		9999	6820	0	0	0
2018/03/04 03:58:00	BASE	12.22	17	15.59	15	4.5	92	3.3	0	0	981.3	NA	0.0000		9999	6730	0	0	0
2018/03/04 03:59:00	BASE	12.77	15	15.74	10	4.5	92	3.3	0	0	981.3	NA	0.0000		9999	6590	7840	0	0
2018/03/04 04:00:00	BASE	12.39	15	15.74	10	4.4	92	3.3	0	0	981.3	NA	0.0000		9999	6560	0	0	0
2018/03/04 04:01:00	BASE	12.33	16	15.74	10	4.4	92	3.3	0	0	981.3	NA	0.0000		9999	6660	0	0	0
2018/03/04 04:02:00	BASE	12.74	14	16.15	9	4.5	92	3.2	0	0	981.2	NA	0.0000		9999	6630	7350	0	0
2018/03/04 04:03:00	BASE	13.15	15	16.15	9	4.5	92	3.2	0	0	981.2	NA	0.0000		9999	6660	0	0	0
2018/03/04 04:04:00	BASE	13.56	15	16.15	9	4.5	91	3.2	0	0	981.2	NA	0.0000		9999	6730	0	0	0
2018/03/04 04:05:00	BASE	13.80	15	17.08	18	4.5	91	3.2	0	0	981.2	NA	0.0000		9999	6760	0	0	0
2018/03/04 04:06:00	BASE	13.79	15	17.08	18	4.5	91	3.2	0	0	981.2	NA	0.0000		9999	6860	0	0	0
2018/03/04 04:07:00	BASE	13.41	15	17.08	18	4.5	91	3.2	0	0	981.2	NA	0.0000		9999	6960	0	0	0
2018/03/04 04:08:00	BASE	13.70	15	17.08	18	4.5	91	3.2	0	0	981.1	NA	0.0000		9999	6860	0	0	0
2018/03/04 04:09:00	BASE	14.21	14	17.08	18	4.5	91	3.2	0	0	981.1	NA	0.0000		9999	6960	0	0	0
2018/03/04 04:10:00	BASE	14.18	14	17.08	18	4.5	91	3.2	0	0	981.2	NA	0.0000		9999	6820	7550	0	0
2018/03/04 04:11:00	BASE	13.71	13	17.08	18	4.5	91	3.2	0	0	981.2	NA	0.0000		9999	6790	0	0	0
2018/03/04 04:12:00	BASE	13.55	13	17.08	18	4.5	91	3.2	0	0	981.2	NA	0.0000		9999	6760	0	0	0
2018/03/04 04:13:00	BASE	13.94	14	17.08	18	4.6	91	3.2	0	0	981.2	NA	0.0000		9999	6790	7910	0	0
2018/03/04 04:14:00	BASE	13.17	7	17.08	18	4.6	91	3.2	0	0	981.3	NA	0.0000		9999	6760	0	0	0
2018/03/04 04:15:00	BASE	13.17	6	16.62	9	4.6	91	3.3	0	0	981.2	NA	0.0000		9999	6790	0	0	0
2018/03/04 04:16:00	BASE	13.60	13	16.62	9	4.6	91	3.3	0	0	981.3	NA	0.0000	-RA	9999	6730	8560	0	0
2018/03/04 04:17:00	BASE	13.30	13	16.62	9	4.6	91	3.3	0	0	981.3	NA	0.0000	-RA	9999	6920	7580	0	0
2018/03/04 04:18:00	BASE	13.30	14	16.62	9	4.7	91	3.3	0	0	981.3	NA	0.0000	-RA	9999	7710	8860	0	0
2018/03/04 04:19:00	BASE	13.60	13	17.34	15	4.7	91	3.3	0	0	981.2	NA	0.0000	-RA	9999	7840	8560	0	0
2018/03/04 04:20:00	BASE	13.73	13	17.34	15	4.7	90	3.2	0	0	981.3	NA	0.0000	-RA	9999	7640	0	0	0
2018/03/04 04:21:00	BASE	13.51	14	17.34	15	4.7	90	3.2	0	0	981.3	NA	0.0000	-RA	9999	7150	0	0	0
2018/03/04 04:22:00	BASE	13.07	12	17.34	15	4.7	90	3.2	0	0	981.4	NA	0.0000	-RA	9999	7320	7910	0	0
2018/03/04 04:23:00	BASE	12.74	12	17.34	15	4.6	90	3.2	0	0	981.4	NA	0.0000	-RA	9999	5770	0	0	0
2018/03/04 04:24:00	BASE	12.63	13	17.34	15	4.6	90	3.2	0	0	981.5	NA	0.0000	-RA	9999	5970	7380	0	0
2018/03/04 04:25:00	BASE	12.67	11	17.34	15	4.6	91	3.2	0	0	981.4	NA	0.0000	-RA	9999	5970	7380	0	0
2018/03/04 04:26:00	BASE	11.94	9	17.34	15	4.6	91	3.2	0	0	981.5	NA	0.0000		9999	5970	7350	0	0
2018/03/04 04:27:00	BASE	10.98	8	17.34	15	4.5	91	3.2	0	0	981.5	NA	0.0000	-RA	9999	7280	0	0	0
2018/03/04 04:28:00	BASE	11.44	9	17.34	15	4.5	91	3.2	0	0	981.5	NA	0.0000		9999	7740	0	0	0
2018/03/04 04:29:00	BASE	12.25	9	15.90	18	4.5	91	3.2	0	0	981.4	NA	0.0000		9999	7740	0	0	0
2018/03/04 04:30:00	BASE	12.20	9	15.90	18	4.4	92	3.2	0	0	981.4	NA	0.0000		9999	7640	0	0	0
2018/03/04 04:31:00	BASE	11.82	13	14.82	333	4.4	92	3.2	0	0	981.4	NA	0.0000		9999	7450	0	0	0
2018/03/04 04:32:00	BASE	12.04	13	14.82	333	4.5	92	3.3	0	0	981.4	NA	0.0000		9999	7510	0	0	0
2018/03/04 04:33:00	BASE	12.80	12	16.05	9	4.5	92	3.3	0	0	981.3	NA	0.0000		9999	7150	7680	0	0
2018/03/04 04:34:00	BASE	13.04	11	16.20	23	4.5	92	3.3	0	0	981.3	NA	0.0000		9999	7090	0	0	0
2018/03/04 04:35:00	BASE	12.74	11	16.20	23	4.5	92	3.3	0	0	981.3	NA	0.0000		9999	7090	0	0	0
2018/03/04 04:36:00	BASE	12.09	9	16.20	23	4.5	92	3.3	0	0	981.4	NA	0.0000		9999	7420	0	0	0
2018/03/04 04:37:00	BASE	11.69	13	16.20	23	4.5	92	3.3	0	0	981.3	NA	0.0000		9999	7640	0	0	0
2018/03/04 04:38:00	BASE	12.72	17	16.20	23	4.5	92	3.3	0	0	981.3	NA	0.0000		9999	7910	0	0	0
2018/03/04 04:39:00	BASE	13.01	13	16.20	23	4.5	92	3.3	0	0	981.3	NA	0.0000		9999	7940	0	0	0
2018/03/04 04:40:00	BASE	12.58	15	16.20	23	4.5	92	3.3	0	0	981.3	NA	0.0000		9999	7840	0	0	0
2018/03/04 04:41:00	BASE	12.75	14	16.20	23	4.5	92	3.3	0	0	981.3	NA	0.0000		9999	7740	0	0	0
2018/03/04 04:42:00	BASE	12.36	9	16.20	23	4.5	92	3.3	0	0	981.3	NA	0.0000		9999	7840	0	0	0
2018/03/04 04:43:00	BASE	12.91	9	16.20	23	4.5	92	3.3	0	0	981.2	NA	0.0000		9999	7910	0	0	0
2018/03/04 04:44:00	BASE	13.71	14	16.15	14	4.5	92	3.3	0	0	981.2	NA	0.0000		9999	7910	0	0	0
2018/03/04 04:45:00	BASE	13.99	12	16.77	329	4.5	92	3.3	0	0	981.2	NA	0.0000		9999	8070	0	0	0
2018/03/04 04:46:00	BASE	14.22	8	16.77	329	4.5	92	3.3	0	0	981.2	NA	0.0000		9999	8010	0	0	0
2018/03/04 04:47:00	BASE	14.13	9	16.77	329	4.5	92	3.4	0	0	981.1	NA	0.0000		9999	7970	0	0	0
2018/03/04 04:48:00	BASE	13.94	9	16.77	329	4.6	92	3.4	0	0	981.2	NA	0.0000		9999	8070	0	0	0
2018/03/04 04:49:00	BASE	13.76	8	16.77	329	4.6	92	3.4	0	0	981.2	NA	0.0000		9999	8040	0	0	0
2018/03/04 04:50:00	BASE	14.03	10	16.77	329	4.6	92	3.4	0	0	981.1	NA	0.0000		9999	8100	0	0	0
2018/03/04 04:51:00	BASE	14.17	10	16.77	329	4.6	92	3.4	0	0	981.1	NA	0.0000		9999	8100	0	0	0
2018/03/04 04:52:00	BASE	13.93	7	16.77	329	4.6	92	3.4	0	0	981.1	NA	0.0000		9999	8300	0	0	0
2018/03/04 04:53:00	BASE	14.04	8	16.77	329	4.7	91	3.4	0	0	981.1	NA	0.0000		9999	8330	0	0	0
2018/03/04 04:54:00	BASE	14.41	9	17.85	3	4.7	91	3.3	0	0	981.1	NA	0.0000		9999	8330	0	0	0
2018/03/04 04:55:00	BASE	14.17	11	17.85	3	4.7	91	3.3	0	0	981.1	NA	0.0000		9999	8170	0	0	0
2018/03/04 04:56:00	BASE	14.09	11	17.85	3	4.7	91	3.3	0	0	981.0	NA	0.0000		9999	8200	0	0	0
2018/03/04 04:57:00	BASE	14.49	11	18.21	11	4.7	91	3.3	0	0	980.9	NA	0.0000		9999	8270	0	0	0
2018/03/04 04:58:00	BASE	14.35	10	18.21	11	4.7	91	3.3	0	0	981.0	NA	0.0000		9999	8070	0	0	0
2018/03/04 04:59:00	BASE	14.03	8	18.21	11	4.7	91	3.3	0	0	981.0	NA	0.0000		9999	8040	0	0	0
2018/03/04 05:00:00	BASE	14.60	10	18.21	11	4.7	91	3.3	0	0	981.0	NA	0.0000		9999	8100	0	0	0
2018/03/04 05:01:00	BASE	14.72	11	18.21	11	4.7	90	3.3	0	0	981.0	NA	0.0000		9999	8170	0	0	0
2018/03/04 05:02:00	BASE	14.63	10	18.21	11	4.7	90	3.2	0	0	980.9	NA	0.0000		9999	8200	0	0	0
2018/03/04 05:03:00	BASE	14.19	9	18.21	11	4.7	90	3.2	0	0	981.0	NA	0.0000		9999	8200	0	0	0
2018/03/04 05:04:00	BASE	14.01	9	18.21	11	4.8	90	3.2	0	0	981.0	NA	0.0000		9999	8200	0	0	0
2018/03/04 05:05:00	BASE	14.71	10	18.21	11	4.8	89	3.2	0	0	981.0	NA	0.0000		9999	8200	0	0	0
2018/03/04 05:06:00	BASE	14.89	10	18.21	11	4.8	89	3.2	0	0	981.0	NA	0.0000		9999	8240	0	0	0
2018/03/04 05:07:00	BASE	15.09	10	18.01	19	4.8	89	3.1	0	0	981.0	NA	0.0000		9999	8300	0	0	0
2018/03/04 05:08:00	BASE	14.97	9	18.01	19	4.9	89	3.1	0	0	981.1	NA	0.0000		9999	8240	0	0	0
2018/03/04 05:09:00	BASE	14.95	9	18.01	19	4.9	88	3.1	0	0	981.0	NA	0.0000		9999	7910	0	0	0
2018/03/04 05:10:00	BASE	15.07	11	18.01	19	4.9	88	3.1	0	0	981.1	NA	0.0000		9999	7970	0	0	0
2018/03/04 05:11:00	BASE	14.23	13	18.01	19	4.9	88	3.0	0	0	981.2	NA	0.0000		9999	7910	0	0	0
2018/03/04 05:12:00	BASE	14.15	15	18.01	19	4.8	88	3.0	0	0	981.1	NA	0.0000		9999	8010	0	0	0
2018/03/04 05:13:00	BASE	13.79	16	18.01	19	4.8	88	3.0	0	0	981.2	NA	0.0000	-RA	9999	8040	0	0	0
2018/03/04 05:14:00	BASE	13.11	16	18.01	19	4.8	88	3.0	0	0	981.2	NA	0.0000	-RA	9999	8010	0	0	0
2018/03/04 05:15:00	BASE	13.06	15	18.01	19	4.8	88	3.0	0	0	981.2	NA	0.0000	-RA	9999	7940	0	0	0
2018/03/04 05:16:00	BASE	13.28	14	18.01	19	4.7	88	3.0	0	0	981.2	NA	0.0000	-RA	9999	7910	0	0	0
2018/03/04 05:17:00	BASE	13.37	15	17.03	2	4.7	89	3.0	0	0	981.2	NA	0.0000	-RA	9999	8100	0	0	0
2018/03/04 05:18:00	BASE	13.50	15	17.03	2	4.7	89	3.0	0	0	981.2	NA	0.0000	-RA	9999	8140	0	0	0
2018/03/04 05:19:00	BASE	13.74	14	16.98	22	4.7	89	3.0	0	0	981.3	NA	0.0000	-RA	9999	8040	0	0	0
2018/03/04 05:20:00	BASE	13.27	12	16.98	22	4.7	89	3.0	0	0	981.3	NA	0.0000	-RA	9999	8660	0	0	0
2018/03/04 05:21:00	BASE	13.40	12	16.98	22	4.7	89	3.1	0	0	981.3	NA	0.0000	-RA	9999	8830	0	0	0
2018/03/04 05:22:00	BASE	13.47	17	16.51	17	4.7	89	3.1	0	0	981.4	NA	0.0000	-RA	9999	7810	8960	0	0
2018/03/04 05:23:00	BASE	12.84	19	16.51	17	4.8	89	3.1	0	0	981.4	NA	0.0000	-RA	9999	8690	0	0	0
2018/03/04 05:24:00	BASE	12.56	18	16.51	17	4.8	89	3.1	0	0	981.4	NA	0.0000		9999	8660	0	0	0
2018/03/04 05:25:00	BASE	12.20	20	16.51	17	4.8	89	3.1	0	0	981.5	NA	0.0000		9999	8460	0	0	0
2018/03/04 05:26:00	BASE	11.85	23	16.51	17	4.7	89	3.1	0	0	981.5	NA	0.0000		9999	8270	0	0	0
2018/03/04 05:27:00	BASE	10.65	25	16.51	17	4.7	89	3.1	0	0	981.6	NA	0.0000		9999	8040	0	0	0
2018/03/04 05:28:00	BASE	9.54	25	16.51	17	4.7	89	3.1	0	0	981.6	NA	0.0000	-RA	9999	8100	0	0	0
2018/03/04 05:29:00	BASE	10.05	25	16.20	17	4.7	90	3.1	0	0	981.6	NA	0.0000	-RA	9999	8240	0	0	0
2018/03/04 05:30:00	BASE	11.01	24	16.20	17	4.7	90	3.2	0	0	981.6	NA	0.0000	-RA	9999	8240	0	0	0
2018/03/04 05:31:00	BASE	12.10	22	15.95	27	4.7	90	3.2	0	0	981.6	NA	0.0000	-RA	9999	8300	0	0	0
2018/03/04 05:32:00	BASE	11.97	24	15.95	27	4.8	90	3.3	0	0	981.6	NA	0.0000		9999	8070	8530	0	0
2018/03/04 05:33:00	BASE	10.96	25	15.95	27	4.8	90	3.3	0	0	981.7	NA	0.0000		9999	8140	0	0	0
2018/03/04 05:34:00	BASE	10.80	20	15.95	27	4.8	90	3.3	0	0	981.7	NA	0.0000		9999	8200	0	0	0
2018/03/04 05:35:00	BASE	10.51	20	15.95	27	4.8	90	3.3	0	0	981.7	NA	0.0000		9999	8100	0	0	0
2018/03/04 05:36:00	BASE	9.74	20	15.95	27	4.8	90	3.3	0	0	981.7	NA	0.0000		9999	8240	0	0	0
2018/03/04 05:37:00	BASE	9.80	19	15.95	27	4.8	90	3.3	0	0	981.7	NA	0.0000		9999	8370	0	0	0
2018/03/04 05:38:00	BASE	10.22	19	15.95	27	4.8	90	3.3	0	0	981.7	NA	0.0000		9999	7710	8240	0	0
2018/03/04 05:39:00	BASE	9.75	18	15.95	27	4.8	90	3.3	0	0	981.7	NA	0.0000		9999	8140	0	0	0
2018/03/04 05:40:00	BASE	10.42	17	15.95	27	4.8	90	3.3	0	0	981.6	NA	0.0000		9999	7940	0	0	0
2018/03/04 05:41:00	BASE	11.78	20	14.15	27	4.8	90	3.3	0	0	981.6	NA	0.0000		9999	8170	0	0	0
2018/03/04 05:42:00	BASE	11.01	20	14.15	27	4.8	90	3.4	0	0	981.7	NA	0.0000		9999	8370	0	0	0
2018/03/04 05:43:00	BASE	10.34	21	14.15	27	4.8	90	3.4	0	0	981.7	NA	0.0000		9999	8500	0	0	0
2018/03/04 05:44:00	BASE	10.02	21	14.15	27	4.8	90	3.4	0	0	981.7	NA	0.0000		9999	8600	0	0	0
2018/03/04 05:45:00	BASE	9.69	16	14.15	27	4.9	90	3.4	0	0	981.7	NA	0.0000		9999	8630	0	0	0
2018/03/04 05:46:00	BASE	9.82	17	14.15	27	4.9	90	3.4	0	0	981.7	NA	0.0000		9999	8790	0	0	0
2018/03/04 05:47:00	BASE	10.49	19	14.15	27	4.9	90	3.4	0	0	981.7	NA	0.0000		9999	8920	0	0	0
2018/03/04 05:48:00	BASE	10.51	18	14.15	27	4.9	90	3.4	0	0	981.8	NA	0.0000		9999	9060	0	0	0
2018/03/04 05:49:00	BASE	9.42	19	14.15	27	4.9	90	3.3	0	0	981.8	NA	0.0000		9999	9220	0	0	0
2018/03/04 05:50:00	BASE	9.70	22	13.99	25	4.9	89	3.3	0	0	981.7	NA	0.0000		9999	9190	0	0	0
2018/03/04 05:51:00	BASE	10.06	23	12.71	6	4.9	89	3.3	0	0	981.7	NA	0.0000		9999	9150	0	0	0
2018/03/04 05:52:00	BASE	9.69	19	12.71	6	4.9	89	3.3	0	0	981.8	NA	0.0000		9999	9150	0	0	0
2018/03/04 05:53:00	BASE	9.70	19	12.71	6	4.9	89	3.3	0	0	981.7	NA	0.0000		9999	8920	0	0	0
2018/03/04 05:54:00	BASE	9.63	20	12.71	6	5.0	89	3.3	0	0	981.8	NA	0.0000		9999	8660	9120	0	0
2018/03/04 05:55:00	BASE	9.26	23	12.71	6	5.0	89	3.3	0	0	981.9	NA	0.0000		9999	8960	0	0	0
2018/03/04 05:56:00	BASE	8.96	29	12.60	33	5.0	89	3.2	0	0	981.9	NA	0.0000		9999	8330	8860	0	0
2018/03/04 05:57:00	BASE	8.15	33	12.55	16	5.0	88	3.2	0	0	982.0	NA	0.0000		9999	7910	0	0	0
2018/03/04 05:58:00	BASE	6.91	37	12.55	16	5.0	88	3.2	0	0	982.0	NA	0.0000		9999	7970	0	0	0
2018/03/04 05:59:00	BASE	6.55	43	12.55	16	5.0	88	3.1	0	0	982.0	NA	0.0000		9999	8240	0	0	0
2018/03/04 06:00:00	BASE	6.91	56	12.55	16	5.0	88	3.1	0	0	982.1	NA	0.0000		9999	8300	0	0	0
2018/03/04 06:01:00	BASE	6.56	56	11.88	24	5.0	88	3.1	0	0	982.1	NA	0.0000		9999	8170	0	0	0
2018/03/04 06:02:00	BASE	5.61	49	11.88	24	5.0	88	3.1	0	0	982.1	NA	0.0000		9999	8100	0	0	0
2018/03/04 06:03:00	BASE	6.69	45	11.88	24	4.9	88	3.1	0	0	982.1	NA	0.0000		9999	8010	0	0	0
2018/03/04 06:04:00	BASE	7.89	41	11.88	24	4.9	88	3.1	0	0	982.1	NA	0.0000		9999	7840	0	0	0
2018/03/04 06:05:00	BASE	6.23	43	10.08	26	5.0	88	3.1	0	0	982.1	NA	0.0000		9999	7740	0	0	0
2018/03/04 06:06:00	BASE	4.66	55	10.08	26	5.0	88	3.1	0	0	982.2	NA	0.0000		9999	7550	0	0	0
2018/03/04 06:07:00	BASE	4.82	66	10.08	26	4.9	88	3.1	0	0	982.1	NA	0.0000		9999	7510	0	0	0
2018/03/04 06:08:00	BASE	4.69	78	10.08	26	4.9	87	2.9	0	0	982.2	NA	0.0000		9999	7740	0	0	0
2018/03/04 06:09:00	BASE	4.05	95	10.08	26	4.7	87	2.7	0	0	982.1	NA	0.0000		9999	7740	0	0	0
2018/03/04 06:10:00	BASE	3.88	96	10.08	26	4.5	87	2.5	0	0	982.1	NA	0.0000		9999	7680	0	0	0
2018/03/04 06:11:00	BASE	4.05	84	10.08	26	4.3	88	2.4	0	0	982.1	NA	0.0000		9999	7680	0	0	0
2018/03/04 06:12:00	BASE	4.74	75	10.08	26	4.2	88	2.4	0	0	982.1	NA	0.0000		9999	7640	0	0	0
2018/03/04 06:13:00	BASE	4.29	83	10.08	26	4.1	88	2.4	0	0	982.1	NA	0.0000		9999	7610	0	0	0
2018/03/04 06:14:00	BASE	3.20	79	9.52	41	4.2	89	2.5	0	0	982.1	NA	0.0000		9999	7550	0	0	0
2018/03/04 06:15:00	BASE	3.00	68	9.52	41	4.2	89	2.7	0	0	982.1	NA	0.0000		9999	7480	0	0	0
2018/03/04 06:16:00	BASE	3.93	62	9.52	41	4.3	90	2.8	0	0	982.0	NA	0.0000		9999	7550	0	0	0
2018/03/04 06:17:00	BASE	4.83	54	9.52	41	4.4	90	2.9	0	0	982.0	NA	0.0000		9999	7550	0	0	0
2018/03/04 06:18:00	BASE	5.33	59	9.52	41	4.5	91	3.1	0	0	982.0	NA	0.0000		9999	7450	0	0	0
2018/03/04 06:19:02	BASE	5.88	59	9.52	41	4.6	91	3.2	0	0	982.0	NA	0.0000		9999	7350	0	0	0
2018/03/04 06:20:01	BASE	5.82	51	9.52	41	4.7	91	3.3	0	0	982.1	NA	0.0000		9999	7350	0	0	0
2018/03/04 06:21:02	BASE	4.45	53	9.52	41	4.7	91	3.4	0	0	982.0	NA	0.0000		9999	7350	0	0	0
2018/03/04 06:22:01	BASE	3.98	62	9.00	64	4.7	91	3.4	0	0	982.1	NA	0.0000		9999	7320	0	0	0
2018/03/04 06:23:02	BASE	3.57	62	9.00	64	4.7	91	3.4	0	0	982.1	NA	0.0000		9999	7480	0	0	0
2018/03/04 06:24:01	BASE	3.69	63	9.00	64	4.8	91	3.4	0	0	982.0	NA	0.0000		9999	7420	0	0	0
2018/03/04 06:25:01	BASE	3.21	52	9.00	64	4.7	91	3.3	0	0	982.1	NA	0.0000		9999	7280	7970	0	0
2018/03/04 06:26:02	BASE	2.11	22	9.00	64	4.6	91	3.2	0	0	982.1	NA	0.0000		9999	7780	0	0	0
2018/03/04 06:27:01	BASE	3.37	35	9.00	64	4.6	91	3.3	0	0	982.1	NA	0.0000		9999	7710	0	0	0
2018/03/04 06:28:01	BASE	3.95	36	9.00	64	4.7	91	3.3	0	0	982.0	NA	0.0000		9999	7640	0	0	0
2018/03/04 06:29:02	BASE	3.31	31	7.41	35	4.7	91	3.3	0	0	982.1	NA	0.0000		9999	7710	0	0	0
2018/03/04 06:30:02	BASE	3.89	37	6.94	14	4.7	91	3.4	0	0	982.1	NA	0.0000		9999	7780	0	0	0
2018/03/04 06:31:02	BASE	3.47	57	6.94	14	4.8	91	3.4	0	0	982.1	NA	0.0000		9999	7810	0	0	0
2018/03/04 06:32:02	BASE	2.94	58	6.94	14	4.8	91	3.4	0	0	982.1	NA	0.0000		9999	7740	0	0	0
2018/03/04 06:33:02	BASE	3.26	44	6.94	14	4.8	90	3.4	0	0	982.1	NA	0.0000		9999	7610	0	0	0
2018/03/04 06:34:01	BASE	3.50	63	6.94	14	4.8	90	3.3	0	0	982.1	NA	0.0000		9999	7150	0	0	0
2018/03/04 06:35:02	BASE	4.29	98	6.94	14	4.8	90	3.2	0	0	982.1	NA	0.0000		9999	7450	0	0	0
2018/03/04 06:36:02	BASE	4.28	110	6.94	14	4.6	90	3.1	0	0	982.1	NA	0.0000		9999	7640	0	0	0
2018/03/04 06:37:02	BASE	3.91	112	6.79	41	4.5	90	3.0	0	0	982.1	NA	0.0000		9999	7550	0	0	0
2018/03/04 06:38:01	BASE	4.12	103	6.79	41	4.4	89	2.8	0	0	982.1	NA	0.0000		9999	7580	0	0	0
2018/03/04 06:39:01	BASE	4.49	91	6.79	41	4.3	89	2.7	0	0	982.1	NA	0.0000		9999	7640	0	0	0
2018/03/04 06:40:01	BASE	3.83	88	6.22	89	4.3	90	2.7	0	0	982.1	NA	0.0000		9999	7680	0	0	0
2018/03/04 06:41:01	BASE	2.88	84	6.22	89	4.3	90	2.7	0	0	982.2	NA	0.0000		9999	7640	0	0	0
2018/03/04 06:42:01	BASE	2.37	81	6.22	89	4.2	90	2.7	0	0	982.1	NA	0.0000		9999	7710	0	0	0
2018/03/04 06:43:01	BASE	3.11	70	6.22	89	4.2	90	2.7	0	0	982.1	NA	0.0000		9999	7020	7550	0	0
2018/03/04 06:44:02	BASE	4.47	75	6.69	96	4.2	90	2.7	0	0	982.1	NA	0.0000		9999	7510	0	0	0
2018/03/04 06:45:01	BASE	5.13	94	7.05	86	4.1	89	2.6	0	0	982.1	NA	0.0000		9999	7510	0	0	0
2018/03/04 06:46:02	BASE	5.22	103	7.05	86	4.1	89	2.5	0	0	982.1	NA	0.0000		9999	7550	0	0	0
2018/03/04 06:47:01	BASE	4.67	107	7.05	86	4.0	89	2.4	0	0	982.1	NA	0.0000		9999	7550	0	0	0
2018/03/04 06:48:02	BASE	4.61	111	7.05	86	3.9	89	2.3	0	0	982.1	NA	0.0000		9999	7510	0	0	0
2018/03/04 06:49:01	BASE	5.41	113	8.75	117	3.8	89	2.1	0	0	981.9	NA	0.0000		9999	7450	0	0	0
2018/03/04 06:50:01	BASE	4.93	111	8.75	117	3.8	89	2.1	0	0	982.0	NA	0.0000		9999	7150	0	0	0
2018/03/04 06:51:02	BASE	4.21	111	8.75	117	3.8	89	2.1	0	0	982.0	NA	0.0000		9999	7250	0	0	0
2018/03/04 06:52:02	BASE	5.23	114	8.75	117	3.7	89	2.1	0	0	981.9	NA	0.0000		9999	7220	0	0	0
2018/03/04 06:53:01	BASE	5.65	110	8.75	117	3.7	89	2.1	0	0	982.0	NA	0.0000		9999	7220	0	0	0
2018/03/04 06:54:02	BASE	5.42	109	8.75	117	3.7	90	2.1	0	0	982.0	NA	0.0000		9999	7190	0	0	0
2018/03/04 06:55:01	BASE	4.68	102	8.75	117	3.7	90	2.2	0	0	982.1	NA	0.0000		9999	7120	0	0	0
2018/03/04 06:56:01	BASE	3.41	89	8.75	117	3.8	90	2.3	0	0	982.1	NA	0.0000		9999	7050	0	0	0
2018/03/04 06:57:01	BASE	3.45	84	8.75	117	3.9	91	2.5	0	0	982.1	NA	0.0000		9999	7190	0	0	0
2018/03/04 06:58:01	BASE	4.78	101	8.75	117	4.0	91	2.6	0	0	982.0	NA	0.0000		9999	7280	0	0	0
2018/03/04 06:59:01	BASE	4.69	121	7.20	103	4.1	90	2.7	0	0	982.1	NA	0.0000		9999	7320	0	0	0
2018/03/04 07:00:03	BASE	4.37	108	7.20	103	4.1	90	2.6	0	0	982.0	NA	0.0000		9999	7350	0	0	0
2018/03/04 07:01:02	BASE	5.83	106	7.56	122	4.0	89	2.4	0	0	982.0	NA	0.0000		9999	6890	0	0	0
2018/03/04 07:02:02	BASE	6.88	116	7.82	118	4.0	89	2.3	0	0	981.9	NA	0.0000		9999	7280	0	0	0
2018/03/04 07:03:02	BASE	6.74	112	8.08	103	4.0	89	2.3	0	0	982.0	NA	0.0000		9999	7150	0	0	0
2018/03/04 07:04:02	BASE	6.29	101	8.08	103	4.1	89	2.3	0	0	981.9	NA	0.0000		9999	7250	0	0	0
2018/03/04 07:05:02	BASE	5.97	98	8.08	103	4.1	88	2.4	0	0	981.9	NA	0.0000		9999	7150	0	0	0
2018/03/04 07:06:02	BASE	5.93	99	8.08	103	4.2	88	2.4	0	0	982.0	NA	0.0000		9999	7120	0	0	0
2018/03/04 07:07:02	BASE	5.95	94	8.08	103	4.2	89	2.5	0	0	982.0	NA	0.0000		9999	7120	0	0	0
2018/03/04 07:08:03	BASE	6.07	76	8.08	103	4.2	89	2.6	0	0	982.0	NA	0.0000		9999	6630	0	0	0
2018/03/04 07:09:03	BASE	7.00	69	9.11	71	4.2	89	2.7	0	0	982.0	NA	0.0000		9999	6560	0	0	0
2018/03/04 07:10:03	BASE	6.24	84	9.11	71	4.3	90	2.8	0	0	982.1	NA	0.0000		9999	6690	7090	0	0
2018/03/04 07:11:03	BASE	5.11	93	9.11	71	4.3	91	2.9	0	0	982.0	NA	0.0000		9999	6820	0	0	0
2018/03/04 07:12:02	BASE	6.45	98	9.11	71	4.2	91	2.9	0	0	982.0	NA	0.0000		9999	6960	0	0	0
2018/03/04 07:13:02	BASE	6.92	99	9.11	71	4.1	91	2.7	0	0	982.0	NA	0.0000		9999	7050	0	0	0
2018/03/04 07:14:02	BASE	6.01	98	9.11	71	3.9	90	2.5	0	0	982.0	NA	0.0000		9999	6890	0	0	0
2018/03/04 07:16:00	BASE	6.17	102	9.11	71	3.8	90	2.4	0	0	982.0	NA	0.0000		9999	6860	0	0	0
2018/03/04 07:17:00	BASE	5.82	108	9.11	71	3.8	90	2.3	0	0	981.9	NA	0.0000		9999	6820	0	0	0
2018/03/04 07:18:00	BASE	5.48	107	9.11	71	3.8	90	2.3	0	0	982.0	NA	0.0000		9999	6630	0	0	0
2018/03/04 07:19:00	BASE	5.80	103	8.95	60	3.9	89	2.3	0	0	982.0	NA	0.0000		9999	6200	0	0	0
2018/03/04 07:20:00	BASE	6.01	102	8.08	103	4.0	89	2.3	0	0	981.9	NA	0.0000		9999	6070	0	0	0
2018/03/04 07:21:00	BASE	6.16	106	8.18	113	4.0	88	2.3	0	0	981.9	NA	0.0000		9999	6100	0	0	0
2018/03/04 07:22:00	BASE	6.78	109	8.18	113	4.1	88	2.2	0	0	981.9	NA	0.0000		9999	6070	0	0	0
2018/03/04 07:23:00	BASE	6.65	107	8.18	113	4.1	87	2.2	0	0	982.0	NA	0.0000		9999	5940	0	0	0
2018/03/04 07:24:00	BASE	6.09	111	8.18	113	4.1	87	2.2	0	0	982.0	NA	0.0000		9999	5940	0	0	0
2018/03/04 07:25:00	BASE	6.05	116	8.18	113	4.2	87	2.2	0	0	982.0	NA	0.0000		9999	5910	0	0	0
2018/03/04 07:26:00	BASE	6.19	113	8.18	113	4.2	87	2.1	0	0	981.9	NA	0.0000		9999	5910	0	0	0
2018/03/04 07:27:00	BASE	6.66	113	8.18	113	4.1	86	2.1	0	0	981.8	NA	0.0000		9999	5610	0	0	0
2018/03/04 07:28:00	BASE	6.81	115	8.18	113	4.1	86	2.0	0	0	981.8	NA	0.0000		9999	5510	0	0	0
2018/03/04 07:29:00	BASE	6.92	113	8.18	113	4.0	86	1.8	0	0	981.9	NA	0.0000		9999	5640	0	0	0
2018/03/04 07:30:00	BASE	6.76	113	8.18	113	3.9	85	1.7	0	0	981.9	NA	0.0000		9999	5640	0	0	0
2018/03/04 07:31:00	BASE	5.94	112	8.08	111	3.9	85	1.7	0	0	981.9	NA	0.0000		9999	5510	0	0	0
2018/03/04 07:32:00	BASE	5.74	107	8.08	111	3.8	85	1.6	0	0	981.9	NA	0.0000		9999	5480	0	0	0
2018/03/04 07:33:00	BASE	5.85	99	8.08	111	3.8	86	1.6	0	0	982.0	NA	0.0000		9999	5540	0	0	0
2018/03/04 07:34:00	BASE	5.93	96	8.08	111	3.8	86	1.7	0	0	982.0	NA	0.0000		9999	5610	0	0	0
2018/03/04 07:35:00	BASE	6.14	100	8.08	111	3.8	86	1.8	0	0	982.0	NA	0.0000		9999	5640	0	0	0
2018/03/04 07:36:00	BASE	6.42	99	8.08	111	3.8	87	1.8	0	0	982.0	NA	0.0000		9999	5680	0	0	0
2018/03/04 07:37:00	BASE	6.66	97	8.08	111	3.8	87	1.8	0	0	982.0	NA	0.0000		9999	5680	0	0	0
2018/03/04 07:38:00	BASE	6.78	101	8.08	111	3.8	87	1.8	0	0	982.0	NA	0.0000		9999	5740	0	0	0
2018/03/04 07:39:00	BASE	6.34	101	7.97	101	3.8	86	1.8	0	0	982.0	NA	0.0000		9999	5740	0	0	0
2018/03/04 07:40:00	BASE	5.73	93	7.97	101	3.9	86	1.8	0	0	982.1	NA	0.0000		9999	5770	0	0	0
2018/03/04 07:41:00	BASE	5.84	87	7.97	101	3.9	86	1.7	0	0	982.0	NA	0.0000		9999	5840	0	0	0
2018/03/04 07:42:00	BASE	6.29	92	7.97	101	3.9	86	1.8	0	0	982.0	NA	0.0000		9999	5840	0	0	0
2018/03/04 07:43:00	BASE	6.42	98	7.97	101	3.9	86	1.8	0	0	982.0	NA	0.0000		9999	5870	0	0	0
2018/03/04 07:44:00	BASE	5.94	98	7.97	101	3.9	86	1.7	0	0	982.0	NA	0.0000		9999	5970	0	0	0
2018/03/04 07:45:00	BASE	5.85	96	7.97	101	3.8	86	1.7	0	0	982.0	NA	0.0000		9999	5910	0	0	0
2018/03/04 07:46:00	BASE	5.92	96	7.97	101	3.8	86	1.7	0	0	982.0	NA	0.0000		9999	5770	0	0	0
2018/03/04 07:47:00	BASE	5.61	96	7.97	101	3.8	86	1.6	0	0	982.0	NA	0.0000		9999	5810	0	0	0
2018/03/04 07:48:00	BASE	5.38	97	7.87	64	3.7	86	1.6	0	0	982.0	NA	0.0000		9999	5870	0	0	0
2018/03/04 07:49:00	BASE	5.21	99	7.87	64	3.7	86	1.6	0	0	982.1	NA	0.0000		9999	5940	0	0	0
2018/03/04 07:50:01	BASE	5.06	97	7.87	64	3.7	86	1.6	0	0	982.1	NA	0.0000		9999	5870	0	0	0
2018/03/04 07:51:00	BASE	5.13	94	7.51	86	3.7	86	1.5	0	0	982.1	NA	0.0000		9999	6000	0	0	0
2018/03/04 07:52:00	BASE	5.16	93	7.51	86	3.6	86	1.5	0	0	982.1	NA	0.0000		9999	5970	0	0	0
2018/03/04 07:53:00	BASE	4.77	96	6.74	101	3.7	86	1.6	0	0	982.2	NA	0.0000		9999	5970	0	0	0
2018/03/04 07:54:00	BASE	4.26	103	6.74	101	3.7	86	1.6	0	0	982.1	NA	0.0000		9999	6100	0	0	0
2018/03/04 07:55:00	BASE	4.33	104	6.69	99	3.7	86	1.6	0	0	982.1	NA	0.0000		9999	6170	0	0	0
2018/03/04 07:56:00	BASE	4.43	103	6.43	79	3.7	86	1.6	0	0	982.2	NA	0.0000		9999	6170	0	0	0
2018/03/04 07:57:00	BASE	4.25	98	6.28	97	3.7	86	1.6	0	0	982.1	NA	0.0000		9999	6170	0	0	0
2018/03/04 07:58:00	BASE	4.10	100	6.28	97	3.6	86	1.6	0	0	982.1	NA	0.0000		9999	6300	0	0	0
2018/03/04 07:59:00	BASE	3.67	99	6.28	97	3.6	87	1.6	0	0	982.2	NA	0.0000		9999	6460	0	0	0
2018/03/04 08:00:00	BASE	3.72	87	6.28	97	3.5	87	1.6	0	0	982.1	NA	0.0000		9999	6140	0	0	0
2018/03/04 08:01:00	BASE	4.84	67	8.18	27	3.6	88	1.8	0	0	982.1	NA	0.0000		9999	6100	0	0	0
2018/03/04 08:02:01	BASE	5.63	50	8.18	27	3.8	89	2.1	0	0	982.1	NA	0.0000		9999	6000	0	0	0
2018/03/04 08:03:00	BASE	5.95	45	8.18	27	4.0	89	2.4	0	0	982.1	NA	0.0000		9999	6330	6960	0	0
2018/03/04 08:04:00	BASE	6.46	40	8.18	27	4.2	90	2.7	0	0	982.1	NA	0.0000		9999	6460	7050	0	0
2018/03/04 08:05:00	BASE	6.26	47	8.18	27	4.4	90	2.9	0	0	982.1	NA	0.0000		9999	5970	0	0	0
2018/03/04 08:06:00	BASE	5.79	54	8.18	27	4.5	90	3.0	0	0	982.2	NA	0.0000		9999	5940	0	0	0
2018/03/04 08:07:00	BASE	5.34	57	8.18	27	4.6	90	3.0	0	0	982.2	NA	0.0000		9999	5810	0	0	0
2018/03/04 08:08:00	BASE	5.04	60	8.18	27	4.6	89	3.0	0	0	982.2	NA	0.0000		9999	5680	0	0	0
2018/03/04 08:09:00	BASE	4.66	62	8.18	27	4.5	89	2.9	0	0	982.2	NA	0.0000		9999	5480	0	0	0
2018/03/04 08:10:00	BASE	4.18	63	8.18	27	4.5	89	2.9	0	0	982.2	NA	0.0000		9999	5380	0	0	0
2018/03/04 08:11:00	BASE	3.93	68	8.13	45	4.5	90	2.9	0	0	982.2	NA	0.0000		9999	5280	0	0	0
2018/03/04 08:12:00	BASE	3.82	72	8.13	45	4.4	90	2.9	0	0	982.2	NA	0.0000		9999	5250	5840	0	0
2018/03/04 08:13:00	BASE	3.81	72	8.13	45	4.4	90	2.9	0	0	982.2	NA	0.0000		9999	5640	0	0	0
2018/03/04 08:14:00	BASE	3.54	72	7.25	37	4.4	90	2.9	0	0	982.2	NA	0.0000		9999	5810	0	0	0
2018/03/04 08:15:00	BASE	2.99	73	6.94	58	4.3	90	2.8	0	0	982.2	NA	0.0000		9999	5810	0	0	0
2018/03/04 08:16:00	BASE	3.10	70	6.74	59	4.3	90	2.8	0	0	982.1	NA	0.0000		9999	5840	0	0	0
2018/03/04 08:17:00	BASE	3.88	64	6.74	59	4.3	90	2.9	0	0	982.2	NA	0.0000		9999	5970	0	0	0
2018/03/04 08:18:00	BASE	4.23	63	5.92	51	4.3	91	2.9	0	0	982.1	NA	0.0000		9999	6040	0	0	0
2018/03/04 08:19:00	BASE	4.80	60	6.74	53	4.3	91	2.9	0	0	982.1	NA	0.0000		9999	6200	0	0	0
2018/03/04 08:20:00	BASE	4.59	66	6.74	53	4.3	91	3.0	0	0	982.2	NA	0.0000		9999	5870	6560	0	0
2018/03/04 08:21:00	BASE	4.67	71	6.74	53	4.4	91	3.0	0	0	982.2	NA	0.0000		9999	5970	6630	0	0
2018/03/04 08:22:00	BASE	4.96	63	6.74	53	4.4	90	2.9	0	0	982.2	NA	0.0000		9999	5510	0	0	0
2018/03/04 08:23:00	BASE	4.34	65	6.74	53	4.4	90	2.9	0	0	982.2	NA	0.0000		9999	5280	0	0	0
2018/03/04 08:24:00	BASE	4.80	64	6.74	53	4.4	90	2.9	0	0	982.2	NA	0.0000		9999	5050	0	0	0
2018/03/04 08:25:00	BASE	5.58	57	6.89	42	4.4	90	2.9	0	0	982.1	NA	0.0000		9999	4990	0	0	0
2018/03/04 08:26:00	BASE	5.78	53	7.51	54	4.4	90	2.9	0	0	982.1	NA	0.0000		9999	4920	0	0	0
2018/03/04 08:27:00	BASE	5.64	51	7.51	54	4.5	90	2.9	0	0	982.1	NA	0.0000		9999	4990	0	0	0
2018/03/04 08:28:01	BASE	5.50	52	7.51	54	4.5	89	2.9	0	0	982.2	NA	0.0000		9999	5120	0	0	0
2018/03/04 08:29:01	BASE	5.55	50	7.61	30	4.6	89	2.9	0	0	982.1	NA	0.0000		9999	5250	0	0	0
2018/03/04 08:30:01	BASE	6.07	42	8.13	34	4.6	88	2.9	0	0	982.1	NA	0.0000		9999	5350	0	0	0
2018/03/04 08:31:01	BASE	6.90	35	8.39	43	4.7	88	2.9	0	0	982.1	NA	0.0000		9999	5350	0	0	0
2018/03/04 08:32:01	BASE	6.69	32	8.39	43	4.7	88	2.9	0	0	982.0	NA	0.0000		9999	5280	0	0	0
2018/03/04 08:33:00	BASE	6.11	30	8.39	43	4.7	88	2.9	0	0	982.0	NA	0.0000		9999	5350	0	0	0
2018/03/04 08:34:00	BASE	6.29	25	8.39	43	4.8	87	2.9	0	0	982.0	NA	0.0000		9999	5580	0	0	0
2018/03/04 08:35:00	BASE	6.68	18	8.85	11	4.8	87	2.9	0	0	982.0	NA	0.0000		9999	5740	0	0	0
2018/03/04 08:36:00	BASE	6.81	18	8.85	11	4.8	87	2.8	0	0	981.9	NA	0.0000		9999	5480	0	0	0
2018/03/04 08:37:00	BASE	6.46	24	8.85	11	4.8	87	2.8	0	0	981.9	NA	0.0000		9999	5480	0	0	0
2018/03/04 08:38:00	BASE	5.73	26	8.85	11	4.8	87	2.8	0	0	981.9	NA	0.0000	-RA	9999	5480	0	0	0
2018/03/04 08:39:00	BASE	5.84	24	8.85	11	4.8	87	2.8	0	0	981.9	NA	0.0000	-RA	9999	5540	0	0	0
2018/03/04 08:40:00	BASE	6.42	29	8.85	11	4.8	87	2.8	0	0	981.9	NA	0.0000	-RA	9999	5940	0	0	0
2018/03/04 08:41:00	BASE	6.86	31	8.95	23	4.8	87	2.8	0	0	981.9	NA	0.0000	-RA	9999	5580	6400	0	0
2018/03/04 08:42:01	BASE	7.06	27	8.95	23	4.8	87	2.9	0	0	981.9	NA	0.0000	-RA	9999	5540	0	0	0
2018/03/04 08:43:00	BASE	6.97	25	8.95	23	4.8	87	2.9	0	0	981.9	NA	0.0000	-RA	9999	5480	0	0	0
2018/03/04 08:44:00	BASE	6.58	30	8.95	23	4.8	87	2.9	0	0	982.0	NA	0.0000	-RA	9999	5540	0	0	0
2018/03/04 08:45:00	BASE	6.70	34	8.95	23	4.8	87	2.9	0	0	982.0	NA	0.0000	-RA	9999	5410	0	0	0
2018/03/04 08:46:00	BASE	7.06	33	8.95	23	4.8	87	2.9	0	0	982.0	NA	0.0000	-RA	9999	5350	0	0	0
2018/03/04 08:47:00	BASE	6.13	36	8.95	23	4.9	87	2.8	0	0	982.0	NA	0.0000		9999	5410	0	0	0
2018/03/04 08:48:00	BASE	5.73	35	8.95	23	4.9	86	2.8	0	0	982.0	NA	0.0000		9999	5640	0	0	0
2018/03/04 08:49:00	BASE	6.15	36	8.95	23	4.9	86	2.7	0	0	982.0	NA	0.0000		9999	5910	0	0	0
2018/03/04 08:50:00	BASE	6.54	36	8.95	23	4.9	86	2.7	0	0	982.0	NA	0.0000		9999	5640	6370	0	0
2018/03/04 08:51:00	BASE	6.94	32	9.11	32	4.9	85	2.6	0	0	982.0	NA	0.0000		9999	4920	6370	0	0
2018/03/04 08:52:00	BASE	6.99	26	9.11	32	4.9	85	2.6	0	0	982.0	NA	0.0000		9999	6230	0	0	0
2018/03/04 08:53:01	BASE	6.72	23	9.11	32	4.9	85	2.6	0	0	982.0	NA	0.0000		9999	6860	0	0	0
2018/03/04 08:54:01	BASE	6.73	23	9.11	32	4.9	85	2.6	0	0	982.0	NA	0.0000		9999	6230	0	0	0
2018/03/04 08:55:01	BASE	6.11	27	9.11	32	4.9	85	2.6	0	0	982.0	NA	0.0000		9999	6040	7250	0	0
2018/03/04 08:56:01	BASE	6.44	26	9.11	32	4.9	85	2.6	0	0	982.0	NA	0.0000		9999	6000	6920	0	0
2018/03/04 08:57:01	BASE	7.09	26	9.11	32	4.9	85	2.6	0	0	982.0	NA	0.0000	-RA	9999	5910	0	0	0
2018/03/04 08:58:00	BASE	6.25	24	9.11	32	4.9	85	2.5	0	0	982.0	NA	0.0000	-RA	9999	5840	0	0	0
2018/03/04 08:59:00	BASE	6.43	23	9.11	32	4.8	85	2.6	0	0	981.9	NA	0.0000	-RA	9999	5740	0	0	0
2018/03/04 09:00:00	BASE	7.37	29	9.11	32	4.8	85	2.6	0	0	981.9	NA	0.0000	-RA	9999	5680	0	0	0
2018/03/04 09:01:00	BASE	7.21	28	8.95	25	4.8	86	2.6	0	0	981.9	NA	0.0000	-RA	9999	5540	0	0	0
2018/03/04 09:02:00	BASE	6.42	31	8.95	25	4.8	86	2.6	0	0	982.0	NA	0.0000	-RA	9999	5480	0	0	0
2018/03/04 09:03:00	BASE	6.69	34	9.05	28	4.8	86	2.6	0	0	981.9	NA	0.0000	-RA	9999	5610	0	0	0
2018/03/04 09:04:00	BASE	7.23	35	9.05	28	4.8	86	2.6	0	0	982.0	NA	0.0000	-RA	9999	5610	0	0	0
2018/03/04 09:05:00	BASE	6.93	38	9.05	28	4.7	86	2.6	0	0	982.0	NA	0.0000		9999	5480	0	0	0
2018/03/04 09:06:00	BASE	7.05	36	9.05	28	4.7	86	2.6	0	0	982.0	NA	0.0000		9999	5450	0	0	0
2018/03/04 09:07:00	BASE	7.03	34	9.05	28	4.8	86	2.6	0	0	982.0	NA	0.0000		9999	5480	0	0	0
2018/03/04 09:08:00	BASE	6.72	34	9.05	28	4.8	86	2.6	0	0	982.0	NA	0.0000		9999	5480	0	0	0
2018/03/04 09:09:00	BASE	6.60	35	9.05	28	4.8	86	2.6	0	0	982.0	NA	0.0000		9999	5450	0	0	0
2018/03/04 09:10:00	BASE	5.66	38	9.05	28	4.8	86	2.6	0	0	982.0	NA	0.0000		9999	5350	0	0	0
2018/03/04 09:11:00	BASE	5.37	38	9.05	28	4.8	86	2.6	0	0	982.0	NA	0.0000		9999	5320	0	0	0
2018/03/04 09:12:00	BASE	5.60	37	9.05	28	4.7	86	2.5	0	0	982.0	NA	0.0000		9999	5350	0	0	0
2018/03/04 09:13:00	BASE	5.63	41	8.54	30	4.7	86	2.5	0	0	982.0	NA	0.0000		9999	5350	0	0	0
2018/03/04 09:14:00	BASE	5.71	43	8.54	30	4.7	86	2.5	0	0	982.0	NA	0.0000		9999	5410	0	0	0
2018/03/04 09:15:00	BASE	5.73	39	8.54	30	4.6	87	2.6	0	0	982.0	NA	0.0000		9999	5350	0	0	0
2018/03/04 09:16:00	BASE	6.37	35	8.54	30	4.6	87	2.6	0	0	982.0	NA	0.0000		9999	5280	0	0	0
2018/03/04 09:17:00	BASE	6.37	38	8.54	30	4.6	88	2.7	0	0	981.9	NA	0.0000		9999	5150	0	0	0
2018/03/04 09:18:00	BASE	6.51	38	8.75	36	4.5	88	2.7	0	0	981.9	NA	0.0000		9999	5220	0	0	0
2018/03/04 09:19:00	BASE	7.54	32	9.00	20	4.5	89	2.8	0	0	981.9	NA	0.0000		9999	5150	0	0	0
2018/03/04 09:20:00	BASE	7.68	32	9.00	20	4.5	89	2.9	0	0	981.9	NA	0.0000		9999	5320	0	0	0
2018/03/04 09:21:00	BASE	7.51	33	9.00	20	4.5	89	2.9	1	0	981.9	NA	0.0000		9999	5250	0	0	0
2018/03/04 09:22:00	BASE	7.49	30	9.31	23	4.5	90	2.9	1	1	981.9	NA	0.0000		9999	5220	0	0	0
2018/03/04 09:23:00	BASE	7.17	30	9.31	23	4.5	90	3.0	1	1	981.9	NA	0.0000		9999	5150	0	0	0
2018/03/04 09:24:00	BASE	6.97	32	9.31	23	4.5	90	3.0	1	1	981.9	NA	0.0000		9999	5250	0	0	0
2018/03/04 09:25:00	BASE	7.02	32	9.31	23	4.5	91	3.1	1	1	981.9	NA	0.0000		9999	5770	0	0	0
2018/03/04 09:26:00	BASE	7.64	30	9.67	31	4.5	91	3.1	1	1	981.9	NA	0.0000		9999	5410	0	0	0
2018/03/04 09:27:00	BASE	7.25	32	9.67	31	4.5	91	3.2	1	1	982.0	NA	0.0000		9999	5510	0	0	0
2018/03/04 09:28:00	BASE	6.63	31	9.67	31	4.6	91	3.2	1	2	982.0	NA	0.0000		9999	5280	0	0	0
2018/03/04 09:29:00	BASE	6.78	26	9.67	31	4.6	91	3.2	1	2	982.0	NA	0.0000		9999	5710	0	0	0
2018/03/04 09:30:00	BASE	6.51	25	9.67	31	4.6	90	3.2	1	2	981.9	NA	0.0000		9999	5580	0	0	0
2018/03/04 09:31:00	BASE	6.71	24	9.67	31	4.6	90	3.2	1	2	981.9	NA	0.0000		9999	5450	0	0	0
2018/03/04 09:32:00	BASE	6.94	24	9.67	31	4.6	90	3.1	1	2	982.0	NA	0.0000		9999	5580	6430	0	0
2018/03/04 09:33:00	BASE	7.25	24	9.67	31	4.6	90	3.1	1	3	981.9	NA	0.0000		9999	5380	6040	0	0
2018/03/04 09:34:00	BASE	7.42	21	9.67	31	4.6	90	3.1	1	3	982.0	NA	0.0000		9999	6200	0	0	0
2018/03/04 09:35:00	BASE	7.03	22	9.67	31	4.5	91	3.1	1	3	981.9	NA	0.0000		9999	6000	0	0	0
2018/03/04 09:36:00	BASE	7.03	22	9.57	25	4.5	91	3.2	1	3	981.9	NA	0.0000		9999	5870	0	0	0
2018/03/04 09:37:00	BASE	7.39	22	9.57	12	4.5	91	3.2	1	3	981.9	NA	0.0000	-RA	9999	5910	0	0	0
2018/03/04 09:38:00	BASE	6.74	24	9.57	12	4.5	92	3.2	1	3	982.0	NA	0.0000	-RA	9999	5940	0	0	0
2018/03/04 09:39:00	BASE	6.43	23	9.57	12	4.5	92	3.3	1	4	981.9	NA	0.0000	-RA	9999	5810	0	0	0
2018/03/04 09:40:00	BASE	7.66	20	9.88	26	4.4	92	3.3	1	4	981.9	NA	0.0000	-RA	9999	5680	0	0	0
2018/03/04 09:41:00	BASE	8.17	21	9.88	26	4.4	93	3.3	1	4	981.9	NA	0.0000	-RA	9999	5250	0	0	0
2018/03/04 09:42:00	BASE	7.51	25	9.88	26	4.4	93	3.4	1	4	981.9	NA	0.0000	-RA	9999	5180	0	0	0
2018/03/04 09:43:00	BASE	7.28	24	9.88	26	4.4	93	3.4	2	4	981.9	NA	0.0000	-RA	9999	5180	0	0	0
2018/03/04 09:44:00	BASE	7.45	21	9.88	26	4.4	94	3.5	2	5	981.9	NA	0.0000	-RA	9999	5120	0	0	0
2018/03/04 09:45:00	BASE	7.54	19	9.88	26	4.4	94	3.5	2	5	981.8	NA	0.0000	-RA	9999	5180	0	0	0
2018/03/04 09:46:00	BASE	7.34	18	9.88	26	4.4	94	3.5	2	6	981.8	NA	0.0000	-RA	9999	5180	0	0	0
2018/03/04 09:47:00	BASE	7.56	19	9.88	26	4.4	94	3.5	2	6	981.8	NA	0.0000	-RA	9999	4990	0	0	0
2018/03/04 09:48:00	BASE	8.56	19	9.88	26	4.4	94	3.5	2	6	981.8	NA	0.0000	-RA	9999	4890	0	0	0
2018/03/04 09:49:00	BASE	9.13	21	11.21	16	4.4	94	3.5	2	6	981.8	NA	0.0000	-RA	9999	4890	0	0	0
2018/03/04 09:50:00	BASE	9.33	21	11.21	16	4.4	94	3.5	2	7	981.8	NA	0.0000	-RA	9999	4920	0	0	0
2018/03/04 09:51:00	BASE	8.47	20	11.21	16	4.4	94	3.5	2	7	981.9	NA	0.0000	-RA	9999	4890	0	0	0
2018/03/04 09:52:00	BASE	8.50	17	11.47	20	4.4	94	3.5	3	8	981.8	NA	0.0000	-RA	9999	4890	0	0	0
2018/03/04 09:53:00	BASE	9.74	14	12.35	14	4.4	94	3.5	3	8	981.8	NA	0.0000		9999	4990	0	0	0
2018/03/04 09:54:00	BASE	9.07	19	12.35	14	4.4	94	3.5	3	9	981.9	NA	0.0000		9999	4950	0	0	0
2018/03/04 09:55:00	BASE	9.06	21	12.35	14	4.4	94	3.5	3	9	981.8	NA	0.0000		9999	5090	0	0	0
2018/03/04 09:56:00	BASE	9.65	16	12.35	14	4.4	94	3.5	3	10	981.8	NA	0.0000		9999	5120	0	0	0
2018/03/04 09:57:00	BASE	9.05	16	12.35	14	4.4	94	3.5	4	10	981.8	NA	0.0000		9999	5250	0	0	0
2018/03/04 09:58:00	BASE	9.04	19	12.35	14	4.4	94	3.5	4	10	981.9	NA	0.0000		9999	5450	0	0	0
2018/03/04 09:59:00	BASE	9.69	18	12.35	14	4.4	94	3.5	4	11	981.8	NA	0.0000		9999	0	0	0	1020
2018/03/04 10:00:00	BASE	10.19	15	12.35	14	4.4	94	3.5	4	12	981.8	NA	0.0000	-RA	9999	5510	0	0	0
2018/03/04 10:01:00	BASE	9.78	14	12.35	14	4.4	94	3.5	5	13	981.8	NA	0.0000	-RA	9999	5480	0	0	0
2018/03/04 10:02:00	BASE	9.38	13	12.35	14	4.4	94	3.4	5	13	981.8	NA	0.0000	-RA	9999	5510	0	0	0
2018/03/04 10:03:00	BASE	9.83	11	12.35	10	4.4	94	3.4	5	14	981.8	NA	0.0000	-RA	9999	5580	0	0	0
2018/03/04 10:04:00	BASE	10.82	14	13.38	5	4.3	94	3.4	6	15	981.8	NA	0.0000	-RA	9999	460	0	0	0
2018/03/04 10:05:00	BASE	10.75	13	13.38	5	4.3	94	3.4	6	17	981.8	NA	0.0000	-RA	9999	5280	0	0	0
2018/03/04 10:06:00	BASE	9.97	11	13.38	5	4.3	94	3.4	7	18	981.9	NA	0.0000	-RA	9999	5350	0	0	0
2018/03/04 10:07:00	BASE	9.63	11	13.38	5	4.2	94	3.4	7	18	981.9	NA	0.0000	-RA	9999	5640	0	0	0
2018/03/04 10:08:00	BASE	10.36	13	13.38	5	4.2	95	3.4	7	19	981.8	NA	0.0000	-RA	9999	5740	0	0	0
2018/03/04 10:09:00	BASE	10.48	12	13.38	5	4.2	95	3.4	7	20	981.8	NA	0.0000	-RA	9999	5680	0	0	0
2018/03/04 10:10:00	BASE	10.53	10	13.38	5	4.1	95	3.4	8	21	981.8	NA	0.0000	-RA	9999	6000	0	0	0
2018/03/04 10:11:00	BASE	10.82	7	13.38	5	4.1	95	3.4	8	22	981.8	NA	0.0000	-RA	9999	5580	0	0	0
2018/03/04 10:12:00	BASE	10.08	8	13.38	5	4.1	96	3.5	9	23	981.8	NA	0.0000	-RA	9999	5810	0	0	0
2018/03/04 10:13:00	BASE	10.13	8	13.38	5	4.1	96	3.5	9	24	981.8	NA	0.0000	-RA	9999	5450	0	0	0
2018/03/04 10:14:00	BASE	10.69	5	12.71	21	4.1	96	3.5	9	25	981.8	NA	0.0000	-RA	9999	5180	0	0	0
2018/03/04 10:15:00	BASE	10.33	7	12.71	21	4.1	96	3.5	10	26	981.9	NA	0.0000	-RA	9999	5220	0	0	0
2018/03/04 10:16:00	BASE	10.75	11	12.91	12	4.0	96	3.5	10	28	981.8	NA	0.0000	-RA	9999	5480	0	0	0
2018/03/04 10:17:00	BASE	11.47	11	12.91	12	4.0	96	3.4	11	29	981.8	NA	0.0000	-RA	9999	5280	0	0	0
2018/03/04 10:18:00	BASE	11.17	8	12.91	12	4.0	96	3.4	12	31	981.9	NA	0.0000	-RA	9999	5280	0	0	0
2018/03/04 10:19:00	BASE	10.74	11	12.91	12	4.0	96	3.4	12	32	981.9	NA	0.0000	-RA	9999	5250	0	0	0
2018/03/04 10:20:00	BASE	10.60	9	12.91	12	4.0	96	3.4	13	34	981.8	NA	0.0000		9999	5250	0	0	0
2018/03/04 10:21:00	BASE	10.58	11	12.91	12	4.0	96	3.5	14	35	981.9	NA	0.0000		9999	5280	0	0	0
2018/03/04 10:22:00	BASE	10.16	12	12.91	12	4.0	97	3.5	14	37	981.9	NA	0.0000		9999	5250	0	0	0
2018/03/04 10:23:00	BASE	9.90	11	12.91	12	4.0	97	3.5	15	38	981.9	NA	0.0000		9999	5410	0	0	0
2018/03/04 10:24:00	BASE	9.81	13	12.91	12	4.0	97	3.5	15	39	981.9	NA	0.0000		9999	5280	0	0	0
2018/03/04 10:25:00	BASE	9.47	10	12.91	12	3.9	97	3.5	16	41	982.0	NA	0.0000		9999	5250	0	0	0
2018/03/04 10:26:00	BASE	9.73	6	12.60	5	3.9	97	3.5	17	43	981.9	NA	0.0000		9999	4820	5410	0	0
2018/03/04 10:27:00	BASE	10.21	5	12.35	20	3.9	97	3.5	17	44	981.9	NA	0.0000		9999	4820	0	0	0
2018/03/04 10:28:00	BASE	10.61	10	13.02	10	3.9	97	3.5	17	45	981.9	NA	0.0000		9999	5180	0	0	0
2018/03/04 10:29:00	BASE	10.64	11	13.02	10	3.9	97	3.5	17	44	981.9	NA	0.0000		9999	5350	0	0	0
2018/03/04 10:30:00	BASE	10.05	9	13.02	10	3.9	97	3.5	17	43	981.9	NA	0.0000		9999	5480	0	0	0
2018/03/04 10:31:00	BASE	10.16	7	13.02	10	3.9	97	3.5	16	42	981.9	NA	0.0000		9999	5610	0	0	0
2018/03/04 10:32:00	BASE	10.75	9	13.02	10	3.9	97	3.5	15	40	981.9	NA	0.0000		9999	5680	0	0	0
2018/03/04 10:33:00	BASE	11.11	8	13.02	10	4.0	97	3.5	14	39	981.9	NA	0.0000		9999	5740	0	0	0
2018/03/04 10:34:00	BASE	10.95	7	13.02	10	4.0	97	3.5	14	37	981.9	NA	0.0000		9999	5870	0	0	0
2018/03/04 10:35:00	BASE	10.89	9	13.02	10	4.0	97	3.5	13	35	981.9	NA	0.0000		9999	4560	0	0	0
2018/03/04 10:36:00	BASE	10.91	9	13.02	10	4.0	97	3.6	12	34	981.9	NA	0.0000		9999	4720	0	0	0
2018/03/04 10:37:00	BASE	10.46	9	13.02	10	4.0	97	3.5	12	33	982.0	NA	0.0000		9999	4760	0	0	0
2018/03/04 10:38:00	BASE	10.09	12	12.91	10	4.0	97	3.5	11	32	982.0	NA	0.0000		9999	4790	5770	0	0
2018/03/04 10:39:00	BASE	10.14	14	12.91	10	4.0	96	3.5	11	32	982.0	NA	0.0000		9999	4630	6070	0	0
2018/03/04 10:40:00	BASE	9.68	12	12.91	10	4.0	96	3.5	11	32	982.0	NA	0.0000		9999	4630	0	0	0
2018/03/04 10:41:00	BASE	8.85	12	12.91	10	4.0	96	3.4	11	32	982.1	NA	0.0000		9999	4630	0	0	0
2018/03/04 10:42:00	BASE	8.93	11	12.86	5	4.0	96	3.4	11	32	982.0	NA	0.0000		9999	4590	0	0	0
2018/03/04 10:43:00	BASE	8.74	11	12.86	5	4.0	96	3.4	11	32	982.1	NA	0.0000		9999	4630	0	0	0
2018/03/04 10:44:00	BASE	8.52	12	12.04	13	4.0	96	3.4	11	32	982.1	NA	0.0000		9999	4560	0	0	0
2018/03/04 10:45:00	BASE	8.96	9	12.04	13	4.0	96	3.4	11	32	982.1	NA	0.0000		9999	4430	0	0	0
2018/03/04 10:46:00	BASE	9.05	7	11.63	10	4.0	96	3.5	10	32	982.1	NA	0.0000		9999	4490	0	0	0
2018/03/04 10:47:00	BASE	9.21	12	11.63	10	4.1	96	3.5	10	32	982.0	NA	0.0000		9999	4490	0	0	0
2018/03/04 10:48:00	BASE	9.38	14	11.57	26	4.1	96	3.5	10	32	982.1	NA	0.0000		9999	4360	0	0	0
2018/03/04 10:49:00	BASE	9.98	11	12.14	7	4.1	96	3.5	10	32	982.1	NA	0.0000		9999	4590	0	0	0
2018/03/04 10:50:00	BASE	10.18	9	12.55	6	4.1	96	3.5	10	31	982.1	NA	0.0000		9999	4490	0	0	0
2018/03/04 10:51:00	BASE	10.56	12	12.81	13	4.2	96	3.6	10	31	982.0	NA	0.0000		9999	4430	0	0	0
2018/03/04 10:52:00	BASE	10.69	8	12.81	13	4.2	96	3.6	10	31	982.1	NA	0.0000		9999	4400	0	0	0
2018/03/04 10:53:00	BASE	10.54	6	12.81	13	4.2	96	3.6	10	31	982.1	NA	0.0000		9999	4400	0	0	0
2018/03/04 10:54:00	BASE	10.81	11	12.81	13	4.2	95	3.5	10	31	982.0	NA	0.0000		9999	4460	0	0	0
2018/03/04 10:55:00	BASE	10.93	12	12.81	13	4.2	95	3.5	10	32	982.0	NA	0.0000		9999	4360	0	0	0
2018/03/04 10:56:00	BASE	10.77	10	12.81	13	4.2	95	3.5	10	33	982.0	NA	0.0000		9999	4330	0	0	0
2018/03/04 10:57:00	BASE	11.02	10	13.58	10	4.2	95	3.5	11	35	982.0	NA	0.0000		9999	4360	0	0	0
2018/03/04 10:58:00	BASE	11.35	13	14.51	14	4.3	95	3.5	12	37	982.0	NA	0.0000		9999	4460	0	0	0
2018/03/04 10:59:00	BASE	11.16	11	14.51	14	4.3	95	3.5	13	40	982.0	NA	0.0000		9999	4560	0	0	0
2018/03/04 11:00:00	BASE	11.38	11	14.51	14	4.3	95	3.5	14	43	982.0	NA	0.0000		9999	4590	0	0	0
2018/03/04 11:01:00	BASE	11.32	14	14.51	14	4.3	94	3.4	16	45	981.9	NA	0.0000		9999	4130	0	0	0
2018/03/04 11:02:00	BASE	10.85	14	14.51	14	4.3	94	3.4	17	48	982.0	NA	0.0000		9999	4170	0	0	0
2018/03/04 11:03:00	BASE	11.09	11	14.51	14	4.2	94	3.4	18	51	981.9	NA	0.0000		9999	4230	0	0	0
2018/03/04 11:04:00	BASE	11.35	10	14.51	14	4.2	94	3.3	19	53	981.9	NA	0.0000		9999	4170	0	0	0
2018/03/04 11:05:00	BASE	11.00	9	14.51	14	4.2	94	3.3	19	55	982.0	NA	0.0000		9999	4200	0	0	0
2018/03/04 11:06:00	BASE	11.72	12	15.28	6	4.2	94	3.3	20	57	981.9	NA	0.0000		9999	5350	0	0	0
2018/03/04 11:07:00	BASE	12.03	13	15.28	6	4.2	94	3.3	20	58	981.9	NA	0.0000		9999	4560	0	0	0
2018/03/04 11:08:00	BASE	11.48	10	15.28	6	4.2	94	3.3	21	60	981.9	NA	0.0000		9999	4430	0	0	0
2018/03/04 11:09:00	BASE	12.05	8	15.28	6	4.2	94	3.3	21	61	981.8	NA	0.0000		9999	3280	0	0	0
2018/03/04 11:10:00	BASE	12.48	7	15.28	6	4.2	94	3.3	21	62	981.9	NA	0.0000		9999	3250	4200	0	0
2018/03/04 11:11:00	BASE	12.62	10	15.28	6	4.2	94	3.3	22	64	981.8	NA	0.0000		9999	3310	0	0	0
2018/03/04 11:12:00	BASE	12.80	11	15.28	6	4.2	94	3.3	23	66	981.8	NA	0.0000		9999	3350	4000	0	0
2018/03/04 11:13:00	BASE	12.57	9	15.28	6	4.2	94	3.3	24	68	981.8	NA	0.0000		9999	3450	0	0	0
2018/03/04 11:14:00	BASE	12.14	7	15.28	6	4.2	94	3.3	24	70	981.9	NA	0.0000		9999	3540	4230	0	0
2018/03/04 11:15:00	BASE	12.18	6	15.28	6	4.2	93	3.3	25	70	981.8	NA	0.0000		9999	3380	0	0	0
2018/03/04 11:16:00	BASE	12.67	8	14.61	10	4.2	93	3.2	25	71	981.8	NA	0.0000		9999	3480	0	0	0
2018/03/04 11:17:00	BASE	12.92	7	14.66	8	4.2	93	3.2	25	72	981.8	NA	0.0000		9999	3310	0	0	0
2018/03/04 11:18:00	BASE	13.15	7	14.66	8	4.2	93	3.2	26	74	981.8	NA	0.0000		9999	3380	0	0	0
2018/03/04 11:19:00	BASE	13.34	9	14.76	15	4.2	93	3.2	27	76	981.8	NA	0.0000		9999	3510	0	0	0
2018/03/04 11:20:00	BASE	13.42	8	14.76	15	4.2	93	3.2	28	79	981.8	NA	0.0000		9999	3380	0	0	0
2018/03/04 11:21:00	BASE	13.97	6	15.18	10	4.2	93	3.2	30	82	981.8	NA	0.0000		9999	4070	0	0	0
2018/03/04 11:22:00	BASE	13.90	6	15.18	10	4.2	93	3.2	31	86	981.8	NA	0.0000		9999	3580	0	0	0
2018/03/04 11:23:00	BASE	13.55	6	15.18	10	4.2	93	3.2	33	89	981.8	NA	0.0000		9999	3740	0	0	0
2018/03/04 11:24:00	BASE	13.21	7	15.18	10	4.3	93	3.2	34	92	981.9	NA	0.0000		9999	4300	0	0	0
2018/03/04 11:25:00	BASE	13.09	6	15.18	10	4.3	93	3.2	35	96	981.9	NA	0.0000		9999	3050	0	0	0
2018/03/04 11:26:00	BASE	13.37	5	15.18	10	4.3	93	3.2	37	99	981.9	NA	0.0000		9999	2950	4330	0	0
2018/03/04 11:27:00	BASE	13.27	7	15.18	10	4.2	93	3.2	38	103	981.9	NA	0.0000		9999	2990	4660	0	0
2018/03/04 11:28:00	BASE	13.39	7	15.18	10	4.2	93	3.2	39	106	981.9	NA	0.0000		9999	3150	0	0	0
2018/03/04 11:29:00	BASE	13.40	6	15.18	10	4.2	93	3.2	40	109	981.9	NA	0.0000		9999	3250	0	0	0
2018/03/04 11:30:00	BASE	13.32	5	15.18	10	4.2	93	3.2	41	112	981.9	NA	0.0000		9999	3150	0	0	0
2018/03/04 11:31:01	BASE	13.13	4	14.87	6	4.2	93	3.2	42	114	981.9	NA	0.0000		9999	3450	0	0	0
2018/03/04 11:32:00	BASE	12.91	3	14.87	6	4.2	93	3.2	43	116	982.0	NA	0.0000		9999	5910	0	0	0
2018/03/04 11:33:00	BASE	12.63	3	14.87	6	4.2	93	3.1	44	118	982.0	NA	0.0000		9999	5940	0	0	0
2018/03/04 11:34:00	BASE	12.65	4	14.87	6	4.2	93	3.1	44	119	982.0	NA	0.0000		9999	5970	0	0	0
2018/03/04 11:35:00	BASE	13.27	4	14.87	6	4.1	93	3.1	44	120	981.9	NA	0.0000		9999	6070	0	0	0
2018/03/04 11:36:00	BASE	13.42	4	14.87	6	4.1	93	3.1	44	121	982.0	NA	0.0000		9999	4490	6040	0	0
2018/03/04 11:37:00	BASE	12.76	4	14.87	6	4.1	94	3.2	45	122	982.0	NA	0.0000		9999	4460	6100	0	0
2018/03/04 11:38:00	BASE	12.58	4	14.35	2	4.1	94	3.2	46	124	982.0	NA	0.0000		9999	6000	0	0	0
2018/03/04 11:39:00	BASE	12.90	4	14.35	2	4.1	94	3.2	47	126	982.0	NA	0.0000		9999	5610	6070	0	0
2018/03/04 11:40:00	BASE	12.91	4	14.35	2	4.1	94	3.2	48	128	982.0	NA	0.0000		9999	5910	0	0	0
2018/03/04 11:41:00	BASE	12.82	3	14.35	2	4.0	94	3.2	48	130	982.0	NA	0.0000		9999	5970	0	0	0
2018/03/04 11:42:00	BASE	12.73	4	14.35	2	4.0	94	3.2	49	131	982.0	NA	0.0000		9999	5910	0	0	0
2018/03/04 11:43:00	BASE	12.70	4	14.35	2	4.0	94	3.2	50	133	982.0	NA	0.0000		9999	2530	0	0	0
2018/03/04 11:44:00	BASE	12.97	5	14.35	2	4.1	94	3.2	51	137	982.0	NA	0.0000		9999	2530	0	0	0
2018/03/04 11:45:00	BASE	12.84	5	14.35	2	4.1	94	3.2	53	142	982.1	NA	0.0000		9999	2430	0	0	0
2018/03/04 11:46:00	BASE	12.72	5	13.84	5	4.1	94	3.2	56	146	982.0	NA	0.0000		9999	2330	0	0	0
2018/03/04 11:47:00	BASE	12.99	6	13.84	5	4.1	94	3.2	58	151	982.0	NA	0.0000		9999	2490	6140	0	0
2018/03/04 11:48:00	BASE	12.74	7	13.84	5	4.1	94	3.3	60	156	982.0	NA	0.0000		9999	2590	6040	0	0
2018/03/04 11:49:00	BASE	12.87	7	13.94	4	4.1	94	3.2	62	161	982.1	NA	0.0000		9999	2690	5970	0	0
2018/03/04 11:50:00	BASE	13.03	6	13.94	4	4.1	94	3.3	64	165	982.1	NA	0.0000		9999	2590	5970	0	0
2018/03/04 11:51:00	BASE	12.60	6	13.94	4	4.2	94	3.3	65	169	982.1	NA	0.0000		9999	2660	5970	0	0
2018/03/04 11:52:00	BASE	12.56	7	13.94	4	4.2	94	3.3	67	172	982.1	NA	0.0000		9999	5910	0	0	0
2018/03/04 11:53:00	BASE	12.82	7	13.94	4	4.2	94	3.3	68	174	982.1	NA	0.0000		9999	5710	0	0	0
2018/03/04 11:54:00	BASE	12.19	4	13.94	4	4.2	94	3.3	68	176	982.2	NA	0.0000		9999	5870	0	0	0
2018/03/04 11:55:00	BASE	11.57	4	13.94	4	4.2	94	3.3	68	177	982.2	NA	0.0000		9999	5840	0	0	0
2018/03/04 11:56:00	BASE	11.86	5	13.94	4	4.2	94	3.3	69	178	982.2	NA	0.0000		9999	3770	5940	0	0
2018/03/04 11:57:00	BASE	12.12	5	13.94	4	4.2	94	3.3	70	181	982.1	NA	0.0000		9999	3770	5870	0	0
2018/03/04 11:58:00	BASE	11.75	5	13.94	4	4.2	94	3.3	71	184	982.2	NA	0.0000		9999	3840	5940	0	0
2018/03/04 11:59:00	BASE	11.50	5	13.84	4	4.2	94	3.3	72	187	982.2	NA	0.0000		9999	3940	0	0	0
2018/03/04 12:00:00	BASE	11.74	5	13.84	4	4.2	94	3.3	72	188	982.2	NA	0.0000		9999	5840	0	0	0
2018/03/04 12:01:00	BASE	11.82	6	13.84	4	4.2	94	3.3	72	189	982.2	NA	0.0000		9999	5870	0	0	0
2018/03/04 12:02:00	BASE	11.86	6	13.43	157	4.2	94	3.3	73	191	982.2	NA	0.0000		9999	5870	0	0	0
2018/03/04 12:03:00	BASE	11.85	5	13.48	10	4.2	94	3.3	74	192	982.2	NA	0.0000		9999	5910	0	0	0
2018/03/04 12:04:00	BASE	11.58	4	13.48	10	4.2	94	3.3	74	194	982.2	NA	0.0000		9999	5870	0	0	0
2018/03/04 12:05:00	BASE	11.45	6	13.48	10	4.2	94	3.3	75	197	982.2	NA	0.0000		9999	6000	0	0	0
2018/03/04 12:06:00	BASE	11.33	6	13.48	10	4.2	94	3.3	76	201	982.2	NA	0.0000		9999	6000	0	0	0
2018/03/04 12:07:00	BASE	11.18	6	13.48	10	4.2	94	3.3	77	203	982.2	NA	0.0000		9999	5810	0	0	0
2018/03/04 12:08:00	BASE	11.41	3	13.48	10	4.2	94	3.3	78	206	982.2	NA	0.0000		9999	5740	0	0	0
2018/03/04 12:09:00	BASE	11.23	5	13.48	10	4.2	94	3.3	79	208	982.2	NA	0.0000		9999	5840	0	0	0
2018/03/04 12:10:00	BASE	10.88	8	13.48	10	4.1	94	3.3	79	208	982.2	NA	0.0000		9999	5810	0	0	0
2018/03/04 12:11:00	BASE	11.12	6	13.48	10	4.1	95	3.3	78	207	982.3	NA	0.0000		9999	5840	0	0	0
2018/03/04 12:12:00	BASE	11.19	3	13.48	10	4.0	95	3.3	77	205	982.3	NA	0.0000		9999	5840	0	0	0
2018/03/04 12:13:00	BASE	11.25	5	12.96	7	4.0	95	3.3	77	207	982.2	NA	0.0000		9999	5840	0	0	0
2018/03/04 12:14:00	BASE	11.38	6	12.96	7	4.0	95	3.2	78	208	982.3	NA	0.0000		9999	5840	0	0	0
2018/03/04 12:15:00	BASE	11.67	4	13.07	11	4.0	95	3.2	80	213	982.2	NA	0.0000		9999	5910	0	0	0
2018/03/04 12:16:00	BASE	12.43	3	13.74	360	4.0	95	3.2	83	220	982.2	NA	0.0000		9999	5870	9060	0	0
2018/03/04 12:17:00	BASE	12.50	2	13.74	360	4.0	95	3.2	84	224	982.3	NA	0.0000		9999	5840	0	0	0
2018/03/04 12:18:00	BASE	12.18	354	13.74	360	3.9	95	3.2	86	227	982.3	NA	0.0000		9999	5870	0	0	0
2018/03/04 12:19:00	BASE	12.09	351	13.74	360	3.9	95	3.2	88	232	982.3	NA	0.0000		9999	5910	0	0	0
2018/03/04 12:20:00	BASE	12.22	4	13.74	360	3.9	95	3.2	90	234	982.3	NA	0.0000		9999	5940	0	0	0
2018/03/04 12:21:00	BASE	12.09	5	13.74	360	4.0	95	3.2	91	238	982.3	NA	0.0000		9999	6040	9090	22970	0
2018/03/04 12:22:00	BASE	11.50	354	13.74	360	4.0	95	3.2	92	240	982.3	NA	0.0000		9999	6070	9090	0	0
2018/03/04 12:23:00	BASE	11.01	359	13.74	360	4.0	95	3.2	94	243	982.3	NA	0.0000		9999	6000	9150	0	0
2018/03/04 12:24:00	BASE	10.86	9	13.74	360	4.0	95	3.3	95	244	982.3	NA	0.0000		9999	3350	5970	9090	0
2018/03/04 12:25:00	BASE	11.10	8	13.74	360	4.0	95	3.3	97	248	982.3	NA	0.0000		9999	3540	6000	0	0
2018/03/04 12:26:00	BASE	11.27	5	13.68	5	4.0	95	3.3	101	256	982.4	NA	0.0000		9999	6100	9090	0	0
2018/03/04 12:27:00	BASE	10.84	3	13.68	5	4.0	95	3.3	104	264	982.4	NA	0.0000		9999	3540	5970	0	0
2018/03/04 12:28:00	BASE	10.87	3	13.68	5	4.0	95	3.3	106	268	982.4	NA	0.0000		9999	6100	9060	11060	0
2018/03/04 12:29:00	BASE	10.98	4	13.68	5	4.0	95	3.3	106	269	982.4	NA	0.0000		9999	6000	9060	23100	0
2018/03/04 12:30:00	BASE	10.84	4	12.50	2	4.0	95	3.3	106	269	982.4	NA	0.0000		9999	5970	0	0	0
2018/03/04 12:31:00	BASE	10.94	4	12.50	2	4.0	95	3.2	107	271	982.4	NA	0.0000		9999	6100	8690	19850	0
2018/03/04 12:32:00	BASE	10.93	5	12.50	2	3.9	95	3.2	107	273	982.5	NA	0.0000		9999	6140	0	0	0
2018/03/04 12:33:00	BASE	11.23	4	12.50	2	3.9	95	3.2	107	274	982.4	NA	0.0000		9999	6140	0	0	0
2018/03/04 12:34:00	BASE	11.42	4	12.50	2	3.9	95	3.2	107	273	982.5	NA	0.0000		9999	6140	0	0	0
2018/03/04 12:35:00	BASE	11.19	5	12.50	2	3.9	95	3.2	106	273	982.5	NA	0.0000		9999	6170	0	0	0
2018/03/04 12:36:00	BASE	11.01	6	12.50	2	3.9	95	3.2	106	273	982.5	NA	0.0000		9999	3410	6270	0	0
2018/03/04 12:37:00	BASE	11.11	6	12.50	2	3.9	95	3.2	106	274	982.5	NA	0.0000		9999	6330	8140	0	0
2018/03/04 12:38:00	BASE	10.97	5	12.35	5	3.9	95	3.2	107	275	982.6	NA	0.0000		9999	3220	6200	8140	0
2018/03/04 12:39:00	BASE	10.62	5	12.35	5	3.9	95	3.1	108	278	982.6	NA	0.0000		9999	6200	8240	0	0
2018/03/04 12:40:00	BASE	10.71	5	12.35	5	3.9	95	3.2	110	281	982.6	NA	0.0000		9999	6170	8070	0	0
2018/03/04 12:41:00	BASE	10.64	4	12.35	5	3.8	95	3.2	110	282	982.6	NA	0.0000		9999	6070	0	0	0
2018/03/04 12:42:00	BASE	10.30	5	12.35	5	3.8	96	3.2	109	281	982.6	NA	0.0000		9999	6230	0	0	0
2018/03/04 12:43:00	BASE	10.22	7	12.35	5	3.8	96	3.2	107	276	982.6	NA	0.0000		9999	6230	8270	0	0
2018/03/04 12:44:00	BASE	10.38	9	12.35	5	3.8	96	3.3	103	269	982.6	NA	0.0000		9999	6100	0	0	0
2018/03/04 12:45:00	BASE	10.48	5	12.35	5	3.9	96	3.3	100	263	982.6	NA	0.0000		9999	3940	6100	0	0
2018/03/04 12:46:00	BASE	10.19	4	12.35	5	3.9	96	3.3	99	261	982.7	NA	0.0000		9999	6040	0	0	0
2018/03/04 12:47:00	BASE	9.90	5	11.68	5	3.9	96	3.3	99	261	982.8	NA	0.0000		9999	4040	6170	0	0
2018/03/04 12:48:00	BASE	9.82	5	11.68	5	3.9	96	3.3	101	265	982.8	NA	0.0000		9999	3870	6200	0	0
2018/03/04 12:49:00	BASE	9.60	5	11.68	5	3.9	96	3.3	105	274	982.8	NA	0.0000		9999	3840	6140	0	0
2018/03/04 12:50:00	BASE	9.50	5	11.68	5	3.9	96	3.3	110	285	982.8	NA	0.0000		9999	2560	3020	3940	0
2018/03/04 12:51:00	BASE	9.48	7	11.37	5	3.9	96	3.3	114	293	982.8	NA	0.0000		9999	2660	0	0	0
2018/03/04 12:52:00	BASE	9.41	6	11.37	5	3.9	96	3.3	118	301	982.8	NA	0.0000		9999	2400	0	0	0
2018/03/04 12:53:00	BASE	9.12	2	11.16	6	3.9	96	3.3	123	311	982.8	NA	0.0000		9999	2530	0	0	0
2018/03/04 12:54:00	BASE	9.02	2	11.11	6	3.9	96	3.2	129	324	982.8	NA	0.0000		9999	2590	3710	22180	0
2018/03/04 12:55:00	BASE	9.12	5	11.01	3	3.9	95	3.2	135	337	982.8	NA	0.0000		9999	3740	0	0	0
2018/03/04 12:56:00	BASE	9.25	7	11.01	3	3.9	95	3.2	135	337	982.8	NA	0.0000		9999	3640	6100	0	0
2018/03/04 12:57:00	BASE	9.34	5	10.39	360	3.9	95	3.2	133	332	982.9	NA	0.0000		9999	3510	0	0	0
2018/03/04 12:58:00	BASE	9.33	4	10.39	360	3.9	95	3.2	130	326	982.9	NA	0.0000		9999	3410	0	0	0
2018/03/04 12:59:00	BASE	9.46	4	10.55	7	3.9	95	3.2	127	321	982.8	NA	0.0000		9999	3640	0	0	0
2018/03/04 13:00:00	BASE	9.90	4	10.91	8	3.9	95	3.2	124	318	982.8	NA	0.0000		9999	3510	4100	0	0
2018/03/04 13:01:00	BASE	9.96	4	10.91	8	3.9	95	3.2	124	318	982.9	NA	0.0000		9999	4040	6140	0	0
2018/03/04 13:02:00	BASE	9.90	1	10.91	8	3.9	95	3.2	129	327	982.8	NA	0.0000		9999	4040	6140	0	0
2018/03/04 13:03:00	BASE	10.41	2	11.68	1	3.9	95	3.2	134	337	982.8	NA	0.0000		9999	3940	0	0	0
2018/03/04 13:04:00	BASE	10.38	5	11.68	1	3.9	95	3.2	136	343	982.8	NA	0.0000		9999	3870	6070	0	0
2018/03/04 13:05:00	BASE	10.02	0	11.68	1	3.9	95	3.1	139	348	982.8	NA	0.0000		9999	3610	0	0	0
2018/03/04 13:06:00	BASE	10.25	358	11.68	1	3.9	95	3.1	140	349	982.8	NA	0.0000		9999	3220	3810	0	0
2018/03/04 13:07:00	BASE	10.78	1	12.04	2	3.9	95	3.1	139	349	982.7	NA	0.0000		9999	3740	0	0	0
2018/03/04 13:08:00	BASE	11.11	2	12.09	9	3.9	95	3.1	140	351	982.7	NA	0.0000		9999	3670	0	0	0
2018/03/04 13:09:00	BASE	11.45	3	12.76	3	3.9	95	3.2	141	355	982.7	NA	0.0000		9999	3510	0	0	0
2018/03/04 13:10:00	BASE	11.34	5	12.76	3	3.9	95	3.2	143	359	982.7	NA	0.0000		9999	3580	0	0	0
2018/03/04 13:11:00	BASE	11.18	4	12.76	3	4.0	95	3.2	145	361	982.7	NA	0.0000		9999	3380	6040	0	0
2018/03/04 13:12:00	BASE	11.32	3	12.76	3	4.0	95	3.2	148	369	982.8	NA	0.0000		9999	3310	0	0	0
2018/03/04 13:13:00	BASE	11.65	4	12.76	3	4.0	94	3.2	152	377	982.7	NA	0.0000		9999	3350	0	0	0
2018/03/04 13:14:00	BASE	11.82	5	12.76	3	4.0	94	3.2	154	382	982.8	NA	0.0000		9999	3350	0	0	0
2018/03/04 13:15:00	BASE	11.73	5	12.91	7	4.0	94	3.1	158	390	982.8	NA	0.0000		9999	3380	0	0	0
2018/03/04 13:16:00	BASE	11.76	4	12.91	7	4.0	94	3.2	163	399	982.8	NA	0.0000		9999	3480	0	0	0
2018/03/04 13:17:00	BASE	11.38	5	12.91	7	4.1	94	3.2	167	407	982.8	NA	0.0000		9999	3640	6200	0	0
2018/03/04 13:18:00	BASE	10.75	6	12.91	7	4.1	94	3.2	171	415	982.9	NA	0.0000		9999	6140	0	0	0
2018/03/04 13:19:00	BASE	10.57	5	12.91	7	4.1	94	3.2	179	436	982.9	NA	0.0000		9999	6040	0	0	0
2018/03/04 13:20:00	BASE	10.74	4	12.91	7	4.1	94	3.2	198	478	982.9	NA	0.0000		9999	3220	6040	0	0
2018/03/04 13:21:00	BASE	10.65	4	12.91	7	4.0	94	3.2	228	540	982.9	NA	0.0000		9999	6040	0	0	0
2018/03/04 13:22:00	BASE	10.53	5	12.91	7	4.0	94	3.1	231	548	982.9	NA	0.0000		9999	2590	6100	0	0
2018/03/04 13:23:00	BASE	10.41	4	12.91	7	4.0	94	3.2	220	528	982.9	NA	0.0000		9999	2760	6100	0	0
2018/03/04 13:24:00	BASE	10.48	3	12.91	7	4.1	94	3.2	196	481	982.9	NA	0.0000		9999	2360	3180	6200	0
2018/03/04 13:25:00	BASE	10.67	4	12.24	1	4.1	94	3.2	204	492	982.9	NA	0.0000		9999	2490	3220	6000	0
2018/03/04 13:26:00	BASE	10.26	5	11.99	6	4.1	94	3.2	204	489	983.0	NA	0.0000		9999	5970	0	0	0
2018/03/04 13:27:00	BASE	10.25	4	11.57	2	4.1	94	3.2	217	518	982.9	NA	0.0000		9999	6070	0	0	0
2018/03/04 13:28:00	BASE	10.61	2	11.57	2	4.1	94	3.2	232	548	983.0	NA	0.0000		9999	6070	0	0	0
2018/03/04 13:29:00	BASE	10.46	5	11.57	2	4.1	94	3.2	607	1234	982.9	NA	0.0000		9999	6100	0	0	0
2018/03/04 13:30:00	BASE	10.34	7	11.57	2	4.1	93	3.1	607	1242	983.0	NA	0.0000		9999	6140	21850	0	0
2018/03/04 13:31:00	BASE	10.69	5	11.57	6	4.2	93	3.1	469	996	982.9	NA	0.0000		9999	6140	0	0	0
2018/03/04 13:32:00	BASE	11.18	4	11.78	1	4.2	93	3.2	569	1175	983.0	NA	0.0000		9999	6140	0	0	0
2018/03/04 13:33:00	BASE	11.09	2	11.78	1	4.3	93	3.2	627	1272	983.0	NA	0.0000		9999	6070	0	0	0
2018/03/04 13:34:00	BASE	10.78	5	11.78	3	4.3	93	3.3	674	1351	983.0	NA	0.0000		9999	4330	6040	0	0
2018/03/04 13:35:00	BASE	10.91	6	11.78	3	4.4	93	3.4	598	1219	983.0	NA	0.0000		9999	4300	5940	0	0
2018/03/04 13:36:00	BASE	10.85	9	11.78	3	4.4	93	3.4	624	1264	983.0	NA	0.0000		9999	3510	5940	0	0
2018/03/04 13:37:00	BASE	10.32	11	11.78	3	4.5	93	3.4	564	1160	983.1	NA	0.0000		9999	3480	6140	0	0
2018/03/04 13:38:00	BASE	10.39	352	11.78	3	4.5	93	3.5	407	885	983.0	NA	0.0000		9999	6230	0	0	0
2018/03/04 13:39:00	BASE	10.49	346	11.78	3	4.5	93	3.5	403	873	983.0	NA	0.0000		9999	6590	0	0	0
2018/03/04 13:40:00	BASE	10.52	354	11.78	3	4.5	93	3.5	474	1002	983.0	NA	0.0000		9999	5680	0	0	0
2018/03/04 13:41:00	BASE	10.44	14	11.78	3	4.5	93	3.5	543	1132	983.0	NA	0.0000		9999	5510	0	0	0
2018/03/04 13:42:00	BASE	10.39	13	11.78	3	4.4	94	3.5	547	1140	983.0	NA	0.0000		9999	4490	5740	0	0
2018/03/04 13:43:00	BASE	10.64	6	11.78	3	4.4	94	3.5	343	773	983.0	NA	0.0000		9999	4300	6040	21490	0
2018/03/04 13:44:00	BASE	10.70	3	11.73	4	4.4	94	3.5	244	571	983.0	NA	0.0000		9999	4040	5840	0	0
2018/03/04 13:45:00	BASE	11.16	2	12.24	360	4.4	94	3.5	253	592	983.0	NA	0.0000		9999	4040	5970	0	0
2018/03/04 13:46:00	BASE	11.56	2	12.60	12	4.3	94	3.5	327	739	983.0	NA	0.0000		9999	3970	5810	0	0
2018/03/04 13:47:00	BASE	11.30	3	12.60	12	4.3	94	3.5	229	541	983.0	NA	0.0000		9999	5810	0	0	0
2018/03/04 13:48:00	BASE	10.82	4	12.60	12	4.3	94	3.4	226	535	983.0	NA	0.0000		9999	3740	6070	0	0
2018/03/04 13:49:00	BASE	11.11	5	12.60	12	4.2	95	3.4	223	527	983.0	NA	0.0000		9999	3580	17190	0	0
2018/03/04 13:50:00	BASE	11.76	5	12.60	12	4.2	95	3.5	226	535	983.0	NA	0.0000		9999	3540	0	0	0
2018/03/04 13:51:00	BASE	11.68	3	12.60	12	4.2	95	3.5	219	522	983.0	NA	0.0000		9999	3480	0	0	0
2018/03/04 13:52:00	BASE	11.47	4	12.60	12	4.2	95	3.5	210	503	983.1	NA	0.0000		9999	3670	0	0	0
2018/03/04 13:53:00	BASE	11.38	6	12.60	12	4.2	95	3.5	207	497	983.0	NA	0.0000		9999	3810	0	0	0
2018/03/04 13:54:00	BASE	10.93	7	12.60	12	4.2	96	3.5	206	496	983.1	NA	0.0000		9999	3810	0	0	0
2018/03/04 13:55:00	BASE	11.07	7	12.60	12	4.1	96	3.5	204	493	983.1	NA	0.0000		9999	2690	3670	0	0
2018/03/04 13:56:00	BASE	11.32	8	12.35	7	4.1	96	3.6	210	507	983.1	NA	0.0000		9999	2690	3670	0	0
2018/03/04 13:57:00	BASE	11.19	8	12.35	7	4.1	96	3.6	223	534	983.2	NA	0.0000		9999	2790	3450	0	0
2018/03/04 13:58:00	BASE	11.14	7	12.35	7	4.1	96	3.5	224	537	983.2	NA	0.0000		9999	2720	0	0	0
2018/03/04 13:59:00	BASE	10.94	5	12.35	7	4.1	96	3.5	215	520	983.2	NA	0.0000		9999	2660	0	0	0
2018/03/04 14:00:00	BASE	10.67	6	12.35	7	4.1	96	3.5	208	507	983.2	NA	0.0000		9999	2920	0	0	0
2018/03/04 14:01:00	BASE	10.58	7	12.35	7	4.1	96	3.5	208	509	983.2	NA	0.0000		9999	2820	0	0	0
2018/03/04 14:02:00	BASE	10.22	8	12.35	7	4.1	96	3.5	207	508	983.3	NA	0.0000		9999	2660	0	0	0
2018/03/04 14:03:00	BASE	9.73	8	12.35	7	4.1	96	3.5	208	509	983.2	NA	0.0000		9999	2620	3180	0	0
2018/03/04 14:04:00	BASE	9.50	7	12.35	7	4.1	96	3.5	200	493	983.3	NA	0.0000		9999	2590	3510	0	0
2018/03/04 14:05:00	BASE	9.28	8	12.35	7	4.1	96	3.5	194	479	983.3	NA	0.0000		9999	2490	3480	0	0
2018/03/04 14:06:00	BASE	8.92	11	12.09	5	4.1	96	3.5	190	471	983.3	NA	0.0000		9999	2820	3410	0	0
2018/03/04 14:07:00	BASE	8.31	9	11.42	4	4.1	96	3.6	188	467	983.3	NA	0.0000		9999	3050	3640	0	0
2018/03/04 14:08:00	BASE	8.17	8	11.42	4	4.1	96	3.6	185	463	983.3	NA	0.0000		9999	3080	0	0	0
2018/03/04 14:09:00	BASE	8.54	8	11.11	7	4.2	96	3.6	184	459	983.3	NA	0.0000		9999	3250	0	0	0
2018/03/04 14:10:00	BASE	8.72	9	11.01	9	4.2	96	3.5	183	457	983.3	NA	0.0000		9999	3480	0	0	0
2018/03/04 14:11:00	BASE	8.48	10	10.70	6	4.1	96	3.5	185	463	983.3	NA	0.0000		9999	3350	0	0	0
2018/03/04 14:12:00	BASE	8.54	10	10.70	6	4.1	95	3.5	194	479	983.3	NA	0.0000		9999	3280	0	0	0
2018/03/04 14:13:00	BASE	9.05	12	10.44	11	4.1	95	3.4	212	515	983.2	NA	0.0000		9999	3380	0	0	0
2018/03/04 14:14:00	BASE	8.92	14	10.44	11	4.1	95	3.4	237	565	983.3	NA	0.0000		9999	3380	0	0	0
2018/03/04 14:15:00	BASE	8.57	10	10.44	11	4.2	95	3.4	260	609	983.3	NA	0.0000		9999	3410	0	0	0
2018/03/04 14:16:00	BASE	8.74	9	10.44	11	4.2	95	3.4	270	628	983.2	NA	0.0000		9999	3540	0	0	0
2018/03/04 14:17:00	BASE	9.10	9	10.44	11	4.3	94	3.4	272	633	983.3	NA	0.0000		9999	3610	0	0	0
2018/03/04 14:18:00	BASE	9.08	8	10.44	11	4.3	94	3.4	274	636	983.3	NA	0.0000		9999	3640	0	0	0
2018/03/04 14:19:00	BASE	8.51	8	10.44	11	4.3	93	3.3	278	644	983.3	NA	0.0000		9999	3610	0	0	0
2018/03/04 14:20:00	BASE	8.16	11	10.44	11	4.3	93	3.3	281	650	983.3	NA	0.0000		9999	3670	0	0	0
2018/03/04 14:21:00	BASE	8.25	11	10.44	11	4.3	92	3.2	282	650	983.3	NA	0.0000		9999	3640	0	0	0
2018/03/04 14:22:00	BASE	8.53	6	10.44	11	4.4	92	3.2	284	653	983.3	NA	0.0000		9999	3640	0	0	0
2018/03/04 14:23:00	BASE	8.58	7	10.13	4	4.4	92	3.2	289	663	983.3	NA	0.0000		9999	3610	0	0	0
2018/03/04 14:24:00	BASE	8.18	8	10.13	4	4.4	91	3.2	300	684	983.3	NA	0.0000		9999	3640	0	0	0
2018/03/04 14:25:00	BASE	7.87	10	10.13	4	4.5	91	3.2	318	721	983.3	NA	0.0000		9999	3610	0	0	0
2018/03/04 14:26:00	BASE	7.44	12	10.13	4	4.5	91	3.1	335	756	983.3	NA	0.0000		9999	3610	0	0	0
2018/03/04 14:27:00	BASE	6.97	14	9.62	4	4.5	91	3.1	333	752	983.3	NA	0.0000		9999	3580	0	0	0
2018/03/04 14:28:00	BASE	6.70	16	9.52	3	4.6	90	3.1	327	739	983.3	NA	0.0000		9999	3580	0	0	0
2018/03/04 14:29:00	BASE	6.21	17	9.52	3	4.6	90	3.1	337	762	983.4	NA	0.0000		9999	3510	0	0	0
2018/03/04 14:30:00	BASE	5.99	19	9.52	3	4.6	90	3.0	360	809	983.4	NA	0.0000		9999	3710	0	0	0
2018/03/04 14:31:00	BASE	5.92	20	9.52	3	4.6	90	3.0	372	830	983.4	NA	0.0000		9999	3640	0	0	0
2018/03/04 14:32:00	BASE	6.14	18	8.85	7	4.5	90	3.0	386	856	983.3	NA	0.0000		9999	3610	0	0	0
2018/03/04 14:33:00	BASE	6.14	14	8.39	16	4.5	89	2.9	411	906	983.4	NA	0.0000		9999	3710	0	0	0
2018/03/04 14:34:00	BASE	5.73	14	8.28	13	4.5	90	3.0	531	1138	983.4	NA	0.0000		9999	3740	0	0	0
2018/03/04 14:35:00	BASE	6.00	14	7.97	9	4.6	90	3.0	647	1356	983.3	NA	0.0000		9999	3740	0	0	0
2018/03/04 14:36:00	BASE	6.87	16	8.54	18	4.6	90	3.1	756	1514	983.3	NA	0.0000		9999	3770	0	0	0
2018/03/04 14:37:00	BASE	7.28	14	8.54	18	4.7	90	3.1	708	1460	983.3	NA	0.0000		9999	3810	0	0	0
2018/03/04 14:38:00	BASE	7.34	15	9.26	21	4.8	90	3.2	555	1180	983.3	NA	0.0000		9999	3770	0	0	0
2018/03/04 14:39:00	BASE	7.49	17	9.26	21	4.8	89	3.2	476	1030	983.3	NA	0.0000		9999	3810	0	0	0
2018/03/04 14:40:00	BASE	7.57	14	9.26	21	4.9	89	3.2	431	940	983.3	NA	0.0000		9999	3840	20050	0	0
2018/03/04 14:41:00	BASE	7.73	13	9.26	21	4.9	88	3.1	408	899	983.2	NA	0.0000		9999	3770	19950	0	0
2018/03/04 14:42:00	BASE	8.05	15	10.08	7	4.9	88	3.1	383	852	983.3	NA	0.0000		9999	3810	0	0	0
2018/03/04 14:43:00	BASE	8.23	16	10.08	7	4.8	88	3.0	381	849	983.2	NA	0.0000		9999	3810	0	0	0
2018/03/04 14:44:00	BASE	7.77	17	10.08	7	4.8	88	2.9	378	846	983.2	NA	0.0000		9999	3840	0	0	0
2018/03/04 14:45:00	BASE	7.64	17	10.08	7	4.8	87	2.9	377	843	983.3	NA	0.0000		9999	3770	0	0	0
2018/03/04 14:46:00	BASE	8.01	15	10.08	7	4.8	87	2.8	372	836	983.3	NA	0.0000		9999	3900	0	0	0
2018/03/04 14:47:00	BASE	7.83	14	10.08	7	4.8	87	2.8	374	843	983.3	NA	0.0000		9999	3840	0	0	0
2018/03/04 14:48:00	BASE	7.87	16	10.08	7	4.8	87	2.7	376	847	983.2	NA	0.0000		9999	3810	0	0	0
2018/03/04 14:49:00	BASE	8.05	16	10.08	7	4.8	87	2.7	398	896	983.2	NA	0.0000		9999	3770	0	0	0
2018/03/04 14:50:00	BASE	8.08	13	10.08	7	4.8	86	2.7	407	912	983.2	NA	0.0000		9999	3740	0	0	0
2018/03/04 14:51:00	BASE	7.93	13	10.08	7	4.8	86	2.7	413	921	983.2	NA	0.0000		9999	3770	22870	0	0
2018/03/04 14:52:00	BASE	7.57	14	9.72	10	4.8	86	2.7	448	993	983.2	NA	0.0000		9999	3740	0	0	0
2018/03/04 14:53:00	BASE	7.69	13	9.72	10	4.8	86	2.7	477	1049	983.2	NA	0.0000		9999	3710	21100	0	0
2018/03/04 14:54:00	BASE	7.99	9	9.72	10	4.8	86	2.7	476	1045	983.2	NA	0.0000		9999	3970	0	0	0
2018/03/04 14:55:00	BASE	8.00	8	9.72	10	4.8	86	2.7	503	1101	983.2	NA	0.0000		9999	3770	0	0	0
2018/03/04 14:56:00	BASE	7.79	13	9.72	10	4.9	86	2.7	527	1147	983.2	NA	0.0000		9999	3740	0	0	0
2018/03/04 14:57:00	BASE	7.41	14	9.72	10	4.9	85	2.7	515	1124	983.2	NA	0.0000		9999	3540	0	0	0
2018/03/04 14:58:00	BASE	7.32	13	9.72	10	5.0	85	2.6	556	1200	983.2	NA	0.0000		9999	3810	0	0	0
2018/03/04 14:59:00	BASE	7.73	17	9.72	10	5.0	85	2.6	608	1310	983.2	NA	0.0000		9999	3840	0	0	0
2018/03/04 15:00:00	BASE	7.91	18	9.57	13	5.1	84	2.7	597	1286	983.2	NA	0.0000		9999	3900	24440	0	0
2018/03/04 15:01:00	BASE	7.94	17	9.16	6	5.1	84	2.7	521	1142	983.2	NA	0.0000		9999	3970	0	0	0
2018/03/04 15:02:00	BASE	8.19	17	9.52	15	5.2	84	2.7	658	1404	983.2	NA	0.0000		9999	4130	0	0	0
2018/03/04 15:03:00	BASE	8.09	14	9.93	4	5.2	84	2.7	631	1348	983.2	NA	0.0000		9999	3870	0	0	0
2018/03/04 15:04:00	BASE	7.69	17	9.93	4	5.3	84	2.7	527	1146	983.2	NA	0.0000		9999	4070	0	0	0
2018/03/04 15:05:00	BASE	7.98	19	9.98	16	5.3	84	2.8	512	1118	983.2	NA	0.0000		9999	4040	0	0	0
2018/03/04 15:06:00	BASE	8.32	16	9.98	16	5.3	83	2.8	605	1301	983.2	NA	0.0000		9999	4040	0	0	0
2018/03/04 15:07:00	BASE	8.31	15	9.98	16	5.4	83	2.7	517	1127	983.2	NA	0.0000		9999	4070	0	0	0
2018/03/04 15:08:00	BASE	8.21	14	9.98	16	5.4	83	2.6	543	1182	983.2	NA	0.0000		9999	4170	0	0	0
2018/03/04 15:09:00	BASE	8.13	15	9.98	16	5.3	82	2.6	530	1152	983.2	NA	0.0000		9999	4270	0	0	0
2018/03/04 15:10:00	BASE	8.13	18	9.98	16	5.3	82	2.5	643	1370	983.2	NA	0.0000		9999	4300	0	0	0
2018/03/04 15:11:00	BASE	8.22	15	9.98	16	5.3	82	2.4	719	1511	983.2	NA	0.0000		9999	4330	0	0	0
2018/03/04 15:12:00	BASE	8.64	14	9.98	16	5.3	82	2.4	785	1514	983.1	NA	0.0000		9999	4430	0	0	0
2018/03/04 15:13:00	BASE	8.73	14	9.98	5	5.3	82	2.4	624	1337	983.2	NA	0.0000		9999	4400	0	0	0
2018/03/04 15:14:00	BASE	8.33	15	9.98	5	5.3	82	2.5	846	1515	983.2	NA	0.0000		9999	4300	0	0	0
2018/03/04 15:15:00	BASE	7.88	16	9.98	5	5.4	82	2.5	859	1514	983.2	NA	0.0000		9999	4400	0	0	0
2018/03/04 15:16:00	BASE	7.62	15	9.98	5	5.4	82	2.6	886	1514	983.1	NA	0.0000		9999	4460	0	0	0
2018/03/04 15:17:00	BASE	8.11	15	9.98	5	5.5	82	2.6	882	1515	983.1	NA	0.0000		9999	4460	0	0	0
2018/03/04 15:18:00	BASE	8.94	14	10.24	5	5.5	82	2.6	884	1514	983.1	NA	0.0000		9999	4400	0	0	0
2018/03/04 15:19:00	BASE	9.58	10	11.11	7	5.6	81	2.7	871	1514	983.1	NA	0.0000		9999	4490	0	0	0
2018/03/04 15:20:00	BASE	9.85	10	11.11	7	5.6	81	2.6	603	1304	983.1	NA	0.0000		9999	4360	0	0	0
2018/03/04 15:21:00	BASE	9.77	12	11.11	7	5.6	81	2.5	517	1140	983.1	NA	0.0000		9999	4490	0	0	0
2018/03/04 15:22:00	BASE	9.67	11	11.11	7	5.6	81	2.5	468	1042	983.1	NA	0.0000		9999	4400	0	0	0
2018/03/04 15:23:00	BASE	9.68	9	11.11	7	5.5	80	2.4	437	979	983.1	NA	0.0000		9999	4360	0	0	0
2018/03/04 15:24:00	BASE	9.97	9	11.88	6	5.5	80	2.3	420	945	983.1	NA	0.0000		9999	11750	0	0	0
2018/03/04 15:25:00	BASE	9.75	11	11.88	6	5.4	80	2.2	418	942	983.2	NA	0.0000		9999	4360	0	0	0
2018/03/04 15:26:00	BASE	9.55	12	11.88	6	5.4	80	2.2	418	943	983.2	NA	0.0000		9999	4430	22470	0	0
2018/03/04 15:27:00	BASE	10.16	11	11.88	6	5.3	80	2.2	413	932	983.1	NA	0.0000		9999	4460	0	0	0
2018/03/04 15:28:00	BASE	10.62	11	11.88	6	5.3	80	2.1	403	912	983.1	NA	0.0000		9999	4530	0	0	0
2018/03/04 15:29:00	BASE	10.59	9	11.99	8	5.3	80	2.1	389	883	983.1	NA	0.0000		9999	4430	0	0	0
2018/03/04 15:30:00	BASE	10.77	8	11.99	8	5.2	80	2.1	373	853	983.1	NA	0.0000		9999	4490	0	0	0
2018/03/04 15:31:00	BASE	11.03	8	11.99	7	5.2	80	2.1	362	832	983.1	NA	0.0000		9999	4400	19100	21980	0
2018/03/04 15:32:00	BASE	10.89	9	11.99	7	5.2	80	2.1	358	823	983.1	NA	0.0000		9999	4460	19520	20970	0
2018/03/04 15:33:00	BASE	10.35	10	11.99	7	5.2	80	2.1	358	823	983.2	NA	0.0000		9999	4530	0	0	0
2018/03/04 15:34:00	BASE	9.95	10	11.99	7	5.2	81	2.1	364	836	983.2	NA	0.0000		9999	4490	0	0	0
2018/03/04 15:35:00	BASE	9.92	12	11.99	7	5.2	81	2.1	380	867	983.2	NA	0.0000		9999	4460	0	0	0
2018/03/04 15:36:00	BASE	9.96	13	11.99	7	5.2	81	2.1	389	889	983.2	NA	0.0000		9999	4400	0	0	0
2018/03/04 15:37:00	BASE	9.99	17	11.99	7	5.2	81	2.1	382	877	983.2	NA	0.0000		9999	4200	0	0	0
2018/03/04 15:38:00	BASE	10.03	16	11.99	7	5.1	81	2.1	376	869	983.2	NA	0.0000		9999	4270	0	0	0
2018/03/04 15:39:00	BASE	9.72	14	11.99	7	5.1	81	2.1	369	855	983.2	NA	0.0000		9999	4230	0	0	0
2018/03/04 15:40:00	BASE	9.33	16	11.99	7	5.1	81	2.1	364	847	983.2	NA	0.0000		9999	4200	0	0	0
2018/03/04 15:41:00	BASE	8.73	18	11.88	15	5.1	81	2.1	365	848	983.3	NA	0.0000		9999	4200	0	0	0
2018/03/04 15:42:00	BASE	8.60	19	11.88	15	5.1	81	2.1	372	868	983.3	NA	0.0000		9999	4300	0	0	0
2018/03/04 15:43:00	BASE	8.40	21	11.88	15	5.1	81	2.1	365	850	983.3	NA	0.0000		9999	4360	0	0	0
2018/03/04 15:44:00	BASE	7.81	22	11.88	15	5.1	81	2.1	365	850	983.3	NA	0.0000		9999	4400	0	0	0
2018/03/04 15:45:00	BASE	7.74	20	11.27	22	5.1	81	2.1	363	846	983.3	NA	0.0000		9999	4400	0	0	0
2018/03/04 15:46:00	BASE	7.36	19	11.27	22	5.1	81	2.1	360	839	983.3	NA	0.0000		9999	4430	0	0	0
2018/03/04 15:47:00	BASE	6.97	20	10.70	9	5.1	81	2.1	358	834	983.3	NA	0.0000		9999	4360	24050	0	0
2018/03/04 15:48:00	BASE	6.76	21	10.70	9	5.1	81	2.1	359	836	983.4	NA	0.0000		9999	4430	0	0	0
2018/03/04 15:49:00	BASE	7.25	22	10.24	16	5.1	81	2.1	361	840	983.3	NA	0.0000		9999	4430	0	0	0
2018/03/04 15:50:00	BASE	8.07	23	10.24	16	5.2	81	2.2	361	839	983.3	NA	0.0000		9999	4490	0	0	0
2018/03/04 15:51:00	BASE	8.11	25	10.24	16	5.2	81	2.2	357	833	983.3	NA	0.0000		9999	4590	0	0	0
2018/03/04 15:52:00	BASE	8.09	27	9.93	27	5.3	80	2.1	357	833	983.3	NA	0.0000		9999	4460	0	0	0
2018/03/04 15:53:00	BASE	8.18	25	9.93	27	5.3	80	2.1	361	842	983.3	NA	0.0000		9999	4630	0	0	0
2018/03/04 15:54:00	BASE	8.03	24	9.93	27	5.3	79	2.0	366	851	983.3	NA	0.0000		9999	4630	0	0	0
2018/03/04 15:55:00	BASE	8.29	28	9.93	27	5.3	79	2.0	366	849	983.2	NA	0.0000		9999	4720	0	0	0
2018/03/04 15:56:00	BASE	8.70	29	9.93	27	5.4	79	1.9	354	827	983.2	NA	0.0000		9999	4690	0	0	0
2018/03/04 15:57:00	BASE	8.80	26	9.93	27	5.4	78	1.9	340	799	983.2	NA	0.0000		9999	4690	0	0	0
2018/03/04 15:58:00	BASE	8.68	25	9.93	27	5.4	78	1.8	332	784	983.2	NA	0.0000		9999	4690	0	0	0
2018/03/04 15:59:00	BASE	8.52	24	10.24	25	5.4	77	1.8	326	775	983.2	NA	0.0000		9999	4720	0	0	0
2018/03/04 16:00:00	BASE	9.10	23	10.91	22	5.4	77	1.8	326	778	983.2	NA	0.0000		9999	4720	0	0	0
2018/03/04 16:01:00	BASE	9.50	24	10.91	22	5.4	77	1.7	331	789	983.2	NA	0.0000		9999	4760	0	0	0
2018/03/04 16:02:00	BASE	9.28	23	10.91	22	5.4	77	1.6	338	802	983.2	NA	0.0000		9999	4720	0	0	0
2018/03/04 16:03:00	BASE	8.81	24	10.91	22	5.4	76	1.6	338	802	983.2	NA	0.0000		9999	4690	0	0	0
2018/03/04 16:04:00	BASE	8.55	27	10.91	22	5.4	76	1.5	328	783	983.2	NA	0.0000		9999	4630	0	0	0
2018/03/04 16:05:00	BASE	8.79	27	10.91	22	5.4	76	1.5	312	749	983.2	NA	0.0000		9999	4590	0	0	0
2018/03/04 16:06:00	BASE	9.23	25	10.91	22	5.4	76	1.5	300	724	983.2	NA	0.0000		9999	4590	0	0	0
2018/03/04 16:07:00	BASE	9.63	25	10.91	22	5.4	76	1.5	293	711	983.1	NA	0.0000		9999	4560	0	0	0
2018/03/04 16:08:00	BASE	9.44	23	10.91	22	5.4	76	1.5	291	707	983.2	NA	0.0000		9999	4590	0	0	0
2018/03/04 16:09:00	BASE	8.94	21	10.91	22	5.4	76	1.4	289	704	983.2	NA	0.0000		9999	4590	0	0	0
2018/03/04 16:10:00	BASE	8.91	21	10.55	22	5.4	75	1.4	288	704	983.2	NA	0.0000		9999	4590	0	0	0
2018/03/04 16:11:00	BASE	8.92	22	10.55	22	5.4	75	1.3	287	701	983.2	NA	0.0000		9999	4560	0	0	0
2018/03/04 16:12:00	BASE	8.82	21	10.55	22	5.4	75	1.3	282	691	983.2	NA	0.0000		9999	4560	0	0	0
2018/03/04 16:13:00	BASE	8.81	23	10.55	22	5.4	75	1.3	275	676	983.2	NA	0.0000		9999	4560	0	0	0
2018/03/04 16:14:00	BASE	8.61	22	10.55	22	5.3	75	1.3	269	664	983.2	NA	0.0000		9999	4590	0	0	0
2018/03/04 16:15:00	BASE	8.35	17	10.55	22	5.3	75	1.3	265	657	983.2	NA	0.0000		9999	4560	0	0	0
2018/03/04 16:16:00	BASE	7.90	17	10.55	22	5.3	76	1.3	266	659	983.3	NA	0.0000		9999	4660	0	0	0
2018/03/04 16:17:00	BASE	7.50	15	10.55	22	5.3	76	1.3	272	672	983.3	NA	0.0000		9999	4590	0	0	0
2018/03/04 16:18:00	BASE	7.39	9	10.44	17	5.2	76	1.4	282	692	983.3	NA	0.0000		9999	4590	0	0	0
2018/03/04 16:19:00	BASE	8.23	10	10.44	17	5.2	76	1.4	297	722	983.2	NA	0.0000		9999	4630	0	0	0
2018/03/04 16:20:00	BASE	8.45	11	10.44	17	5.2	77	1.4	318	765	983.3	NA	0.0000		9999	4660	0	0	0
2018/03/04 16:21:00	BASE	8.39	9	10.44	17	5.2	77	1.4	335	797	983.3	NA	0.0000		9999	4660	0	0	0
2018/03/04 16:22:00	BASE	8.83	7	10.29	20	5.2	77	1.5	347	820	983.3	NA	0.0000		9999	4630	0	0	0
2018/03/04 16:23:00	BASE	8.99	5	10.29	20	5.2	77	1.4	353	833	983.3	NA	0.0000		9999	4630	0	0	0
2018/03/04 16:24:00	BASE	9.54	4	10.70	1	5.2	76	1.4	358	841	983.3	NA	0.0000		9999	4660	21850	0	0
2018/03/04 16:25:00	BASE	10.01	5	11.32	62	5.3	76	1.4	360	847	983.3	NA	0.0000		9999	4460	0	0	0
2018/03/04 16:26:00	BASE	10.07	2	11.32	62	5.3	76	1.4	349	823	983.3	NA	0.0000		9999	4890	0	0	0
2018/03/04 16:27:00	BASE	10.17	360	11.32	62	5.3	76	1.4	337	800	983.3	NA	0.0000		9999	4660	0	0	0
2018/03/04 16:28:00	BASE	10.39	4	11.32	62	5.3	77	1.5	334	793	983.3	NA	0.0000		9999	4720	0	0	0
2018/03/04 16:29:00	BASE	10.51	5	11.32	4	5.2	77	1.5	339	804	983.3	NA	0.0000		9999	4760	0	0	0
2018/03/04 16:30:00	BASE	10.52	3	11.32	4	5.2	78	1.6	347	821	983.3	NA	0.0000		9999	4720	0	0	0
2018/03/04 16:31:00	BASE	10.70	3	11.47	1	5.1	78	1.6	352	832	983.2	NA	0.0000		9999	4720	0	0	0
2018/03/04 16:32:00	BASE	10.60	3	11.47	1	5.0	79	1.6	352	832	983.3	NA	0.0000		9999	4630	0	0	0
2018/03/04 16:33:00	BASE	10.23	4	11.47	1	5.0	79	1.7	351	830	983.3	NA	0.0000		9999	4100	0	0	0
2018/03/04 16:34:00	BASE	10.06	5	11.47	1	5.0	79	1.7	353	833	983.3	NA	0.0000		9999	4040	4630	23660	0
2018/03/04 16:35:00	BASE	9.95	5	11.47	1	5.0	80	1.8	362	851	983.3	NA	0.0000		9999	4230	0	0	0
2018/03/04 16:36:00	BASE	9.99	4	11.47	1	5.0	80	1.8	380	887	983.3	NA	0.0000		9999	4100	0	0	0
2018/03/04 16:37:00	BASE	10.09	3	11.47	1	5.0	80	1.8	386	897	983.3	NA	0.0000		9999	3840	4630	18080	0
2018/03/04 16:38:00	BASE	9.99	4	11.47	1	5.0	80	1.8	392	910	983.4	NA	0.0000		9999	4100	0	0	0
2018/03/04 16:39:00	BASE	9.65	5	11.47	1	5.0	80	1.8	399	925	983.4	NA	0.0000		9999	2130	0	0	0
2018/03/04 16:40:00	BASE	9.29	6	11.47	1	5.0	80	1.8	399	924	983.4	NA	0.0000		9999	4330	0	0	0
2018/03/04 16:41:00	BASE	8.85	7	10.80	9	5.0	80	1.8	392	909	983.4	NA	0.0000		9999	4660	0	0	0
2018/03/04 16:42:00	BASE	8.67	6	10.80	9	5.0	80	1.9	384	890	983.4	NA	0.0000		9999	4130	4760	0	0
2018/03/04 16:43:00	BASE	8.94	5	10.75	360	5.0	80	1.9	421	974	983.4	NA	0.0000		9999	4040	0	0	0
2018/03/04 16:44:00	BASE	9.29	4	10.60	2	5.0	80	1.9	381	883	983.4	NA	0.0000		9999	3940	21100	0	0
2018/03/04 16:45:00	BASE	9.26	9	10.60	2	5.0	80	1.8	387	893	983.5	NA	0.0000		9999	3580	0	0	0
2018/03/04 16:46:00	BASE	9.03	12	10.60	2	5.0	80	1.9	388	892	983.5	NA	0.0000		9999	3900	0	0	0
2018/03/04 16:47:00	BASE	9.21	7	10.19	360	5.0	80	1.9	427	978	983.5	NA	0.0000		9999	3810	0	0	0
2018/03/04 16:48:00	BASE	9.18	5	10.19	360	5.0	81	1.9	388	891	983.4	NA	0.0000		9999	4490	0	0	0
2018/03/04 16:49:00	BASE	8.86	2	10.19	360	4.9	81	1.9	382	877	983.4	NA	0.0000		9999	3770	0	0	0
2018/03/04 16:50:00	BASE	8.69	5	10.19	360	5.0	81	2.0	376	867	983.4	NA	0.0000		9999	4490	0	0	0
2018/03/04 16:51:00	BASE	8.94	8	10.19	360	5.0	81	2.0	360	835	983.4	NA	0.0000		9999	4360	0	0	0
2018/03/04 16:52:00	BASE	9.63	9	10.91	12	5.0	81	2.0	347	808	983.3	NA	0.0000		9999	4230	0	0	0
2018/03/04 16:53:00	BASE	9.76	11	10.91	12	4.9	81	2.0	338	790	983.3	NA	0.0000		9999	4230	21290	0	0
2018/03/04 16:54:00	BASE	8.98	13	10.91	12	4.9	81	1.9	331	777	983.4	NA	0.0000		9999	4300	0	0	0
2018/03/04 16:55:00	BASE	8.22	13	10.91	12	4.9	81	2.0	329	775	983.4	NA	0.0000	-RA	9999	4230	0	0	0
2018/03/04 16:56:00	BASE	7.78	12	10.91	12	4.9	81	2.0	327	770	983.5	NA	0.0000	-RA	9999	4270	0	0	0
2018/03/04 16:57:00	BASE	7.82	11	10.91	12	4.9	81	2.0	325	765	983.4	NA	0.0000	-RA	9999	4270	0	0	0
2018/03/04 16:58:00	BASE	7.69	9	10.91	12	4.9	81	2.0	321	758	983.4	NA	0.0000	-RA	9999	4300	0	0	0
2018/03/04 16:59:00	BASE	6.90	10	10.91	12	5.0	81	2.0	314	746	983.5	NA	0.0000	-RA	9999	4300	0	0	0
2018/03/04 17:00:00	BASE	6.25	15	10.91	12	5.0	81	2.0	302	721	983.5	NA	0.0000	-RA	9999	4360	0	0	0
2018/03/04 17:01:00	BASE	5.90	16	10.91	12	5.0	81	2.0	284	684	983.5	NA	0.0000	-RA	9999	4400	0	0	0
2018/03/04 17:02:00	BASE	6.18	19	10.44	14	5.0	81	1.9	269	652	983.4	NA	0.0000	-RA	9999	4130	0	0	0
2018/03/04 17:03:00	BASE	6.78	22	9.98	10	4.9	81	1.9	260	633	983.4	NA	0.0000	-RA	9999	4130	23130	0	0
2018/03/04 17:04:00	BASE	6.96	21	9.05	9	4.9	81	1.9	256	625	983.4	NA	0.0000	-RA	9999	4070	0	0	0
2018/03/04 17:05:00	BASE	6.75	21	9.05	9	4.9	81	1.9	259	632	983.4	NA	0.0000		9999	4230	0	0	0
2018/03/04 17:06:00	BASE	7.17	20	9.05	9	4.9	81	1.9	271	656	983.4	NA	0.0000		9999	4130	0	0	0
2018/03/04 17:07:00	BASE	7.71	22	9.05	25	4.9	81	1.9	286	687	983.4	NA	0.0000		9999	4300	0	0	0
2018/03/04 17:08:00	BASE	7.82	25	9.05	25	4.9	81	1.9	300	713	983.4	NA	0.0000		9999	4360	0	0	0
2018/03/04 17:09:00	BASE	7.76	24	9.05	25	5.0	81	1.9	310	733	983.4	NA	0.0000		9999	4490	0	0	0
2018/03/04 17:10:00	BASE	7.56	23	9.05	25	5.0	80	1.9	314	743	983.4	NA	0.0000		9999	4560	0	0	0
2018/03/04 17:11:00	BASE	7.36	25	9.05	25	5.1	80	1.9	317	749	983.4	NA	0.0000		9999	4530	0	0	0
2018/03/04 17:12:00	BASE	7.28	24	9.05	25	5.1	79	1.9	319	752	983.4	NA	0.0000		9999	4590	0	0	0
2018/03/04 17:13:00	BASE	7.86	21	9.11	18	5.2	79	1.9	319	752	983.4	NA	0.0000		9999	4630	0	0	0
2018/03/04 17:14:00	BASE	7.97	21	9.11	18	5.2	79	1.8	316	746	983.4	NA	0.0000		9999	4630	0	0	0
2018/03/04 17:15:00	BASE	7.35	22	9.11	18	5.2	79	1.8	315	742	983.4	NA	0.0000		9999	4690	0	0	0
2018/03/04 17:16:00	BASE	7.35	22	9.11	18	5.2	78	1.8	314	741	983.3	NA	0.0000		9999	4660	0	0	0
2018/03/04 17:17:00	BASE	7.55	22	9.11	18	5.3	78	1.8	315	742	983.3	NA	0.0000		9999	4720	0	0	0
2018/03/04 17:18:00	BASE	7.74	22	9.11	18	5.3	78	1.7	314	741	983.3	NA	0.0000		9999	4790	0	0	0
2018/03/04 17:19:00	BASE	8.23	21	9.11	18	5.3	78	1.7	314	739	983.3	NA	0.0000		9999	4790	20410	0	0
2018/03/04 17:20:00	BASE	8.06	24	9.11	18	5.3	77	1.7	316	744	983.3	NA	0.0000		9999	4820	22970	0	0
2018/03/04 17:21:00	BASE	7.93	23	9.36	22	5.3	77	1.6	319	748	983.3	NA	0.0000		9999	4760	0	0	0
2018/03/04 17:22:00	BASE	7.72	21	9.36	22	5.3	77	1.6	318	742	983.3	NA	0.0000		9999	4760	0	0	0
2018/03/04 17:23:00	BASE	7.61	23	9.93	22	5.4	77	1.6	307	719	983.3	NA	0.0000		9999	4820	0	0	0
2018/03/04 17:24:00	BASE	7.99	22	9.93	22	5.4	77	1.7	292	685	983.3	NA	0.0000		9999	4660	0	0	0
2018/03/04 17:25:00	BASE	8.07	22	9.93	22	5.4	77	1.7	276	651	983.3	NA	0.0000		9999	4720	0	0	0
2018/03/04 17:26:00	BASE	8.16	21	9.93	22	5.3	77	1.7	262	623	983.3	NA	0.0000		9999	4630	22800	23720	0
2018/03/04 17:27:00	BASE	7.95	19	9.93	22	5.3	77	1.7	249	598	983.3	NA	0.0000		9999	4630	0	0	0
2018/03/04 17:28:00	BASE	8.09	20	9.93	22	5.3	78	1.7	238	575	983.2	NA	0.0000		9999	4490	0	0	0
2018/03/04 17:29:00	BASE	8.21	21	9.93	22	5.3	78	1.7	233	568	983.3	NA	0.0000		9999	4490	0	0	0
2018/03/04 17:30:00	BASE	8.13	19	9.93	22	5.3	78	1.8	235	572	983.2	NA	0.0000		9999	4590	0	0	0
2018/03/04 17:31:00	BASE	8.12	19	9.93	22	5.3	78	1.8	235	574	983.3	NA	0.0000		9999	4630	0	0	0
2018/03/04 17:32:00	BASE	7.91	19	9.93	22	5.3	78	1.8	238	580	983.3	NA	0.0000		9999	4360	0	0	0
2018/03/04 17:33:00	BASE	7.97	21	9.41	19	5.2	78	1.8	245	595	983.2	NA	0.0000		9999	4330	0	0	0
2018/03/04 17:34:00	BASE	7.95	22	9.41	23	5.2	79	1.8	256	619	983.3	NA	0.0000		9999	4400	0	0	0
2018/03/04 17:35:00	BASE	7.78	21	9.41	23	5.2	79	1.8	268	641	983.3	NA	0.0000		9999	4360	0	0	0
2018/03/04 17:36:00	BASE	7.91	20	9.41	23	5.2	79	1.9	273	651	983.2	NA	0.0000		9999	4360	0	0	0
2018/03/04 17:37:00	BASE	7.78	19	9.41	23	5.2	79	1.9	276	655	983.3	NA	0.0000		9999	4360	0	0	0
2018/03/04 17:38:00	BASE	7.60	20	9.41	23	5.2	79	1.9	284	671	983.3	NA	0.0000		9999	4360	0	0	0
2018/03/04 17:39:00	BASE	7.63	23	9.41	23	5.3	79	1.9	296	693	983.2	NA	0.0000		9999	4330	0	0	0
2018/03/04 17:40:00	BASE	7.82	23	9.41	23	5.3	79	1.9	302	705	983.2	NA	0.0000		9999	4300	19520	20570	0
2018/03/04 17:41:00	BASE	8.11	22	9.41	23	5.3	79	1.9	298	697	983.2	NA	0.0000		9999	4300	0	0	0
2018/03/04 17:42:00	BASE	7.67	22	9.41	23	5.3	79	1.9	288	679	983.2	NA	0.0000		9999	4300	0	0	0
2018/03/04 17:43:00	BASE	7.15	25	9.41	23	5.3	79	1.9	285	674	983.2	NA	0.0000		9999	4360	0	0	0
2018/03/04 17:44:00	BASE	7.04	28	9.31	11	5.3	79	1.9	290	684	983.2	NA	0.0000		9999	4530	0	0	0
2018/03/04 17:45:00	BASE	7.43	25	8.85	9	5.3	79	2.0	297	697	983.2	NA	0.0000		9999	4560	0	0	0
2018/03/04 17:46:00	BASE	7.78	23	9.62	24	5.3	79	1.9	294	691	983.1	NA	0.0000		9999	4660	0	0	0
2018/03/04 17:47:00	BASE	7.86	23	9.62	24	5.3	79	1.9	282	667	983.1	NA	0.0000		9999	4590	0	0	0
2018/03/04 17:48:00	BASE	8.00	24	9.62	24	5.3	78	1.9	272	646	983.1	NA	0.0000		9999	4760	0	0	0
2018/03/04 17:49:00	BASE	7.91	23	9.62	24	5.3	78	1.8	263	628	983.1	NA	0.0000		9999	4720	21980	0	0
2018/03/04 17:50:00	BASE	7.76	23	9.62	24	5.3	78	1.8	250	601	983.2	NA	0.0000		9999	4860	0	0	0
2018/03/04 17:51:00	BASE	7.97	25	9.62	24	5.3	78	1.8	234	567	983.1	NA	0.0000		9999	4790	0	0	0
2018/03/04 17:52:00	BASE	8.38	24	9.62	24	5.3	78	1.8	221	540	983.1	NA	0.0000		9999	4790	0	0	0
2018/03/04 17:53:00	BASE	8.49	19	9.62	24	5.3	78	1.8	211	521	983.1	NA	0.0000		9999	4760	0	0	0
2018/03/04 17:54:00	BASE	8.34	19	9.62	24	5.3	78	1.8	205	507	983.2	NA	0.0000		9999	4890	0	0	0
2018/03/04 17:55:00	BASE	8.11	22	9.62	24	5.3	78	1.8	200	497	983.1	NA	0.0000		9999	4820	0	0	0
2018/03/04 17:56:00	BASE	7.98	23	9.31	18	5.3	78	1.8	196	488	983.1	NA	0.0000		9999	4820	0	0	0
2018/03/04 17:57:00	BASE	8.03	22	9.31	18	5.3	78	1.8	192	479	983.1	NA	0.0000		9999	4920	0	0	0
2018/03/04 17:58:00	BASE	8.33	21	9.52	17	5.3	78	1.8	186	467	983.1	NA	0.0000		9999	4920	0	0	0
2018/03/04 17:59:00	BASE	8.27	21	9.52	17	5.3	78	1.7	180	453	983.1	NA	0.0000		9999	4890	22870	23460	0
2018/03/04 18:00:00	BASE	8.03	24	9.52	17	5.2	78	1.7	174	441	983.1	NA	0.0000		9999	5020	0	0	0
2018/03/04 18:01:00	BASE	8.01	25	10.55	23	5.2	78	1.8	169	432	983.1	NA	0.0000		9999	4950	0	0	0
2018/03/04 18:02:00	BASE	8.19	24	10.55	23	5.2	79	1.8	165	424	983.1	NA	0.0000		9999	5020	0	0	0
2018/03/04 18:03:00	BASE	8.14	22	10.55	23	5.2	79	1.8	163	420	983.1	NA	0.0000		9999	4950	0	0	0
2018/03/04 18:04:00	BASE	8.40	22	10.55	23	5.2	79	1.9	163	420	983.1	NA	0.0000		9999	4990	0	0	0
2018/03/04 18:05:00	BASE	8.71	22	10.55	23	5.3	79	1.9	164	422	983.1	NA	0.0000		9999	4950	0	0	0
2018/03/04 18:06:00	BASE	8.64	22	10.55	23	5.3	79	1.9	165	425	983.0	NA	0.0000		9999	5050	0	0	0
2018/03/04 18:07:00	BASE	8.74	22	10.55	23	5.3	78	1.8	166	427	983.1	NA	0.0000		9999	5050	0	0	0
2018/03/04 18:08:00	BASE	8.39	21	10.55	23	5.3	78	1.8	167	430	983.1	NA	0.0000		9999	4950	0	0	0
2018/03/04 18:09:00	BASE	7.52	18	10.55	23	5.3	78	1.8	169	434	983.1	NA	0.0000		9999	4990	22020	0	0
2018/03/04 18:10:00	BASE	6.76	16	10.55	23	5.3	78	1.8	170	438	983.1	NA	0.0000		9999	5180	0	0	0
2018/03/04 18:11:00	BASE	6.72	15	10.13	22	5.3	78	1.8	171	440	983.1	NA	0.0000		9999	5250	0	0	0
2018/03/04 18:12:00	BASE	6.72	12	10.13	22	5.2	79	1.8	171	439	983.1	NA	0.0000		9999	5150	0	0	0
2018/03/04 18:13:00	BASE	6.47	8	10.13	22	5.2	79	1.8	169	437	983.2	NA	0.0000		9999	4990	0	0	0
2018/03/04 18:14:00	BASE	6.58	5	10.13	22	5.1	79	1.8	167	433	983.2	NA	0.0000		9999	4890	0	0	0
2018/03/04 18:15:00	BASE	6.77	4	10.13	22	5.1	79	1.8	166	431	983.2	NA	0.0000		9999	4860	0	0	0
2018/03/04 18:16:00	BASE	7.45	7	10.08	20	5.1	79	1.8	165	429	983.2	NA	0.0000		9999	4890	0	0	0
2018/03/04 18:17:00	BASE	7.61	8	9.31	26	5.2	79	1.8	163	425	983.2	NA	0.0000		9999	4950	0	0	0
2018/03/04 18:18:00	BASE	7.02	7	9.11	5	5.2	79	1.8	161	419	983.1	NA	0.0000		9999	4990	0	0	0
2018/03/04 18:19:00	BASE	7.09	10	9.11	5	5.2	79	1.8	157	411	983.2	NA	0.0000		9999	4950	0	0	0
2018/03/04 18:20:00	BASE	7.68	13	9.11	5	5.2	79	1.8	156	408	983.1	NA	0.0000		9999	4990	0	0	0
2018/03/04 18:21:00	BASE	7.41	15	9.11	5	5.2	79	1.8	156	409	983.2	NA	0.0000		9999	5090	0	0	0
2018/03/04 18:22:00	BASE	7.00	18	9.11	5	5.2	79	1.8	157	410	983.1	NA	0.0000		9999	4920	0	0	0
2018/03/04 18:23:00	BASE	7.41	19	9.11	5	5.2	78	1.7	155	406	983.1	NA	0.0000		9999	5120	0	0	0
2018/03/04 18:24:00	BASE	7.32	21	9.11	5	5.2	78	1.7	152	400	983.1	NA	0.0000		9999	5090	0	0	0
2018/03/04 18:25:00	BASE	7.45	22	9.11	23	5.2	78	1.7	150	396	983.1	NA	0.0000		9999	5050	0	0	0
2018/03/04 18:26:00	BASE	7.93	20	9.11	23	5.2	78	1.7	152	399	983.0	NA	0.0000		9999	4990	0	0	0
2018/03/04 18:27:00	BASE	8.29	20	10.70	24	5.2	78	1.7	154	406	983.0	NA	0.0000		9999	5020	0	0	0
2018/03/04 18:28:00	BASE	8.85	19	10.70	24	5.3	78	1.7	157	411	983.0	NA	0.0000		9999	5120	0	0	0
2018/03/04 18:29:00	BASE	9.18	16	10.70	24	5.3	78	1.7	159	416	983.0	NA	0.0000		9999	5050	0	0	0
2018/03/04 18:30:00	BASE	8.52	12	10.70	24	5.3	77	1.6	161	420	983.1	NA	0.0000		9999	5050	0	0	0
2018/03/04 18:31:00	BASE	8.33	13	10.70	24	5.3	77	1.6	163	423	983.1	NA	0.0000		9999	4950	5580	0	0
2018/03/04 18:32:00	BASE	8.69	16	10.70	24	5.2	77	1.6	165	427	983.1	NA	0.0000		9999	5050	0	0	0
2018/03/04 18:33:00	BASE	7.96	15	10.70	24	5.2	78	1.6	168	434	983.1	NA	0.0000		9999	4950	0	0	0
2018/03/04 18:34:00	BASE	7.85	15	10.70	24	5.2	78	1.7	174	447	983.1	NA	0.0000		9999	5020	0	0	0
2018/03/04 18:35:00	BASE	7.75	16	10.70	24	5.2	78	1.7	182	464	983.1	NA	0.0000		9999	5350	0	0	0
2018/03/04 18:36:00	BASE	7.23	14	10.70	24	5.2	78	1.7	189	478	983.2	NA	0.0000		9999	5410	0	0	0
2018/03/04 18:37:00	BASE	7.21	11	10.44	20	5.2	78	1.7	193	486	983.2	NA	0.0000		9999	5480	0	0	0
2018/03/04 18:38:00	BASE	6.78	6	9.83	8	5.2	78	1.7	195	489	983.2	NA	0.0000		9999	5090	0	0	0
2018/03/04 18:39:00	BASE	7.07	5	9.83	8	5.2	78	1.7	193	485	983.2	NA	0.0000		9999	5250	0	0	0
2018/03/04 18:40:00	BASE	7.49	7	9.83	8	5.2	78	1.7	191	480	983.2	NA	0.0000		9999	5580	0	0	0
2018/03/04 18:41:00	BASE	7.66	7	9.47	14	5.2	78	1.7	189	476	983.2	NA	0.0000		9999	5640	0	0	0
2018/03/04 18:42:00	BASE	7.95	5	9.36	20	5.2	79	1.8	187	474	983.2	NA	0.0000		9999	5710	0	0	0
2018/03/04 18:43:00	BASE	7.55	3	9.36	20	5.2	79	1.8	189	477	983.2	NA	0.0000		9999	5640	0	0	0
2018/03/04 18:44:00	BASE	7.73	3	9.57	9	5.2	79	1.9	194	487	983.2	NA	0.0000		9999	5580	0	0	0
2018/03/04 18:45:00	BASE	8.28	6	9.57	9	5.2	79	1.9	203	504	983.2	NA	0.0000		9999	5320	0	0	0
2018/03/04 18:46:00	BASE	8.11	7	9.57	9	5.2	79	1.9	210	517	983.2	NA	0.0000		9999	5510	0	0	0
2018/03/04 18:47:00	BASE	7.77	5	9.57	9	5.2	79	1.9	201	498	983.3	NA	0.0000		9999	5450	0	0	0
2018/03/04 18:48:00	BASE	7.63	4	9.57	9	5.2	80	2.0	202	502	983.3	NA	0.0000		9999	5350	6140	0	0
2018/03/04 18:49:00	BASE	7.67	3	9.57	9	5.2	80	2.0	205	507	983.3	NA	0.0000		9999	5870	0	0	0
2018/03/04 18:50:00	BASE	7.38	359	9.57	9	5.2	81	2.1	204	506	983.3	NA	0.0000		9999	5680	0	0	0
2018/03/04 18:51:00	BASE	6.84	355	9.57	9	5.1	81	2.1	203	501	983.3	NA	0.0000		9999	5580	0	0	0
2018/03/04 18:52:00	BASE	6.65	351	9.57	9	5.1	82	2.2	204	502	983.3	NA	0.0000		9999	5120	0	0	0
2018/03/04 18:53:00	BASE	6.98	350	9.57	9	5.0	82	2.2	207	510	983.3	NA	0.0000		9999	5410	0	0	0
2018/03/04 18:54:00	BASE	7.02	352	9.11	7	5.0	83	2.3	207	509	983.3	NA	0.0000		9999	6200	0	0	0
2018/03/04 18:55:00	BASE	6.99	357	9.11	7	4.9	84	2.4	205	505	983.4	NA	0.0000		9999	6040	0	0	0
2018/03/04 18:56:00	BASE	6.99	358	8.49	6	4.9	84	2.4	193	480	983.4	NA	0.0000		9999	6300	0	0	0
2018/03/04 18:57:01	BASE	6.65	353	8.49	6	4.8	85	2.5	184	460	983.4	NA	0.0000		9999	5940	0	0	0
2018/03/04 18:58:01	BASE	6.86	356	8.13	5	4.8	85	2.5	180	447	983.4	NA	0.0000		9999	5280	0	0	0
2018/03/04 18:59:01	BASE	7.22	357	8.13	5	4.7	86	2.6	176	440	983.4	NA	0.0000		9999	6140	8200	0	0
2018/03/04 19:00:01	BASE	7.37	359	8.75	351	4.7	87	2.7	177	444	983.3	NA	0.0000		9999	6100	0	0	0
2018/03/04 19:01:01	BASE	7.38	7	8.75	351	4.7	87	2.7	171	430	983.4	NA	0.0000		9999	7420	0	0	0
2018/03/04 19:02:01	BASE	7.19	7	8.75	351	4.7	88	2.8	172	432	983.4	NA	0.0000		9999	0	0	0	2850
2018/03/04 19:03:01	BASE	7.05	8	8.75	351	4.6	88	2.9	173	433	983.4	NA	0.0000	-RA	9999	0	0	0	920
2018/03/04 19:04:01	BASE	7.22	7	8.75	351	4.6	89	2.9	172	434	983.4	NA	0.0000	-RA	9999	0	0	0	920
2018/03/04 19:05:01	BASE	7.26	4	8.75	351	4.6	89	3.0	169	425	983.4	NA	0.0000	-RA	9999	0	0	0	790
2018/03/04 19:06:01	BASE	6.82	2	8.75	351	4.6	90	3.1	166	418	983.4	NA	0.0000	-RA	9999	0	0	0	850
2018/03/04 19:07:01	BASE	6.64	3	8.75	351	4.6	90	3.1	168	417	983.4	NA	0.0000	-RA	9999	0	0	0	3940
2018/03/04 19:08:01	BASE	6.83	9	8.75	351	4.5	91	3.2	187	458	983.4	NA	0.0000	-RA	9999	0	0	0	4300
2018/03/04 19:09:01	BASE	6.87	9	8.75	351	4.5	91	3.2	200	488	983.4	NA	0.0000	-RA	9999	0	0	0	2820
2018/03/04 19:10:01	BASE	6.57	6	8.13	2	4.5	92	3.3	198	484	983.4	NA	0.0000	-RA	9999	0	0	0	5770
2018/03/04 19:11:01	BASE	6.07	1	8.13	2	4.5	92	3.3	195	476	983.4	NA	0.0000	-RA	9999	4400	0	0	0
2018/03/04 19:12:01	BASE	5.93	360	8.13	2	4.5	92	3.3	194	473	983.4	NA	0.0000	-RA	9999	0	0	0	2620
2018/03/04 19:13:01	BASE	5.97	353	8.13	2	4.4	93	3.3	189	460	983.4	NA	0.0000	-RA	9999	4920	0	0	0
2018/03/04 19:14:01	BASE	5.90	345	7.61	85	4.4	93	3.4	183	449	983.4	NA	0.0000	-RA	9999	0	0	0	4660
2018/03/04 19:15:01	BASE	6.15	344	7.46	1	4.4	93	3.4	183	448	983.4	NA	0.0000	-RA	9999	4070	19880	20570	0
2018/03/04 19:16:01	BASE	6.12	345	7.46	1	4.3	94	3.4	188	459	983.4	NA	0.0000	-RA	9999	0	0	0	4590
2018/03/04 19:17:01	BASE	6.00	345	7.46	1	4.3	94	3.4	187	457	983.4	NA	0.0000	-RA	9999	0	0	0	980
2018/03/04 19:18:01	BASE	5.94	340	7.20	7	4.2	95	3.5	192	464	983.4	NA	0.0000	-RA	9999	1480	0	0	0
2018/03/04 19:19:01	BASE	5.63	339	6.94	4	4.2	95	3.5	194	469	983.4	NA	0.0000	-RA	9999	4200	0	0	0
2018/03/04 19:20:01	BASE	5.34	341	6.79	344	4.1	96	3.5	189	456	983.4	NA	0.0000	-RA	9999	0	0	0	920
2018/03/04 19:21:01	BASE	5.12	343	6.79	344	4.1	96	3.5	186	448	983.4	NA	0.0000	-RA	9999	3940	0	0	0
2018/03/04 19:22:01	BASE	5.25	345	6.79	344	4.0	96	3.5	188	450	983.4	NA	0.0000	-RA	9999	3180	0	0	0
2018/03/04 19:23:01	BASE	5.59	348	6.79	344	4.0	97	3.5	197	467	983.4	NA	0.0000	-RA	9999	1940	0	0	0
2018/03/04 19:24:01	BASE	5.51	350	6.79	344	4.0	97	3.6	222	517	983.4	NA	0.0000	-RA	9999	1380	0	0	0
2018/03/04 19:25:01	BASE	5.31	352	6.48	345	4.0	97	3.6	256	582	983.4	NA	0.0000	-RA	9999	3150	0	0	0
2018/03/04 19:26:01	BASE	5.39	0	6.48	14	4.0	98	3.7	269	608	983.4	NA	0.0000	-RA	9999	1380	0	0	0
2018/03/04 19:27:01	BASE	5.79	8	6.89	14	4.0	98	3.7	290	652	983.4	NA	0.0000	-RA	9999	460	0	0	0
2018/03/04 19:28:01	BASE	5.97	15	6.89	14	4.1	98	3.8	267	604	983.4	NA	0.0000	-RA	9999	0	0	0	3610
2018/03/04 19:29:01	BASE	5.80	20	6.89	14	4.1	98	3.8	249	568	983.4	NA	0.0000	-RA	9999	0	0	0	4630
2018/03/04 19:30:01	BASE	5.24	20	6.89	14	4.1	98	3.8	251	573	983.4	NA	0.0000	-RA	9999	0	0	0	3710
2018/03/04 19:31:01	BASE	4.90	26	6.89	14	4.2	98	3.8	249	568	983.4	NA	0.0000	-RA	9999	430	0	0	0
2018/03/04 19:32:01	BASE	5.10	27	6.89	14	4.2	98	3.8	234	535	983.4	NA	0.0000	-RA	9999	5180	0	0	0
2018/03/04 19:33:01	BASE	5.23	23	6.89	14	4.2	98	3.9	214	494	983.4	NA	0.0000	-RA	9999	5180	0	0	0
2018/03/04 19:34:01	BASE	5.40	21	6.89	14	4.2	98	3.9	200	465	983.4	NA	0.0000	-RA	9999	5380	0	0	0
2018/03/04 19:35:01	BASE	5.73	20	7.20	20	4.3	98	4.0	187	441	983.4	NA	0.0000	-RA	9999	0	0	0	4790
2018/03/04 19:36:01	BASE	5.98	22	7.20	20	4.3	98	4.0	183	434	983.4	NA	0.0000	-RA	9999	21920	0	0	0
2018/03/04 19:37:01	BASE	5.83	23	7.20	20	4.3	98	4.0	191	449	983.4	NA	0.0000	-RA	9999	1440	0	0	0
2018/03/04 19:38:01	BASE	6.36	20	7.92	14	4.4	98	4.1	204	473	983.3	NA	0.0000	-RA	9999	0	0	0	3480
2018/03/04 19:39:01	BASE	6.88	23	8.13	22	4.4	98	4.1	213	491	983.3	NA	0.0000	-RA	9999	0	0	0	5250
2018/03/04 19:40:01	BASE	7.00	27	8.18	24	4.4	98	4.1	215	495	983.3	NA	0.0000	-RA	9999	5610	0	0	0
2018/03/04 19:41:01	BASE	7.07	24	8.18	24	4.5	97	4.1	212	489	983.3	NA	0.0000	-RA	9999	3670	0	0	0
2018/03/04 19:42:01	BASE	7.00	25	8.18	24	4.5	97	4.1	204	473	983.3	NA	0.0000	-RA	9999	3840	0	0	0
2018/03/04 19:43:01	BASE	7.28	27	8.23	29	4.5	97	4.1	195	457	983.3	NA	0.0000	-RA	9999	5410	0	0	0
2018/03/04 19:44:01	BASE	7.52	26	8.39	29	4.6	97	4.1	178	425	983.3	NA	0.0000	-RA	9999	5380	0	0	0
2018/03/04 19:45:01	BASE	7.02	24	8.39	29	4.6	97	4.1	165	398	983.2	NA	0.0000	-RA	9999	0	0	0	3810
2018/03/04 19:46:01	BASE	6.47	23	8.39	29	4.6	96	4.1	170	409	983.3	NA	0.0000	-RA	9999	0	0	0	3810
2018/03/04 19:47:01	BASE	5.90	21	8.39	29	4.6	96	4.0	177	424	983.3	NA	0.0000	-RA	9999	0	0	0	4230
2018/03/04 19:48:01	BASE	5.39	20	8.39	29	4.6	96	4.0	181	432	983.3	NA	0.0000	-RA	9999	22410	0	0	0
2018/03/04 19:49:01	BASE	5.48	19	8.39	29	4.6	96	4.0	184	438	983.3	NA	0.0000	-RA	9999	5710	0	0	0
2018/03/04 19:50:01	BASE	5.32	16	8.39	29	4.6	96	4.0	187	444	983.3	NA	0.0000	-RA	9999	20410	21160	0	0
2018/03/04 19:51:01	BASE	5.25	17	8.39	29	4.6	96	4.0	191	451	983.3	NA	0.0000	-RA	9999	6330	0	0	0
2018/03/04 19:52:01	BASE	5.68	17	8.39	29	4.6	96	4.0	197	462	983.3	NA	0.0000	-RA	9999	6460	0	0	0
2018/03/04 19:53:01	BASE	5.69	15	8.39	29	4.5	96	3.9	200	467	983.3	NA	0.0000	-RA	9999	6890	0	0	0
2018/03/04 19:54:01	BASE	5.79	16	7.72	8	4.5	96	3.9	198	464	983.2	NA	0.0000	-RA	9999	7090	0	0	0
2018/03/04 19:55:01	BASE	6.95	16	9.41	19	4.4	96	3.9	196	460	983.1	NA	0.0000	-RA	9999	5680	6590	0	0
2018/03/04 19:56:01	BASE	8.43	14	9.77	21	4.4	96	3.9	198	463	983.1	NA	0.0000		9999	6140	0	0	0
2018/03/04 19:57:01	BASE	8.50	14	9.77	21	4.4	97	3.9	204	473	983.1	NA	0.0000		9999	5910	6790	0	0
2018/03/04 19:58:01	BASE	7.71	13	9.77	21	4.3	97	3.8	210	484	983.1	NA	0.0000		9999	7220	0	0	0
2018/03/04 19:59:01	BASE	7.86	14	10.19	14	4.3	97	3.8	209	481	983.0	NA	0.0000		9999	5910	7510	0	0
2018/03/04 20:00:01	BASE	8.02	13	10.19	14	4.2	97	3.8	207	477	983.0	NA	0.0000		9999	7510	8400	0	0
2018/03/04 20:01:01	BASE	7.84	13	10.19	14	4.2	97	3.8	204	471	983.0	NA	0.0000		9999	7190	7710	0	0
2018/03/04 20:02:01	BASE	7.21	13	10.19	14	4.2	97	3.8	200	463	983.0	NA	0.0000		9999	6530	0	0	0
2018/03/04 20:03:01	BASE	6.64	13	10.19	14	4.2	97	3.8	198	460	983.0	NA	0.0000		9999	6560	0	0	0
2018/03/04 20:04:01	BASE	6.94	13	10.19	14	4.2	97	3.8	195	457	983.0	NA	0.0000		9999	6100	0	0	0
2018/03/04 20:05:01	BASE	7.05	15	10.19	14	4.2	97	3.8	192	452	983.0	NA	0.0000		9999	6070	0	0	0
2018/03/04 20:06:01	BASE	6.70	15	10.19	14	4.2	97	3.8	188	444	983.0	NA	0.0000		9999	6140	0	0	0
2018/03/04 20:07:01	BASE	6.60	13	10.19	14	4.2	97	3.8	186	440	983.0	NA	0.0000		9999	8300	0	0	0
2018/03/04 20:08:01	BASE	6.57	10	10.19	14	4.3	97	3.8	182	432	983.0	NA	0.0000		9999	6170	7220	0	0
2018/03/04 20:09:01	BASE	7.05	11	9.05	22	4.3	96	3.8	176	421	983.0	NA	0.0000		9999	5640	0	0	0
2018/03/04 20:10:01	BASE	7.68	18	9.05	22	4.3	96	3.7	172	412	982.9	NA	0.0000		9999	5770	0	0	0
2018/03/04 20:11:01	BASE	7.57	18	9.05	22	4.3	96	3.7	170	409	983.0	NA	0.0000		9999	5710	0	0	0
2018/03/04 20:12:01	BASE	7.15	11	9.05	22	4.3	96	3.7	168	403	983.0	NA	0.0000		9999	5770	0	0	0
2018/03/04 20:13:01	BASE	7.03	8	9.05	22	4.4	96	3.7	165	396	982.9	NA	0.0000		9999	6100	0	0	0
2018/03/04 20:14:01	BASE	6.68	11	9.05	22	4.4	95	3.7	160	385	983.0	NA	0.0000		9999	5940	0	0	0
2018/03/04 20:15:01	BASE	5.88	10	9.05	22	4.4	95	3.7	155	375	983.0	NA	0.0000		9999	5970	0	0	0
2018/03/04 20:16:01	BASE	5.61	13	9.05	22	4.4	95	3.7	153	371	983.0	NA	0.0000		9999	6040	0	0	0
2018/03/04 20:17:01	BASE	6.74	16	9.83	23	4.5	95	3.7	151	367	982.9	NA	0.0000		9999	6170	0	0	0
2018/03/04 20:18:01	BASE	7.37	13	9.83	23	4.5	95	3.7	148	360	982.9	NA	0.0000		9999	6330	0	0	0
2018/03/04 20:19:01	BASE	6.52	15	9.83	23	4.5	95	3.7	144	350	983.0	NA	0.0000		9999	6530	0	0	0
2018/03/04 20:20:01	BASE	6.74	16	9.83	23	4.5	94	3.7	140	344	982.9	NA	0.0000		9999	6760	0	0	0
2018/03/04 20:21:01	BASE	8.01	13	10.29	8	4.5	94	3.7	137	337	982.9	NA	0.0000		9999	6820	0	0	0
2018/03/04 20:22:01	BASE	8.93	16	10.49	19	4.6	94	3.7	136	334	982.9	NA	0.0000		9999	6890	0	0	0
2018/03/04 20:23:01	BASE	8.26	17	10.49	19	4.6	94	3.7	134	331	983.0	NA	0.0000		9999	6820	0	0	0
2018/03/04 20:24:01	BASE	7.38	15	10.49	19	4.6	94	3.7	133	327	983.0	NA	0.0000		9999	6270	0	0	0
2018/03/04 20:25:01	BASE	7.74	17	10.49	19	4.6	93	3.6	131	324	983.0	NA	0.0000		9999	6300	0	0	0
2018/03/04 20:26:01	BASE	7.94	17	10.49	19	4.6	93	3.6	129	319	983.1	NA	0.0000		9999	6370	0	0	0
2018/03/04 20:27:01	BASE	7.21	19	10.49	19	4.6	93	3.5	126	311	983.1	NA	0.0000		9999	6460	0	0	0
2018/03/04 20:28:01	BASE	6.41	20	10.49	19	4.6	92	3.5	122	304	983.1	NA	0.0000		9999	6400	0	0	0
2018/03/04 20:29:00	BASE	5.92	18	10.49	19	4.6	92	3.5	119	297	983.2	NA	0.0000		9999	6400	0	0	0
2018/03/04 20:30:00	BASE	5.64	19	10.49	19	4.6	92	3.5	118	294	983.1	NA	0.0000		9999	7640	0	0	0
2018/03/04 20:31:00	BASE	5.56	23	10.49	19	4.6	92	3.4	116	289	983.2	NA	0.0000		9999	7580	0	0	0
2018/03/04 20:32:01	BASE	5.44	16	9.16	11	4.7	92	3.4	110	277	983.2	NA	0.0000		9999	7480	0	0	0
2018/03/04 20:33:00	BASE	5.11	12	9.16	11	4.7	91	3.4	102	260	983.2	NA	0.0000		9999	7120	0	0	0
2018/03/04 20:34:00	BASE	5.38	17	9.16	11	4.6	91	3.3	97	249	983.2	NA	0.0000		9999	6170	7150	0	0
2018/03/04 20:35:00	BASE	5.39	15	9.16	11	4.6	91	3.3	96	246	983.2	NA	0.0000		9999	3740	6300	0	0
2018/03/04 20:36:00	BASE	3.98	15	7.97	19	4.6	91	3.3	97	250	983.2	NA	0.0000		9999	6530	0	0	0
2018/03/04 20:37:00	BASE	3.50	21	7.15	24	4.6	91	3.3	98	252	983.2	NA	0.0000		9999	6460	0	0	0
2018/03/04 20:38:01	BASE	4.35	22	7.15	24	4.6	91	3.2	99	252	983.2	NA	0.0000		9999	6500	0	0	0
2018/03/04 20:39:00	BASE	4.65	17	7.15	24	4.6	91	3.2	101	257	983.2	NA	0.0000		9999	3810	6430	0	0
2018/03/04 20:40:00	BASE	3.94	21	6.89	20	4.6	91	3.2	103	261	983.2	NA	0.0000		9999	5050	6530	0	0
2018/03/04 20:41:00	BASE	3.46	17	6.89	20	4.5	91	3.2	105	265	983.2	NA	0.0000		9999	4990	6690	0	0
2018/03/04 20:42:00	BASE	4.14	10	6.89	20	4.5	91	3.2	107	265	983.2	NA	0.0000		9999	6660	0	0	0
2018/03/04 20:43:00	BASE	5.19	6	6.89	20	4.5	92	3.3	108	266	983.2	NA	0.0000		9999	5870	0	0	0
2018/03/04 20:44:00	BASE	5.00	7	6.43	7	4.5	92	3.3	108	266	983.2	NA	0.0000		9999	6230	0	0	0
2018/03/04 20:45:00	BASE	4.77	22	6.43	7	4.5	92	3.3	106	260	983.2	NA	0.0000		9999	6400	20800	0	0
2018/03/04 20:46:00	BASE	5.64	25	7.67	17	4.5	92	3.3	103	254	983.2	NA	0.0000		9999	6400	0	0	0
2018/03/04 20:47:00	BASE	5.38	19	7.67	17	4.5	92	3.3	101	249	983.2	NA	0.0000		9999	6300	0	0	0
2018/03/04 20:48:00	BASE	4.74	19	7.67	17	4.5	92	3.3	99	246	983.2	NA	0.0000		9999	6500	0	0	0
2018/03/04 20:49:00	BASE	4.90	21	7.67	17	4.4	92	3.3	98	241	983.2	NA	0.0000		9999	6690	0	0	0
2018/03/04 20:50:00	BASE	4.71	23	7.67	17	4.4	92	3.3	96	237	983.2	NA	0.0000		9999	6730	0	0	0
2018/03/04 20:51:00	BASE	5.40	18	7.67	17	4.4	92	3.3	95	235	983.1	NA	0.0000		9999	6460	0	0	0
2018/03/04 20:52:00	BASE	6.82	14	8.64	18	4.4	93	3.3	94	234	983.1	NA	0.0000		9999	6400	0	0	0
2018/03/04 20:53:00	BASE	7.00	22	8.64	18	4.4	93	3.3	94	233	983.1	NA	0.0000		9999	6630	0	0	0
2018/03/04 20:54:00	BASE	6.86	23	8.64	17	4.3	93	3.3	93	232	983.1	NA	0.0000		9999	6790	0	0	0
2018/03/04 20:55:01	BASE	6.97	14	8.64	17	4.3	93	3.3	93	231	983.1	NA	0.0000		9999	7020	0	0	0
2018/03/04 20:56:00	BASE	6.73	17	8.64	17	4.3	93	3.3	92	228	983.1	NA	0.0000		9999	7050	0	0	0
2018/03/04 20:57:00	BASE	6.66	25	8.64	17	4.3	93	3.3	90	224	983.1	NA	0.0000		9999	7120	0	0	0
2018/03/04 20:58:00	BASE	6.47	20	8.64	17	4.4	93	3.3	89	221	983.1	NA	0.0000		9999	7150	0	0	0
2018/03/04 20:59:00	BASE	6.64	22	8.95	37	4.4	93	3.3	88	219	983.1	NA	0.0000		9999	7190	0	0	0
2018/03/04 21:00:00	BASE	6.50	24	8.95	37	4.4	92	3.3	88	217	983.2	NA	0.0000		9999	7250	0	0	0
2018/03/04 21:01:00	BASE	5.91	25	8.95	37	4.4	92	3.3	87	216	983.2	NA	0.0000		9999	7120	0	0	0
2018/03/04 21:02:00	BASE	5.93	23	8.95	37	4.4	92	3.2	88	217	983.2	NA	0.0000		9999	7120	0	0	0
2018/03/04 21:03:00	BASE	5.71	19	8.95	37	4.4	92	3.2	88	216	983.2	NA	0.0000		9999	7120	0	0	0
2018/03/04 21:04:00	BASE	5.56	16	8.95	37	4.4	92	3.2	87	215	983.2	NA	0.0000		9999	7150	0	0	0
2018/03/04 21:05:00	BASE	5.39	14	8.95	37	4.4	92	3.2	86	212	983.2	NA	0.0000		9999	7150	0	0	0
2018/03/04 21:06:00	BASE	5.07	23	8.95	37	4.4	92	3.2	86	211	983.1	NA	0.0000		9999	7150	0	0	0
2018/03/04 21:07:00	BASE	4.97	24	8.95	37	4.4	92	3.2	88	214	983.2	NA	0.0000		9999	7190	0	0	0
2018/03/04 21:08:00	BASE	5.22	25	8.95	37	4.3	92	3.2	90	217	983.2	NA	0.0000		9999	7220	0	0	0
2018/03/04 21:09:00	BASE	5.19	32	8.03	36	4.3	92	3.2	91	219	983.1	NA	0.0000		9999	7220	0	0	0
2018/03/04 21:10:00	BASE	5.32	35	8.03	36	4.3	92	3.2	91	218	983.1	NA	0.0000		9999	7220	0	0	0
2018/03/04 21:11:00	BASE	5.41	34	8.03	36	4.3	93	3.2	92	219	983.1	NA	0.0000		9999	7150	0	0	0
2018/03/04 21:12:00	BASE	5.53	26	7.92	21	4.3	93	3.2	92	219	983.0	NA	0.0000		9999	7090	0	0	0
2018/03/04 21:13:00	BASE	5.56	21	7.92	21	4.3	93	3.2	91	214	983.1	NA	0.0000		9999	7150	0	0	0
2018/03/04 21:14:00	BASE	5.83	20	7.92	21	4.3	92	3.2	88	208	983.0	NA	0.0000		9999	7150	0	0	0
2018/03/04 21:15:00	BASE	5.90	11	7.92	21	4.3	92	3.1	85	203	983.0	NA	0.0000		9999	7120	0	0	0
2018/03/04 21:16:00	BASE	5.54	5	8.18	6	4.3	92	3.1	84	201	982.9	NA	0.0000		9999	6960	0	0	0
2018/03/04 21:17:00	BASE	5.25	12	8.18	6	4.3	92	3.1	87	206	982.9	NA	0.0000		9999	7280	0	0	0
2018/03/04 21:18:00	BASE	5.00	19	8.18	6	4.3	92	3.1	86	205	982.9	NA	0.0000		9999	6960	0	0	0
2018/03/04 21:19:00	BASE	5.51	17	8.18	6	4.3	92	3.1	84	202	982.9	NA	0.0000		9999	7480	8170	0	0
2018/03/04 21:20:00	BASE	5.75	15	8.18	6	4.3	92	3.2	82	197	982.8	NA	0.0000		9999	8200	0	0	0
2018/03/04 21:21:00	BASE	5.98	19	9.21	36	4.4	92	3.2	80	194	982.9	NA	0.0000		9999	8170	0	0	0
2018/03/04 21:22:00	BASE	7.09	26	11.01	24	4.4	92	3.2	80	192	982.8	NA	0.0000		9999	8240	0	0	0
2018/03/04 21:23:00	BASE	7.87	28	11.01	24	4.4	92	3.2	81	193	982.8	NA	0.0000		9999	8240	0	0	0
2018/03/04 21:24:00	BASE	7.35	27	11.01	24	4.4	92	3.2	83	196	982.9	NA	0.0000		9999	7320	8300	0	0
2018/03/04 21:25:00	BASE	7.33	26	11.01	24	4.4	91	3.1	82	195	982.9	NA	0.0000		9999	8330	0	0	0
2018/03/04 21:26:00	BASE	7.02	25	11.01	24	4.4	91	3.1	81	193	982.9	NA	0.0000		9999	8400	0	0	0
2018/03/04 21:27:00	BASE	6.64	29	11.01	24	4.4	91	3.1	82	193	982.9	NA	0.0000		9999	8920	0	0	0
2018/03/04 21:28:00	BASE	7.32	32	11.01	24	4.5	91	3.1	80	190	982.9	NA	0.0000		9999	8530	0	0	0
2018/03/04 21:29:00	BASE	6.94	38	11.01	24	4.5	91	3.1	78	186	983.0	NA	0.0000		9999	8600	0	0	0
2018/03/04 21:30:00	BASE	5.95	43	11.01	24	4.5	91	3.1	77	183	983.0	NA	0.0000		9999	8530	0	0	0
2018/03/04 21:31:00	BASE	5.86	42	11.01	24	4.5	91	3.1	78	184	983.1	NA	0.0000		9999	8200	0	0	0
2018/03/04 21:32:00	BASE	3.90	55	9.77	34	4.5	90	3.0	82	190	983.1	NA	0.0000		9999	8270	0	0	0
2018/03/04 21:33:00	BASE	4.50	48	9.77	34	4.5	90	3.0	86	196	983.0	NA	0.0000		9999	8270	0	0	0
2018/03/04 21:34:00	BASE	6.15	29	9.77	34	4.5	90	3.0	81	188	983.0	NA	0.0000		9999	8100	0	0	0
2018/03/04 21:35:00	BASE	5.21	25	9.26	38	4.5	90	3.0	75	175	983.1	NA	0.0000		9999	8170	0	0	0
2018/03/04 21:36:00	BASE	4.47	30	9.26	38	4.5	90	3.0	71	168	983.1	NA	0.0000		9999	8070	0	0	0
2018/03/04 21:37:00	BASE	3.59	50	9.26	38	4.6	90	3.1	68	162	983.1	NA	0.0000		9999	8270	0	0	0
2018/03/04 21:38:00	BASE	4.60	47	9.11	6	4.6	90	3.1	65	156	983.1	NA	0.0000		9999	8270	0	0	0
2018/03/04 21:39:00	BASE	6.72	28	11.83	9	4.6	90	3.1	63	152	983.0	NA	0.0000		9999	8270	0	0	0
2018/03/04 21:40:00	BASE	7.57	18	11.83	9	4.5	90	3.1	62	149	983.0	NA	0.0000		9999	8100	0	0	0
2018/03/04 21:41:00	BASE	6.83	16	11.83	9	4.5	90	3.0	61	146	982.9	NA	0.0000		9999	8070	0	0	0
2018/03/04 21:42:00	BASE	7.18	18	11.83	9	4.4	91	3.1	59	142	982.9	NA	0.0000	-RA	9999	7940	0	0	0
2018/03/04 21:43:00	BASE	7.25	16	11.83	9	4.4	91	3.1	58	140	982.9	NA	0.0000	-RA	9999	7840	0	0	0
2018/03/04 21:44:00	BASE	6.59	12	11.83	9	4.4	92	3.2	58	139	982.9	NA	0.0000	-RA	9999	7840	0	0	0
2018/03/04 21:45:00	BASE	7.36	14	11.83	9	4.3	92	3.2	57	137	982.8	NA	0.0000	-RA	9999	7780	0	0	0
2018/03/04 21:46:00	BASE	7.30	19	11.83	9	4.3	93	3.2	56	135	982.9	NA	0.0000	-RA	9999	7640	0	0	0
2018/03/04 21:47:00	BASE	6.53	21	11.83	9	4.3	93	3.2	55	132	982.9	NA	0.0000	-RA	9999	7550	0	0	0
2018/03/04 21:48:00	BASE	6.68	18	11.83	9	4.3	93	3.3	53	128	982.8	NA	0.0000	-RA	9999	7740	0	0	0
2018/03/04 21:49:00	BASE	6.56	15	10.44	19	4.2	93	3.3	51	124	982.9	NA	0.0000	-RA	9999	7680	0	0	0
2018/03/04 21:50:00	BASE	5.36	18	10.08	7	4.2	94	3.3	50	122	982.9	NA	0.0000	-RA	9999	7640	0	0	0
2018/03/04 21:51:00	BASE	4.89	15	10.08	7	4.2	94	3.3	49	120	982.9	NA	0.0000		9999	7740	0	0	0
2018/03/04 21:52:00	BASE	5.46	10	10.08	7	4.2	94	3.3	49	119	982.9	NA	0.0000		9999	7710	0	0	0
2018/03/04 21:53:00	BASE	6.22	8	10.08	7	4.2	94	3.3	49	117	982.9	NA	0.0000		9999	7710	0	0	0
2018/03/04 21:54:00	BASE	7.34	11	10.08	7	4.2	94	3.3	48	115	982.8	NA	0.0000		9999	7740	0	0	0
2018/03/04 21:55:00	BASE	7.26	14	9.21	14	4.2	94	3.3	46	112	982.9	NA	0.0000		9999	7710	0	0	0
2018/03/04 21:56:00	BASE	5.57	17	9.21	14	4.2	94	3.3	45	109	982.9	NA	0.0000		9999	7710	0	0	0
2018/03/04 21:57:00	BASE	4.85	26	9.21	14	4.2	94	3.3	43	105	982.9	NA	0.0000		9999	7580	8460	0	0
2018/03/04 21:58:00	BASE	5.22	35	9.21	14	4.2	94	3.3	42	101	982.9	NA	0.0000		9999	7710	0	0	0
2018/03/04 21:59:00	BASE	4.96	42	9.21	14	4.2	94	3.3	40	97	982.9	NA	0.0000		9999	7710	0	0	0
2018/03/04 22:00:00	BASE	5.40	44	9.21	14	4.2	94	3.3	38	93	982.9	NA	0.0000		9999	7740	0	0	0
2018/03/04 22:01:00	BASE	5.97	47	9.21	14	4.2	94	3.3	36	90	982.9	NA	0.0000		9999	7710	0	0	0
2018/03/04 22:02:00	BASE	6.84	44	9.21	14	4.2	94	3.3	35	87	982.9	NA	0.0000		9999	7420	7780	0	0
2018/03/04 22:04:42	BASE	M	M	9.21	14	4.2	94	3.3	35	87	M	NA	0.0000		M	7420	7780	0	0
2018/03/04 22:04:49	BASE	M	M	9.00	51	4.2	94	3.3	M	M	M	NA	0.0000		M	M	M	M	M
2018/03/04 22:05:00	BASE	M	M	9.00	51	4.2	94	3.3	35	86	M	NA	0.0000		M	7090	0	0	0
2018/03/04 22:06:01	BASE	M	M	9.00	51	4.2	94	3.3	35	85	983.0	NA	0.0000	-RA	7000	7380	0	0	0
2018/03/04 22:07:01	BASE	3.91	83	9.00	51	4.2	94	3.3	35	85	983.0	NA	0.0000	-RA	6000	7450	0	0	0
2018/03/04 22:08:00	BASE	4.30	79	9.00	51	4.2	94	3.3	34	82	982.9	NA	0.0000	-RA	8000	7350	0	0	0
2018/03/04 22:09:00	BASE	4.76	74	9.00	51	3.8	95	3.0	30	76	982.9	NA	0.0000	-RA	8000	7350	0	0	0
2018/03/04 22:10:00	BASE	4.41	83	9.00	51	3.8	95	3.0	29	73	982.9	NA	0.0000	-RA	9999	7280	0	0	0
2018/03/04 22:11:00	BASE	4.41	81	9.00	51	3.7	95	3.0	28	71	982.9	NA	0.0000	-RA	9999	7350	0	0	0
2018/03/04 22:12:00	BASE	5.27	65	8.28	54	3.7	95	3.1	28	70	982.9	NA	0.0000	-RA	9999	7450	0	0	0
2018/03/04 22:13:00	BASE	5.60	51	8.28	54	3.8	96	3.2	28	69	982.9	NA	0.0000	-RA BR	9999	7320	0	0	0
2018/03/04 22:14:00	BASE	4.42	40	8.28	54	3.8	96	3.2	27	67	982.9	NA	0.0000	-RA BR	9999	7150	0	0	0
2018/03/04 22:15:00	BASE	3.91	30	7.67	39	3.9	96	3.3	26	66	982.9	NA	0.0000	BR	9999	7150	0	0	0
2018/03/04 22:16:00	BASE	3.52	33	7.67	39	4.0	96	3.4	25	63	982.9	NA	0.0000	BR	9999	7120	0	0	0
2018/03/04 22:17:00	BASE	4.03	49	9.47	42	4.1	96	3.5	24	61	982.8	NA	0.0000		9999	7150	0	0	0
2018/03/04 22:18:00	BASE	5.23	46	9.47	42	4.2	95	3.4	23	58	982.8	NA	0.0000		9999	7250	0	0	0
2018/03/04 22:19:00	BASE	4.96	38	9.47	42	4.2	95	3.4	22	56	982.8	NA	0.0000		9999	7220	0	0	0
2018/03/04 22:20:00	BASE	4.63	38	9.47	42	4.2	94	3.4	21	53	982.8	NA	0.0000		9999	7220	0	0	0
2018/03/04 22:21:00	BASE	4.55	32	9.47	42	4.2	94	3.3	20	51	982.8	NA	0.0000		9999	7220	0	0	0
2018/03/04 22:22:00	BASE	4.40	37	9.47	42	4.2	94	3.3	19	49	982.8	NA	0.0000		9999	7320	0	0	0
2018/03/04 22:23:00	BASE	4.64	41	9.47	42	4.2	93	3.2	18	48	982.8	NA	0.0000		9999	7280	0	0	0
2018/03/04 22:24:00	BASE	4.99	29	9.47	42	4.2	93	3.2	18	46	982.7	NA	0.0000		9999	7280	0	0	0
2018/03/04 22:25:00	BASE	4.64	34	9.47	42	4.2	93	3.2	17	45	982.8	NA	0.0000		9999	7280	0	0	0
2018/03/04 22:26:00	BASE	5.10	41	9.47	42	4.2	93	3.2	17	43	982.7	NA	0.0000		9999	7350	0	0	0
2018/03/04 22:27:00	BASE	6.63	41	8.69	22	4.2	93	3.1	16	42	982.7	NA	0.0000		9999	7450	0	0	0
2018/03/04 22:28:00	BASE	6.42	46	8.69	22	4.2	93	3.1	16	41	982.7	NA	0.0000		9999	7420	0	0	0
2018/03/04 22:29:00	BASE	5.99	47	8.69	22	4.2	93	3.1	15	40	982.8	NA	0.0000		9999	7450	0	0	0
2018/03/04 22:30:00	BASE	6.42	42	8.69	22	4.2	93	3.1	15	39	982.7	NA	0.0000		9999	6860	0	0	0
2018/03/04 22:31:00	BASE	6.66	34	8.69	22	4.1	93	3.1	15	39	982.6	NA	0.0000		9999	7420	0	0	0
2018/03/04 22:32:00	BASE	6.93	28	8.80	19	4.1	93	3.1	15	38	982.6	NA	0.0000		9999	7420	0	0	0
2018/03/04 22:33:00	BASE	8.31	25	11.27	23	4.1	93	3.1	15	38	982.5	NA	0.0000		9999	6960	7480	0	0
2018/03/04 22:34:00	BASE	8.92	25	11.27	23	4.1	93	3.1	15	38	982.4	NA	0.0000		9999	6760	0	0	0
2018/03/04 22:35:00	BASE	8.99	23	12.66	24	4.1	93	3.1	15	37	982.4	NA	0.0000		9999	6760	7280	0	0
2018/03/04 22:36:00	BASE	9.34	22	12.66	24	4.1	93	3.1	14	36	982.3	NA	0.0000		9999	6820	0	0	0
2018/03/04 22:37:00	BASE	8.69	23	12.66	24	4.1	93	3.1	14	36	982.3	NA	0.0000		9999	7120	0	0	0
2018/03/04 22:38:00	BASE	9.52	21	12.66	24	4.1	93	3.1	14	35	982.2	NA	0.0000		9999	7050	0	0	0
2018/03/04 22:39:00	BASE	10.57	21	12.66	24	4.1	93	3.1	14	35	982.2	NA	0.0000		9999	6590	7580	0	0
2018/03/04 22:40:00	BASE	10.85	21	12.76	22	4.1	93	3.1	14	34	982.1	NA	0.0000		9999	7450	0	0	0
2018/03/04 22:41:00	BASE	10.85	21	12.76	22	4.1	93	3.0	14	34	982.1	NA	0.0000		9999	7450	0	0	0
2018/03/04 22:42:00	BASE	10.83	20	13.48	25	4.1	93	3.0	14	34	982.0	NA	0.0000		9999	7420	0	0	0
2018/03/04 22:43:00	BASE	10.84	21	13.48	25	4.1	92	3.0	14	34	982.0	NA	0.0000		9999	7350	0	0	0
2018/03/04 22:44:00	BASE	11.60	22	15.74	19	4.1	92	2.9	14	33	981.9	NA	0.0000		9999	7320	0	0	0
2018/03/04 22:45:00	BASE	12.28	23	15.74	19	4.2	91	2.9	13	32	982.0	NA	0.0000		9999	7250	0	0	0
2018/03/04 22:46:00	BASE	11.82	23	15.74	19	4.2	91	2.9	13	31	981.9	NA	0.0000		9999	7150	0	0	0
2018/03/04 22:47:00	BASE	11.30	20	15.74	19	4.2	91	2.8	13	30	982.0	NA	0.0000		9999	7250	0	0	0
2018/03/04 22:48:00	BASE	11.41	23	15.74	19	4.2	91	2.8	12	29	981.9	NA	0.0000		9999	7350	0	0	0
2018/03/04 22:49:00	BASE	11.26	22	15.74	19	4.2	90	2.8	12	28	981.9	NA	0.0000		9999	7510	0	0	0
2018/03/04 22:50:00	BASE	10.52	20	15.74	19	4.2	90	2.8	11	26	981.9	NA	0.0000		9999	7580	0	0	0
2018/03/04 22:51:00	BASE	10.65	19	15.74	19	4.2	90	2.7	10	25	981.9	NA	0.0000		9999	7580	0	0	0
2018/03/04 22:52:00	BASE	10.81	19	15.74	19	4.3	90	2.7	10	23	981.9	NA	0.0000		9999	7480	0	0	0
2018/03/04 22:53:00	BASE	10.28	19	15.74	19	4.3	90	2.7	9	22	981.9	NA	0.0000		9999	7480	0	0	0
2018/03/04 22:54:00	BASE	10.36	21	14.40	26	4.3	89	2.7	9	21	981.9	NA	0.0000		9999	7480	0	0	0
2018/03/04 22:55:00	BASE	10.61	22	14.40	26	4.3	89	2.6	8	20	981.9	NA	0.0000		9999	7510	0	0	0
2018/03/04 22:56:00	BASE	10.29	22	14.40	26	4.3	89	2.6	8	18	981.9	NA	0.0000		9999	7420	0	0	0
2018/03/04 22:57:00	BASE	10.16	22	14.40	26	4.3	88	2.6	7	17	981.9	NA	0.0000		9999	7320	0	0	0
2018/03/04 22:58:00	BASE	9.71	24	13.58	8	4.3	88	2.5	7	17	981.9	NA	0.0000		9999	7420	0	0	0
2018/03/04 22:59:00	BASE	9.20	28	13.58	8	4.4	88	2.5	7	16	981.9	NA	0.0000		9999	7380	0	0	0
2018/03/04 23:00:00	BASE	9.43	30	13.58	8	4.4	87	2.5	6	15	981.9	NA	0.0000		9999	7350	0	0	0
2018/03/04 23:01:00	BASE	9.82	28	13.58	8	4.4	87	2.4	6	14	981.9	NA	0.0000		9999	7380	0	0	0
2018/03/04 23:02:00	BASE	10.08	29	13.12	18	4.4	87	2.4	6	14	982.0	NA	0.0000		9999	7420	0	0	0
2018/03/04 23:03:00	BASE	9.56	32	13.12	18	4.4	86	2.3	6	13	982.0	NA	0.0000		9999	7380	0	0	0
2018/03/04 23:04:00	BASE	9.22	33	12.76	18	4.5	86	2.3	5	13	982.0	NA	0.0000		9999	7380	0	0	0
2018/03/04 23:05:00	BASE	9.34	33	11.94	24	4.5	85	2.2	5	12	982.1	NA	0.0000		9999	7420	0	0	0
2018/03/04 23:06:00	BASE	8.76	36	11.94	24	4.5	85	2.2	5	11	982.1	NA	0.0000		9999	7420	0	0	0
2018/03/04 23:07:00	BASE	7.97	38	11.57	32	4.6	84	2.1	4	11	982.1	NA	0.0000		9999	7220	0	0	0
2018/03/04 23:08:00	BASE	7.19	37	11.57	32	4.6	84	2.1	4	10	982.2	NA	0.0000		9999	7150	0	0	0
2018/03/04 23:09:00	BASE	7.14	33	11.57	32	4.6	83	2.0	4	9	982.2	NA	0.0000		9999	7190	0	0	0
2018/03/04 23:10:00	BASE	6.71	32	11.57	32	4.6	83	2.0	4	8	982.2	NA	0.0000		9999	7280	0	0	0
2018/03/04 23:11:01	BASE	6.70	30	11.57	32	4.6	83	2.0	3	8	982.2	NA	0.0000		9999	7220	0	0	0
2018/03/04 23:12:00	BASE	6.39	22	11.57	32	4.6	83	1.9	3	7	982.2	NA	0.0000		9999	7120	0	0	0
2018/03/04 23:13:00	BASE	5.79	22	11.57	32	4.6	83	1.9	3	7	982.2	NA	0.0000		9999	7190	0	0	0
2018/03/04 23:14:00	BASE	5.82	21	11.01	28	4.6	82	1.9	3	6	982.2	NA	0.0000		9999	7190	0	0	0
2018/03/04 23:15:00	BASE	5.81	23	10.19	31	4.6	82	1.8	3	6	982.2	NA	0.0000		9999	7020	0	0	0
2018/03/04 23:16:00	BASE	6.35	28	9.52	26	4.6	82	1.8	3	6	982.1	NA	0.0000		9999	6920	0	0	0
2018/03/04 23:17:00	BASE	5.66	29	9.52	26	4.6	82	1.8	2	5	982.2	NA	0.0000		9999	6960	0	0	0
2018/03/04 23:18:00	BASE	4.83	28	9.52	26	4.6	82	1.8	2	5	982.2	NA	0.0000		9999	7050	0	0	0
2018/03/04 23:19:00	BASE	4.61	34	8.69	34	4.6	82	1.8	2	4	982.3	NA	0.0000		9999	7090	0	0	0
2018/03/04 23:20:00	BASE	4.38	38	8.69	34	4.6	82	1.8	2	4	982.3	NA	0.0000		9999	6990	0	0	0
2018/03/04 23:21:00	BASE	5.02	37	8.18	28	4.5	82	1.7	2	4	982.3	NA	0.0000		9999	7020	0	0	0
2018/03/04 23:22:00	BASE	4.90	44	8.18	28	4.5	82	1.7	2	3	982.3	NA	0.0000		9999	7050	0	0	0
2018/03/04 23:23:00	BASE	3.88	55	8.08	27	4.5	82	1.7	1	3	982.3	NA	0.0000		9999	7050	0	0	0
2018/03/04 23:24:00	BASE	3.73	82	8.08	27	4.4	82	1.6	1	3	982.3	NA	0.0000		9999	7020	0	0	0
2018/03/04 23:25:00	BASE	3.69	111	8.08	27	4.2	82	1.5	1	3	982.3	NA	0.0000		9999	7120	0	0	0
2018/03/04 23:26:00	BASE	2.88	125	6.84	35	4.0	83	1.4	1	2	982.3	NA	0.0000		9999	7120	0	0	0
2018/03/04 23:27:00	BASE	1.76	126	6.84	35	3.8	84	1.3	1	2	982.3	NA	0.0000		9999	7120	0	0	0
2018/03/04 23:28:00	BASE	0.61	125	6.84	35	3.5	85	1.2	1	2	982.3	NA	0.0000		9999	7020	0	0	0
2018/03/04 23:29:00	BASE	0.09	132	6.84	35	3.3	86	1.2	1	2	982.3	NA	0.0000		9999	6960	0	0	0
2018/03/04 23:30:00	BASE	1.20	141	6.84	35	3.2	87	1.3	1	1	982.2	NA	0.0000		9999	6890	0	0	0
2018/03/04 23:31:00	BASE	2.43	147	5.92	59	3.1	88	1.4	1	1	982.2	NA	0.0000		9999	6890	0	0	0
2018/03/04 23:32:00	BASE	2.93	151	5.09	124	3.1	89	1.5	1	1	982.2	NA	0.0000		9999	6890	0	0	0
2018/03/04 23:33:00	BASE	3.40	152	5.09	124	3.0	90	1.6	1	1	982.2	NA	0.0000		9999	7020	0	0	0
2018/03/04 23:34:00	BASE	3.31	149	5.09	124	3.0	91	1.6	1	1	982.2	NA	0.0000		9999	7020	0	0	0
2018/03/04 23:35:00	BASE	3.18	145	4.12	148	2.9	92	1.7	1	1	982.2	NA	0.0000		9999	7320	0	0	0
2018/03/04 23:36:00	BASE	3.50	149	4.12	148	2.8	92	1.7	1	0	982.0	NA	0.0000		9999	7090	0	0	0
2018/03/04 23:37:00	BASE	3.66	155	4.37	157	2.8	93	1.7	0	0	982.0	NA	0.0000		9999	7050	0	0	0
2018/03/04 23:38:00	BASE	3.54	150	4.37	157	2.7	93	1.8	0	0	982.1	NA	0.0000		9999	6760	0	0	0
2018/03/04 23:39:00	BASE	3.80	146	4.78	146	2.7	94	1.8	0	0	982.0	NA	0.0000		9999	7090	0	0	0
2018/03/04 23:40:00	BASE	3.63	144	4.78	146	2.6	94	1.8	0	0	982.1	NA	0.0000		9999	7150	0	0	0
2018/03/04 23:41:00	BASE	3.64	140	4.99	133	2.6	95	1.9	0	0	982.1	NA	0.0000		9999	7320	0	0	0
2018/03/04 23:42:00	BASE	4.18	136	4.99	133	2.5	95	1.9	0	0	982.0	NA	0.0000		9999	6630	0	0	0
2018/03/04 23:43:00	BASE	4.04	133	4.99	133	2.5	96	1.9	0	0	982.0	NA	0.0000		9999	7190	0	0	0
2018/03/04 23:44:00	BASE	3.70	127	4.99	133	2.5	96	2.0	0	0	982.0	NA	0.0000		9999	7220	0	0	0
2018/03/04 23:45:00	BASE	3.75	125	4.99	133	2.5	97	2.0	0	0	981.9	NA	0.0000		9999	7150	0	0	0
2018/03/04 23:46:00	BASE	3.70	123	4.99	133	2.5	97	2.0	0	0	982.0	NA	0.0000		9999	7150	0	0	0
2018/03/04 23:47:00	BASE	3.51	119	4.99	133	2.5	97	2.1	0	0	982.0	NA	0.0000		9999	7190	0	0	0
2018/03/04 23:48:00	BASE	3.62	119	4.99	133	2.5	97	2.1	0	0	982.0	NA	0.0000		9999	7120	0	0	0
2018/03/04 23:49:00	BASE	3.22	117	4.99	133	2.5	97	2.1	0	0	982.0	NA	0.0000		9999	7150	0	0	0
2018/03/04 23:50:00	BASE	2.89	120	4.99	133	2.5	97	2.1	0	0	982.0	NA	0.0000		9999	6920	0	0	0
2018/03/04 23:51:00	BASE	3.26	124	4.42	120	2.5	97	2.1	0	0	981.9	NA	0.0000		9999	6990	0	0	0
2018/03/04 23:52:00	BASE	3.43	119	4.42	120	2.5	97	2.1	0	0	981.9	NA	0.0000		9999	6960	0	0	0
2018/03/04 23:53:00	BASE	3.06	107	4.42	120	2.5	97	2.1	0	0	982.0	NA	0.0000		9999	6820	0	0	0
2018/03/04 23:54:00	BASE	2.99	104	4.42	120	2.5	97	2.1	0	0	982.0	NA	0.0000		9999	7050	0	0	0
2018/03/04 23:55:00	BASE	3.07	108	4.37	117	2.5	97	2.1	0	0	982.0	NA	0.0000		9999	6330	0	0	0
2018/03/04 23:56:00	BASE	3.27	108	4.37	114	2.6	97	2.1	0	0	982.0	NA	0.0000		9999	6920	0	0	0
2018/03/04 23:57:00	BASE	3.75	111	4.53	111	2.6	96	2.1	0	0	982.0	NA	0.0000		9999	6500	0	0	0
2018/03/04 23:58:00	BASE	3.97	116	4.53	111	2.7	96	2.1	0	0	982.0	NA	0.0000		9999	6590	0	0	0
2018/03/04 23:59:00	BASE	4.07	116	4.53	111	2.8	96	2.1	0	0	982.0	NA	0.0000		9999	6430	0	0	0